Provisional Data: Chiques Creek near Route 283


Please select a monitoring station.
Please select start date.
Please select start date.

Toggle Unit: C/F Toggle Unit: C/F
Sample Time Temperature (C) Temperature (F) Specific Conductivity (mS/cm) pH   Turbidity (NTU+) DO (mg/L)
3/23/2021 12:00:00 AM 10.64 51.152 0.44 8.15 29.11 12.11
3/23/2021 12:15:00 AM 10.57 51.026 0.44 8.14 29.73 12.08
3/23/2021 12:30:00 AM 10.49 50.882 0.44 8.12 29.28 12.04
3/23/2021 12:45:00 AM 10.42 50.756 0.44 8.11 28.62 12.01
3/23/2021 1:00:00 AM 10.34 50.612 0.441 8.1 22.36 11.97
3/23/2021 1:15:00 AM 10.27 50.486 0.441 8.09 21.67 11.96
3/23/2021 1:30:00 AM 10.19 50.342 0.443 8.08 19.79 11.94
3/23/2021 1:45:00 AM 10.11 50.198 0.442 8.07 20.14 11.92
3/23/2021 2:00:00 AM 10.04 50.072 0.442 8.06 34.65 11.91
3/23/2021 2:15:00 AM 9.96 49.928 0.444 8.05 43.45 11.91
3/23/2021 2:30:00 AM 9.88 49.784 0.444 8.04 48.31 11.9
3/23/2021 2:45:00 AM 9.81 49.658 0.444 8.03 50.81 11.89
3/23/2021 3:00:00 AM 9.73 49.514 0.444 8.03 47.27 11.87
3/23/2021 3:15:00 AM 9.66 49.388 0.444 8.02 43.14 11.87
3/23/2021 3:30:00 AM 9.59 49.262 0.444 8.02 41.42 11.88
3/23/2021 3:45:00 AM 9.52 49.136 0.444 8.01 42.69 11.87
3/23/2021 4:00:00 AM 9.45 49.01 0.445 8 39.87 11.86
3/23/2021 4:15:00 AM 9.39 48.902 0.444 8 29.69 11.86
3/23/2021 4:30:00 AM 9.33 48.794 0.445 7.99 30.54 11.85
3/23/2021 4:45:00 AM 9.26 48.668 0.446 7.99 30.02 11.85
3/23/2021 5:00:00 AM 9.2 48.56 0.443 7.98 24.07 11.85
3/23/2021 5:15:00 AM 9.14 48.452 0.444 7.98 30 11.85
3/23/2021 5:30:00 AM 9.08 48.344 0.446 7.97 28.69 11.83
3/23/2021 5:45:00 AM 9.02 48.236 0.448 7.97 33.56 11.85
3/23/2021 6:00:00 AM 8.97 48.146 0.45 7.96 32.44 11.86
3/23/2021 6:15:00 AM 8.92 48.056 0.451 7.96 32.75 11.85
3/23/2021 6:30:00 AM 8.87 47.966 0.453 7.95 31.28 11.86
3/23/2021 6:45:00 AM 8.82 47.876 0.455 7.95 30.74 11.86
3/23/2021 7:00:00 AM 8.78 47.804 0.456 7.94 31.51 11.87
3/23/2021 7:15:00 AM 8.73 47.714 0.457 7.94 31.7 11.88
3/23/2021 7:30:00 AM 8.69 47.642 0.458 7.94 31.03 11.91
3/23/2021 7:45:00 AM 8.65 47.57 0.459 7.94 23.72 11.94
3/23/2021 8:00:00 AM 8.61 47.498 0.46 7.94 33.61 11.95
3/23/2021 8:15:00 AM 8.59 47.462 0.46 7.94 31.01 11.97
3/23/2021 8:30:00 AM 8.57 47.426 0.459 7.94 30.28 12.01
3/23/2021 8:45:00 AM 8.56 47.408 0.46 7.94 31.01 12.04
3/23/2021 9:00:00 AM 8.56 47.408 0.461 7.94 11.91 12.08
3/23/2021 9:15:00 AM 8.56 47.408 0.462 7.94 11.43 12.12
3/23/2021 9:30:00 AM 8.57 47.426 0.461 7.95 12.81 12.14
3/23/2021 9:45:00 AM 8.59 47.462 0.46 7.95 12.17 12.16
3/23/2021 10:00:00 AM 8.63 47.534 0.46 7.96 11.44 12.22
3/23/2021 10:15:00 AM 8.67 47.606 0.46 7.96 12.13 12.25
3/23/2021 10:30:00 AM 8.69 47.642 0.459 7.96 10.69 12.27
3/23/2021 10:45:00 AM 8.73 47.714 0.458 7.97 11.03 12.3
3/23/2021 11:00:00 AM 8.77 47.786 0.458 7.97 11.86 12.31
3/23/2021 11:15:00 AM 8.79 47.822 0.457 7.97 11.13 12.32
3/23/2021 11:30:00 AM 8.86 47.948 0.458 7.98 11.28 12.36
3/23/2021 11:45:00 AM 8.92 48.056 0.458 7.98 13.11 12.38
3/23/2021 12:00:00 PM 8.99 48.182 0.458 7.99 13.66 12.42
3/23/2021 12:15:00 PM 9.05 48.29 0.458 7.99 13.75 12.44
3/23/2021 12:30:00 PM 9.13 48.434 0.459 8 12.48 12.46
3/23/2021 12:45:00 PM 9.2 48.56 0.459 8 12.95 12.5
3/23/2021 1:00:00 PM 9.27 48.686 0.46 8.01 13.08 12.54
3/23/2021 1:15:00 PM 9.33 48.794 0.46 8.02 12.72 12.55
3/23/2021 1:30:00 PM 9.46 49.028 0.46 8.04 13.61 12.63
3/23/2021 1:45:00 PM 9.6 49.28 0.461 8.05 13.21 12.68
3/23/2021 2:00:00 PM 9.73 49.514 0.461 8.07 13.16 12.71
3/23/2021 2:15:00 PM 9.84 49.712 0.461 8.08 12.08 12.75
3/23/2021 2:30:00 PM 9.94 49.892 0.461 8.1 11.73 12.78
3/23/2021 2:45:00 PM 10.07 50.126 0.463 8.12 11.16 12.82
3/23/2021 3:00:00 PM 10.17 50.306 0.46 8.13 10.82 12.86
3/23/2021 3:15:00 PM 10.3 50.54 0.459 8.15 11.29 12.89
3/23/2021 3:30:00 PM 10.44 50.792 0.461 8.17 12.42 12.92
3/23/2021 3:45:00 PM 10.61 51.098 0.46 8.2 10.93 12.99
3/23/2021 4:00:00 PM 10.7 51.26 0.459 8.21 7.67 12.97
3/23/2021 4:15:00 PM 10.75 51.35 0.458 8.23 260.58 12.93
3/23/2021 4:30:00 PM 10.87 51.566 0.457 8.25 7.72 13
3/23/2021 4:45:00 PM 10.97 51.746 0.456 8.26 261.62 12.98
3/23/2021 5:00:00 PM 11.08 51.944 0.456 8.28 263.78 13.01
3/23/2021 5:15:00 PM 11.16 52.088 0.456 8.29 12.59 12.98
3/23/2021 5:30:00 PM 11.23 52.214 0.456 8.3 12.07 12.93
3/23/2021 5:45:00 PM 11.3 52.34 0.456 8.31 27.71 12.93
3/23/2021 6:00:00 PM 11.37 52.466 0.456 8.32 8.42 12.89
3/23/2021 6:15:00 PM 11.44 52.592 0.456 8.34 13.81 12.87
3/23/2021 6:30:00 PM 11.51 52.718 0.456 8.34 8.34 12.86
3/23/2021 6:45:00 PM 11.56 52.808 0.456 8.35 7.98 12.84
3/23/2021 7:00:00 PM 11.62 52.916 0.456 8.36 9.03 12.8
3/23/2021 7:15:00 PM 11.66 52.988 0.456 8.36 9.32 12.76
3/23/2021 7:30:00 PM 11.69 53.042 0.455 8.37 9.37 12.74
3/23/2021 7:45:00 PM 11.72 53.096 0.455 8.37 9.53 12.7
3/23/2021 8:00:00 PM 11.75 53.15 0.455 8.37 7.43 12.7
3/23/2021 8:15:00 PM 11.77 53.186 0.444 8.37 8.95 12.68
3/23/2021 8:30:00 PM 11.79 53.222 0.454 8.37 8.67 12.65
3/23/2021 8:45:00 PM 11.8 53.24 0.453 8.37 166.91 12.62
3/23/2021 9:00:00 PM 11.81 53.258 0.453 8.37 15.67 12.59
3/23/2021 9:15:00 PM 11.81 53.258 0.452 8.37 15.92 12.56
3/23/2021 9:30:00 PM 11.82 53.276 0.452 8.37 14.69 12.52
3/23/2021 9:45:00 PM 11.81 53.258 0.451 8.36 18.5 12.49
3/23/2021 10:00:00 PM 11.8 53.24 0.451 8.36 9.62 12.45
3/23/2021 10:15:00 PM 11.79 53.222 0.45 8.36 11.16 12.39
3/23/2021 10:30:00 PM 11.77 53.186 0.449 8.35 10 12.33
3/23/2021 10:45:00 PM 11.75 53.15 0.449 8.34 13.35 12.29
3/23/2021 11:00:00 PM 11.72 53.096 0.449 8.33 8.74 12.22
3/23/2021 11:15:00 PM 11.68 53.024 0.448 8.31 9.82 12.17
3/23/2021 11:30:00 PM 11.64 52.952 0.447 8.29 9.46 12.12
3/23/2021 11:45:00 PM 11.6 52.88 0.447 8.27 10.1 12.05
3/24/2021 12:00:00 AM 11.55 52.79 0.446 8.25 9.95 11.99
3/24/2021 12:15:00 AM 11.51 52.718 0.444 8.23 10.77 11.94
3/24/2021 12:30:00 AM 11.47 52.646 0.444 8.21 10.7 11.9
3/24/2021 12:45:00 AM 11.43 52.574 0.437 8.2 15.24 11.85
3/24/2021 1:00:00 AM 11.39 52.502 0.444 8.18 15.61 11.78
3/24/2021 1:15:00 AM 11.35 52.43 0.444 8.17 12.32 11.75
3/24/2021 1:30:00 AM 11.31 52.358 0.444 8.15 12.79 11.72
3/24/2021 1:45:00 AM 11.27 52.286 0.444 8.14 12.76 11.69
3/24/2021 2:00:00 AM 11.23 52.214 0.444 8.13 10.5 11.67
3/24/2021 2:15:00 AM 11.19 52.142 0.444 8.12 13.03 11.63
3/24/2021 2:30:00 AM 11.15 52.07 0.444 8.11 10.11 11.6
3/24/2021 2:45:00 AM 11.11 51.998 0.444 8.11 105.81 11.6
3/24/2021 3:00:00 AM 11.07 51.926 0.444 8.1 102.31 11.57
3/24/2021 3:15:00 AM 11.04 51.872 0.444 8.09 104.16 11.54
3/24/2021 3:30:00 AM 11 51.8 0.444 8.08 116.15 11.52
3/24/2021 3:45:00 AM 10.97 51.746 0.444 8.07 105.9 11.42
3/24/2021 4:00:00 AM 10.94 51.692 0.444 8.07 98.84 11.45
3/24/2021 4:15:00 AM 10.91 51.638 0.444 8.06 121.73 11.44
3/24/2021 4:30:00 AM 10.88 51.584 0.444 8.05 108.35 11.41
3/24/2021 4:45:00 AM 10.85 51.53 0.444 8.05 115.81 11.41
3/24/2021 5:00:00 AM 10.83 51.494 0.445 8.04 93.46 11.41
3/24/2021 5:15:00 AM 10.81 51.458 0.446 8.03 113.19 11.43
3/24/2021 5:30:00 AM 10.79 51.422 0.446 8.03 755.67 11.21
3/24/2021 5:45:00 AM 10.77 51.386 0.447 8.02 500.08 11.27
3/24/2021 6:00:00 AM 10.76 51.368 0.448 8.02 2889.32 11.25
3/24/2021 6:15:00 AM 10.75 51.35 0.449 8.01 62.68 11.36
3/24/2021 6:30:00 AM 10.74 51.332 0.45 8 64.62 11.34
3/24/2021 6:45:00 AM 10.73 51.314 0.451 8 62.17 11.34
3/24/2021 7:00:00 AM 10.73 51.314 0.452 7.99 81.45 11.32
3/24/2021 7:15:00 AM 10.72 51.296 0.453 7.99 118.32 11.31
3/24/2021 7:30:00 AM 10.72 51.296 0.454 7.98 60.92 11.31
3/24/2021 7:45:00 AM 10.72 51.296 0.455 7.98 73.56 11.3
3/24/2021 8:00:00 AM 10.72 51.296 0.454 7.97 57.6 11.29
3/24/2021 8:15:00 AM 10.72 51.296 0.455 7.97 65.99 11.29
3/24/2021 8:30:00 AM 10.73 51.314 0.455 7.96 67.17 11.29
3/24/2021 8:45:00 AM 10.73 51.314 0.455 7.96 110.66 11.28
3/24/2021 9:00:00 AM 10.74 51.332 0.456 7.96 15.98 11.29
3/24/2021 9:15:00 AM 10.74 51.332 0.456 7.95 17.47 11.28
3/24/2021 9:30:00 AM 10.75 51.35 0.457 7.95 28.1 11.27
3/24/2021 9:45:00 AM 10.75 51.35 0.457 7.95 3023.77 11.2
3/24/2021 10:00:00 AM 10.76 51.368 0.458 7.94 3717.16 11.25
3/24/2021 10:15:00 AM 10.77 51.386 0.458 7.94 3331.1 11.2
3/24/2021 10:30:00 AM 10.78 51.404 0.458 7.94 3190.12 11.28
3/24/2021 10:45:00 AM 10.79 51.422 0.458 7.94 414.95 11.32
3/24/2021 11:00:00 AM 10.81 51.458 0.458 7.94 326.89 11.35
3/24/2021 11:15:00 AM 10.82 51.476 0.458 7.94 272.09 11.31
3/24/2021 11:30:00 AM 10.82 51.476 0.457 7.93 181.24 11.31
3/24/2021 11:45:00 AM 10.84 51.512 0.455 7.93 40.81 11.25
3/24/2021 12:00:00 PM 10.85 51.53 0.454 7.94 26.19 11.21
3/24/2021 12:15:00 PM 10.85 51.53 0.453 7.93 29.82 11.19
3/24/2021 12:30:00 PM 10.86 51.548 0.455 7.92 28.84 11.24
3/24/2021 12:45:00 PM 10.87 51.566 0.452 7.93 79.59 11.34
3/24/2021 1:00:00 PM 10.88 51.584 0.451 7.93 66.36 11.34
3/24/2021 1:15:00 PM 10.88 51.584 0.452 7.93 32.04 11.32
3/24/2021 1:30:00 PM 10.89 51.602 0.451 7.93 4312.59 11.39
3/24/2021 1:45:00 PM 10.9 51.62 0.45 7.93 1180.24 11.41
3/24/2021 2:00:00 PM 10.9 51.62 0.45 7.93 4017.72 11.44
3/24/2021 2:15:00 PM 10.92 51.656 0.449 7.94 1597.79 11.49
3/24/2021 2:30:00 PM 10.93 51.674 0.449 7.94 9.04 11.5
3/24/2021 2:45:00 PM 10.94 51.692 0.449 7.95 7.53 11.53
3/24/2021 3:00:00 PM 10.96 51.728 0.448 7.95 7.23 11.57
3/24/2021 3:15:00 PM 10.98 51.764 0.447 7.95 8.04 11.59
3/24/2021 3:30:00 PM 10.99 51.782 0.442 7.94 10.21 11.59
3/24/2021 3:45:00 PM 11.01 51.818 0.44 7.95 11.72 11.6
3/24/2021 4:00:00 PM 11.03 51.854 0.442 7.95 11.38 11.64
3/24/2021 4:15:00 PM 11.05 51.89 0.438 7.95 35.76 11.66
3/24/2021 4:30:00 PM 11.08 51.944 0.437 7.95 23.63 11.68
3/24/2021 4:45:00 PM 11.11 51.998 0.428 7.93 21.8 11.67
3/24/2021 5:00:00 PM 11.14 52.052 0.419 7.92 23.98 11.69
3/24/2021 5:15:00 PM 11.17 52.106 0.416 7.93 27.12 11.72
3/24/2021 5:30:00 PM 11.18 52.124 0.41 7.94 12.49 11.74
3/24/2021 5:45:00 PM 11.18 52.124 0.398 7.93 14.52 11.73
3/24/2021 6:00:00 PM 11.17 52.106 0.405 7.92 118.73 11.74
3/24/2021 6:15:00 PM 11.15 52.07 0.401 7.91 49.84 11.73
3/24/2021 6:30:00 PM 11.13 52.034 0.398 7.92 29.66 11.74
3/24/2021 6:45:00 PM 11.12 52.016 0.394 7.91 31.49 11.76
3/24/2021 7:00:00 PM 11.1 51.98 0.378 7.91 20.96 11.79
3/24/2021 7:15:00 PM 11.07 51.926 0.385 7.91 19.18 11.79
3/24/2021 7:30:00 PM 11.06 51.908 0.385 7.89 23.94 11.76
3/24/2021 7:45:00 PM 11.06 51.908 0.377 7.88 29.62 11.71
3/24/2021 8:00:00 PM 11.1 51.98 0.365 7.86 30.3 11.65
3/24/2021 8:15:00 PM 11.17 52.106 0.346 7.83 35.18 11.56
3/24/2021 8:30:00 PM 11.25 52.25 0.324 7.81 48.36 11.5
3/24/2021 8:45:00 PM 11.29 52.322 0.308 7.8 54.2 11.46
3/24/2021 9:00:00 PM 11.28 52.304 0.299 7.78 44.86 11.46
3/24/2021 9:15:00 PM 11.22 52.196 0.294 7.77 53.51 11.49
3/24/2021 9:30:00 PM 11.14 52.052 0.29 7.76 68.49 11.52
3/24/2021 9:45:00 PM 11.06 51.908 0.283 7.75 117.2 11.53
3/24/2021 10:00:00 PM 10.98 51.764 0.276 7.74 85.88 11.54
3/24/2021 10:15:00 PM 10.91 51.638 0.272 7.71 96.16 11.55
3/24/2021 10:30:00 PM 10.86 51.548 0.269 7.72 89.13 11.55
3/24/2021 10:45:00 PM 10.83 51.494 0.266 7.7 111.82 11.54
3/24/2021 11:00:00 PM 10.81 51.458 0.262 7.69 110.06 11.52
3/24/2021 11:15:00 PM 10.8 51.44 0.262 7.69 119.68 11.5
3/24/2021 11:30:00 PM 10.79 51.422 0.265 7.68 107.93 11.48
3/24/2021 11:45:00 PM 10.79 51.422 0.267 7.67 125.09 11.47
3/25/2021 12:00:00 AM 10.78 51.404 0.267 7.67 102.62 11.47
3/25/2021 12:15:00 AM 10.78 51.404 0.267 7.67 99.96 11.47
3/25/2021 12:30:00 AM 10.78 51.404 0.267 7.67 124.3 11.47
3/25/2021 12:45:00 AM 10.77 51.386 0.268 7.66 102.41 11.48
3/25/2021 1:00:00 AM 10.77 51.386 0.272 7.65 95.1 11.48
3/25/2021 1:15:00 AM 10.76 51.368 0.276 7.64 94.85 11.48
3/25/2021 1:30:00 AM 10.76 51.368 0.28 7.64 82.7 11.49
3/25/2021 1:45:00 AM 10.75 51.35 0.282 7.64 73.68 11.47
3/25/2021 2:00:00 AM 10.75 51.35 0.284 7.63 83.51 11.45
3/25/2021 2:15:00 AM 10.74 51.332 0.285 7.63 109.45 11.43
3/25/2021 2:30:00 AM 10.74 51.332 0.289 7.63 75.05 11.42
3/25/2021 2:45:00 AM 10.74 51.332 0.292 7.63 72.58 11.41
3/25/2021 3:00:00 AM 10.74 51.332 0.292 7.64 64.65 11.4
3/25/2021 3:15:00 AM 10.74 51.332 0.294 7.64 74.7 11.4
3/25/2021 3:30:00 AM 10.73 51.314 0.293 7.64 69.44 11.4
3/25/2021 3:45:00 AM 10.73 51.314 0.294 7.64 59.28 11.41
3/25/2021 4:00:00 AM 10.72 51.296 0.295 7.64 78.87 11.41
3/25/2021 4:15:00 AM 10.71 51.278 0.297 7.65 69.83 11.43
3/25/2021 4:30:00 AM 10.7 51.26 0.3 7.64 64.76 11.44
3/25/2021 4:45:00 AM 10.7 51.26 0.303 7.64 52.61 11.44
3/25/2021 5:00:00 AM 10.69 51.242 0.305 7.65 60.51 11.44
3/25/2021 5:15:00 AM 10.67 51.206 0.306 7.64 50.32 11.46
3/25/2021 5:30:00 AM 10.66 51.188 0.306 7.64 48.85 11.47
3/25/2021 5:45:00 AM 10.65 51.17 0.305 7.65 48.75 11.48
3/25/2021 6:00:00 AM 10.63 51.134 0.304 7.65 44.66 11.49
3/25/2021 6:15:00 AM 10.62 51.116 0.304 7.65 48.94 11.5
3/25/2021 6:30:00 AM 10.61 51.098 0.303 7.65 41.49 11.5
3/25/2021 6:45:00 AM 10.59 51.062 0.306 7.64 40.52 11.51
3/25/2021 7:00:00 AM 10.58 51.044 0.307 7.65 41.52 11.52
3/25/2021 7:15:00 AM 10.57 51.026 0.306 7.64 30.71 11.52
3/25/2021 7:30:00 AM 10.56 51.008 0.306 7.64 36.1 11.53
3/25/2021 7:45:00 AM 10.55 50.99 0.304 7.65 35.73 11.54
3/25/2021 8:00:00 AM 10.54 50.972 0.304 7.64 33.83 11.55
3/25/2021 8:15:00 AM 10.54 50.972 0.304 7.65 30.93 11.55
3/25/2021 8:30:00 AM 10.54 50.972 0.306 7.66 31.34 11.57
3/25/2021 8:45:00 AM 10.54 50.972 0.309 7.66 30.42 11.57
3/25/2021 9:00:00 AM 10.54 50.972 0.312 7.66 30.15 11.57
3/25/2021 9:15:00 AM 10.55 50.99 0.314 7.66 28.38 11.57
3/25/2021 9:30:00 AM 10.56 51.008 0.315 7.67 27.19 11.57
3/25/2021 9:45:00 AM 10.58 51.044 0.315 7.67 26.8 11.57
3/25/2021 10:00:00 AM 10.6 51.08 0.315 7.68 26.42 11.58
3/25/2021 10:15:00 AM 10.61 51.098 0.315 7.68 24.7 11.58
3/25/2021 10:30:00 AM 10.62 51.116 0.315 7.68 27.64 11.57
3/25/2021 10:45:00 AM 10.64 51.152 0.316 7.69 23.15 11.58
3/25/2021 11:00:00 AM 10.66 51.188 0.318 7.69 22.6 11.59
3/25/2021 11:15:00 AM 10.69 51.242 0.319 7.69 20.99 11.6
3/25/2021 11:30:00 AM 10.72 51.296 0.319 7.7 20.99 11.6
3/25/2021 11:45:00 AM 10.75 51.35 0.319 7.71 19.88 11.61
3/25/2021 12:00:00 PM 10.8 51.44 0.32 7.72 20.21 11.63
3/25/2021 12:15:00 PM 10.85 51.53 0.321 7.72 19.08 11.64
3/25/2021 12:30:00 PM 10.9 51.62 0.324 7.72 27.15 11.63
3/25/2021 12:45:00 PM 10.95 51.71 0.326 7.73 16.97 11.62
3/25/2021 1:00:00 PM 11 51.8 0.329 7.74 17.75 11.64
3/25/2021 1:15:00 PM 11.04 51.872 0.33 7.74 17.44 11.64
3/25/2021 1:30:00 PM 11.09 51.962 0.331 7.75 15.44 11.65
3/25/2021 1:45:00 PM 11.16 52.088 0.332 7.76 15.49 11.67
3/25/2021 2:00:00 PM 11.22 52.196 0.334 7.77 14.33 11.67
3/25/2021 2:15:00 PM 11.3 52.34 0.334 7.78 14.12 11.69
3/25/2021 2:30:00 PM 11.36 52.448 0.335 7.79 13.22 11.69
3/25/2021 2:45:00 PM 11.43 52.574 0.336 7.8 15.05 11.7
3/25/2021 3:00:00 PM 11.51 52.718 0.338 7.81 13.41 11.73
3/25/2021 3:15:00 PM 11.57 52.826 0.338 7.82 13.01 11.73
3/25/2021 3:30:00 PM 11.64 52.952 0.339 7.83 12.57 11.72
3/25/2021 3:45:00 PM 11.72 53.096 0.34 7.84 12.15 11.72
3/25/2021 4:00:00 PM 11.77 53.186 0.342 7.85 11.67 11.72
3/25/2021 4:15:00 PM 11.83 53.294 0.345 7.85 12.56 11.74
3/25/2021 4:30:00 PM 11.88 53.384 0.345 7.86 11.4 11.72
3/25/2021 4:45:00 PM 11.92 53.456 0.347 7.87 11.43 11.71
3/25/2021 5:00:00 PM 11.97 53.546 0.346 7.88 10.95 11.71
3/25/2021 5:15:00 PM 12.02 53.636 0.347 7.88 10.63 11.71
3/25/2021 5:30:00 PM 12.06 53.708 0.347 7.89 10.85 11.71
3/25/2021 5:45:00 PM 12.11 53.798 0.348 7.9 10.57 11.69
3/25/2021 6:00:00 PM 12.15 53.87 0.349 7.9 9.79 11.69
3/25/2021 6:15:00 PM 12.18 53.924 0.35 7.91 9.82 11.66
3/25/2021 6:30:00 PM 12.21 53.978 0.352 7.91 9.92 11.68
3/25/2021 6:45:00 PM 12.24 54.032 0.353 7.91 9.4 11.32
3/25/2021 7:00:00 PM 12.25 54.05 0.355 7.92 9.34 11.64
3/25/2021 7:15:00 PM 12.26 54.068 0.357 7.92 8.78 11.62
3/25/2021 7:30:00 PM 12.26 54.068 0.358 7.92 9.3 11.59
3/25/2021 7:45:00 PM 12.26 54.068 0.36 7.91 8.16 11.57
3/25/2021 8:00:00 PM 12.26 54.068 0.362 7.91 8.65 11.56
3/25/2021 8:15:00 PM 12.26 54.068 0.364 7.91 9.06 11.55
3/25/2021 8:30:00 PM 12.27 54.086 0.366 7.91 8.36 11.53
3/25/2021 8:45:00 PM 12.27 54.086 0.368 7.91 7.77 11.49
3/25/2021 9:00:00 PM 12.27 54.086 0.369 7.9 8.58 11.49
3/25/2021 9:15:00 PM 12.26 54.068 0.369 7.9 7.76 11.45
3/25/2021 9:30:00 PM 12.26 54.068 0.37 7.89 7.35 11.43
3/25/2021 9:45:00 PM 12.25 54.05 0.37 7.89 7.27 11.4
3/25/2021 10:00:00 PM 12.24 54.032 0.371 7.88 7.36 11.38
3/25/2021 10:15:00 PM 12.23 54.014 0.373 7.87 7.43 11.34
3/25/2021 10:30:00 PM 12.22 53.996 0.375 7.87 7.09 11.3
3/25/2021 10:45:00 PM 12.22 53.996 0.377 7.86 7.28 11.31
3/25/2021 11:00:00 PM 12.21 53.978 0.379 7.86 7.27 11.27
3/25/2021 11:15:00 PM 12.21 53.978 0.38 7.85 6.98 11.24
3/25/2021 11:30:00 PM 12.2 53.96 0.381 7.85 6.91 11.24
3/25/2021 11:45:00 PM 12.2 53.96 0.382 7.84 7.31 11.22
3/26/2021 12:00:00 AM 12.2 53.96 0.382 7.84 6.71 11.2
3/26/2021 12:15:00 AM 12.2 53.96 0.384 7.84 7.21 11.18
3/26/2021 12:30:00 AM 12.2 53.96 0.384 7.84 6.93 11.16
3/26/2021 12:45:00 AM 12.2 53.96 0.384 7.83 6.87 11.15
3/26/2021 1:00:00 AM 12.2 53.96 0.384 7.83 6.75 11.11
3/26/2021 1:15:00 AM 12.2 53.96 0.385 7.83 7.04 11.12
3/26/2021 1:30:00 AM 12.2 53.96 0.387 7.82 6.8 11.1
3/26/2021 1:45:00 AM 12.2 53.96 0.389 7.82 6.93 11.08
3/26/2021 2:00:00 AM 12.2 53.96 0.39 7.82 6.78 11.07
3/26/2021 2:15:00 AM 12.2 53.96 0.39 7.81 6.5 11.04
3/26/2021 2:30:00 AM 12.2 53.96 0.391 7.81 6.43 11.03
3/26/2021 2:45:00 AM 12.21 53.978 0.392 7.81 6.53 11.03
3/26/2021 3:00:00 AM 12.21 53.978 0.392 7.81 6.43 11.02
3/26/2021 3:15:00 AM 12.21 53.978 0.393 7.81 6.54 11
3/26/2021 3:30:00 AM 12.21 53.978 0.393 7.8 6.31 11
3/26/2021 3:45:00 AM 12.22 53.996 0.393 7.8 6.35 10.97
3/26/2021 4:00:00 AM 12.22 53.996 0.393 7.8 5.89 10.95
3/26/2021 4:15:00 AM 12.22 53.996 0.394 7.8 5.93 10.95
3/26/2021 4:30:00 AM 12.23 54.014 0.397 7.8 5.99 10.93
3/26/2021 4:45:00 AM 12.24 54.032 0.397 7.8 6.71 10.92
3/26/2021 5:00:00 AM 12.24 54.032 0.398 7.8 6.45 10.92
3/26/2021 5:15:00 AM 12.24 54.032 0.398 7.8 6.2 10.93
3/26/2021 5:30:00 AM 12.24 54.032 0.398 7.79 5.96 10.88
3/26/2021 5:45:00 AM 12.24 54.032 0.397 7.79 6.18 10.92
3/26/2021 6:00:00 AM 12.23 54.014 0.396 7.79 5.87 10.91
3/26/2021 6:15:00 AM 12.23 54.014 0.395 7.79 5.87 10.9
3/26/2021 6:30:00 AM 12.23 54.014 0.394 7.79 5.81 10.91
3/26/2021 6:45:00 AM 12.24 54.032 0.393 7.79 5.73 10.9
3/26/2021 7:00:00 AM 12.24 54.032 0.394 7.79 6 10.9
3/26/2021 7:15:00 AM 12.24 54.032 0.395 7.79 5.86 10.9
3/26/2021 7:30:00 AM 12.25 54.05 0.396 7.79 6.02 10.9
3/26/2021 7:45:00 AM 12.25 54.05 0.398 7.79 6.21 10.92
3/26/2021 8:00:00 AM 12.26 54.068 0.399 7.79 6.39 10.91
3/26/2021 8:15:00 AM 12.26 54.068 0.398 7.79 6.12 10.92
3/26/2021 8:30:00 AM 12.28 54.104 0.397 7.8 6.5 10.93
3/26/2021 8:45:00 AM 12.3 54.14 0.398 7.8 6.07 10.97
3/26/2021 9:00:00 AM 12.34 54.212 0.397 7.8 5.95 10.99
3/26/2021 9:15:00 AM 12.37 54.266 0.397 7.81 5.46 10.99
3/26/2021 9:30:00 AM 12.4 54.32 0.397 7.81 5.42 10.99
3/26/2021 9:45:00 AM 12.44 54.392 0.396 7.81 5.41 11
3/26/2021 10:00:00 AM 12.51 54.518 0.397 7.82 5.32 11.02
3/26/2021 10:15:00 AM 12.59 54.662 0.397 7.83 5.39 11.05
3/26/2021 10:30:00 AM 12.7 54.86 0.398 7.83 5.27 11.07
3/26/2021 10:45:00 AM 12.8 55.04 0.397 7.84 11.39 11.09
3/26/2021 11:00:00 AM 12.89 55.202 0.397 7.85 5.16 11.09
3/26/2021 11:15:00 AM 12.98 55.364 0.397 7.87 5.27 11.13
3/26/2021 11:30:00 AM 13.07 55.526 0.397 7.88 5.01 11.14
3/26/2021 11:45:00 AM 13.18 55.724 0.396 7.89 5 11.18
3/26/2021 12:00:00 PM 13.29 55.922 0.396 7.9 4.88 11.16
3/26/2021 12:15:00 PM 13.43 56.174 0.397 7.92 4.73 11.2
3/26/2021 12:30:00 PM 13.55 56.39 0.397 7.93 4.52 11.22
3/26/2021 12:45:00 PM 13.7 56.66 0.397 7.95 4.85 11.28
3/26/2021 1:00:00 PM 13.87 56.966 0.398 7.97 4.72 11.33
3/26/2021 1:15:00 PM 14.01 57.218 0.399 7.99 4.45 11.32
3/26/2021 1:30:00 PM 14.18 57.524 0.399 8 4.7 11.36
3/26/2021 1:45:00 PM 14.32 57.776 0.399 8.02 4.91 11.34
3/26/2021 2:00:00 PM 14.49 58.082 0.398 8.04 4.75 11.4
3/26/2021 2:15:00 PM 14.67 58.406 0.397 8.06 5.16 11.42
3/26/2021 2:30:00 PM 14.79 58.622 0.396 8.07 4.37 11.37
3/26/2021 2:45:00 PM 14.9 58.82 0.395 8.08 4.23 11.37
3/26/2021 3:00:00 PM 15.01 59.018 0.394 8.1 4.07 11.43
3/26/2021 3:15:00 PM 15.14 59.252 0.394 8.12 4.04 11.41
3/26/2021 3:30:00 PM 15.23 59.414 0.394 8.14 3.75 11.46
3/26/2021 3:45:00 PM 15.31 59.558 0.394 8.15 3.87 11.43
3/26/2021 4:00:00 PM 15.4 59.72 0.395 8.16 3.94 11.44
3/26/2021 4:15:00 PM 15.49 59.882 0.395 8.18 4.07 11.45
3/26/2021 4:30:00 PM 15.56 60.008 0.395 8.19 4.09 11.44
3/26/2021 4:45:00 PM 15.62 60.116 0.394 8.2 3.66 11.42
3/26/2021 5:00:00 PM 15.67 60.206 0.393 8.21 4.04 11.41
3/26/2021 5:15:00 PM 15.69 60.242 0.392 8.22 4.06 11.36
3/26/2021 5:30:00 PM 15.7 60.26 0.392 8.22 4.22 11.38
3/26/2021 5:45:00 PM 15.7 60.26 0.392 8.23 3.77 11.35
3/26/2021 6:00:00 PM 15.68 60.224 0.391 8.23 4.73 11.34
3/26/2021 6:15:00 PM 15.65 60.17 0.391 8.23 4.03 11.31
3/26/2021 6:30:00 PM 15.62 60.116 0.391 8.22 3.84 11.27
3/26/2021 6:45:00 PM 15.57 60.026 0.392 8.22 3.92 11.25
3/26/2021 7:00:00 PM 15.52 59.936 0.393 8.21 4.21 11.24
3/26/2021 7:15:00 PM 15.49 59.882 0.389 8.21 4.83 11.21
3/26/2021 7:30:00 PM 15.46 59.828 0.39 8.2 3.59 11.19
3/26/2021 7:45:00 PM 15.42 59.756 0.391 8.2 3.7 11.17
3/26/2021 8:00:00 PM 15.38 59.684 0.391 8.19 3.76 11.13
3/26/2021 8:15:00 PM 15.33 59.594 0.392 8.19 3.83 11.11
3/26/2021 8:30:00 PM 15.27 59.486 0.392 8.18 4.14 11.1
3/26/2021 8:45:00 PM 15.22 59.396 0.394 8.17 4.36 11.1
3/26/2021 9:00:00 PM 15.16 59.288 0.395 8.16 4.09 11.06
3/26/2021 9:15:00 PM 15.09 59.162 0.395 8.15 4.23 11.06
3/26/2021 9:30:00 PM 15.03 59.054 0.396 8.14 4.16 11.04
3/26/2021 9:45:00 PM 14.96 58.928 0.396 8.13 4.15 11.02
3/26/2021 10:00:00 PM 14.89 58.802 0.396 8.12 4.27 10.98
3/26/2021 10:15:00 PM 14.83 58.694 0.396 8.11 4.6 10.96
3/26/2021 10:30:00 PM 14.77 58.586 0.395 8.09 4.16 10.91
3/26/2021 10:45:00 PM 14.69 58.442 0.396 8.08 4.21 10.89
3/26/2021 11:00:00 PM 14.62 58.316 0.395 8.07 4.25 10.89
3/26/2021 11:15:00 PM 14.54 58.172 0.396 8.06 4.31 10.87
3/26/2021 11:30:00 PM 14.48 58.064 0.396 8.05 4.22 10.84
3/26/2021 11:45:00 PM 14.41 57.938 0.399 8.03 4.12 10.84
3/27/2021 12:00:00 AM 14.34 57.812 0.4 8.02 4.38 10.81
3/27/2021 12:15:00 AM 14.28 57.704 0.404 8.02 4.03 10.81
3/27/2021 12:30:00 AM 14.22 57.596 0.405 8.01 4.35 10.79
3/27/2021 12:45:00 AM 14.15 57.47 0.407 7.99 4.35 10.79
3/27/2021 1:00:00 AM 14.09 57.362 0.409 7.98 4.78 10.78
3/27/2021 1:15:00 AM 14.04 57.272 0.41 7.98 4.61 10.76
3/27/2021 1:30:00 AM 13.98 57.164 0.412 7.96 4.71 10.77
3/27/2021 1:45:00 AM 13.91 57.038 0.413 7.95 3.78 10.75
3/27/2021 2:00:00 AM 13.85 56.93 0.412 7.94 4.19 10.73
3/27/2021 2:15:00 AM 13.79 56.822 0.412 7.93 3.99 10.73
3/27/2021 2:30:00 AM 13.73 56.714 0.413 7.92 3.89 10.73
3/27/2021 2:45:00 AM 13.67 56.606 0.412 7.91 3.65 10.72
3/27/2021 3:00:00 AM 13.61 56.498 0.413 7.91 3.94 10.71
3/27/2021 3:15:00 AM 13.56 56.408 0.414 7.9 4.08 10.71
3/27/2021 3:30:00 AM 13.5 56.3 0.414 7.89 3.93 10.68
3/27/2021 3:45:00 AM 13.45 56.21 0.415 7.88 4.26 10.67
3/27/2021 4:00:00 AM 13.4 56.12 0.415 7.88 4.1 10.7
3/27/2021 4:15:00 AM 13.36 56.048 0.414 7.87 4.27 10.69
3/27/2021 4:30:00 AM 13.31 55.958 0.414 7.87 4.09 10.7
3/27/2021 4:45:00 AM 13.25 55.85 0.413 7.86 4.34 10.7
3/27/2021 5:00:00 AM 13.2 55.76 0.414 7.86 4.19 10.71
3/27/2021 5:15:00 AM 13.14 55.652 0.413 7.85 4.64 10.71
3/27/2021 5:30:00 AM 13.09 55.562 0.413 7.84 4.06 10.72
3/27/2021 5:45:00 AM 13.03 55.454 0.413 7.84 3.88 10.72
3/27/2021 6:00:00 AM 12.97 55.346 0.414 7.84 4.39 10.74
3/27/2021 6:15:00 AM 12.91 55.238 0.414 7.83 4.16 10.72
3/27/2021 6:30:00 AM 12.85 55.13 0.415 7.83 4.37 10.74
3/27/2021 6:45:00 AM 12.79 55.022 0.415 7.83 5.32 10.75
3/27/2021 7:00:00 AM 12.72 54.896 0.415 7.82 5.17 10.78
3/27/2021 7:15:00 AM 12.65 54.77 0.415 7.82 5.31 10.81
3/27/2021 7:30:00 AM 12.59 54.662 0.416 7.82 5.14 10.83
3/27/2021 7:45:00 AM 12.53 54.554 0.416 7.82 5.04 10.85
3/27/2021 8:00:00 AM 12.47 54.446 0.415 7.83 4.83 10.88
3/27/2021 8:15:00 AM 12.42 54.356 0.415 7.83 4.98 10.92
3/27/2021 8:30:00 AM 12.38 54.284 0.415 7.83 4.67 10.97
3/27/2021 8:45:00 AM 12.34 54.212 0.415 7.83 4.66 10.97
3/27/2021 9:00:00 AM 12.3 54.14 0.415 7.84 4.48 11.04
3/27/2021 9:15:00 AM 12.27 54.086 0.415 7.84 4.48 11.06
3/27/2021 9:30:00 AM 12.24 54.032 0.417 7.84 4.44 11.11
3/27/2021 9:45:00 AM 12.23 54.014 0.416 7.85 4.06 11.15
3/27/2021 10:00:00 AM 12.23 54.014 0.417 7.85 4.89 11.19
3/27/2021 10:15:00 AM 12.24 54.032 0.417 7.86 4.46 11.2
3/27/2021 10:30:00 AM 12.26 54.068 0.417 7.86 4.57 11.26
3/27/2021 10:45:00 AM 12.29 54.122 0.416 7.87 4.57 11.31
3/27/2021 11:00:00 AM 12.33 54.194 0.416 7.88 4.31 11.33
3/27/2021 11:15:00 AM 12.35 54.23 0.415 7.88 4.29 11.38
3/27/2021 11:30:00 AM 12.4 54.32 0.415 7.89 4.21 11.44
3/27/2021 11:45:00 AM 12.45 54.41 0.415 7.91 4.35 11.47
3/27/2021 12:00:00 PM 12.51 54.518 0.414 7.92 4.14 11.53
3/27/2021 12:15:00 PM 12.58 54.644 0.414 7.93 4.1 11.57
3/27/2021 12:30:00 PM 12.66 54.788 0.415 7.95 4.18 11.63
3/27/2021 12:45:00 PM 12.76 54.968 0.415 7.96 3.94 11.69
3/27/2021 1:00:00 PM 12.86 55.148 0.414 7.98 4.02 11.73
3/27/2021 1:15:00 PM 12.98 55.364 0.415 8 4 11.77
3/27/2021 1:30:00 PM 13.11 55.598 0.415 8.02 3.97 11.82
3/27/2021 1:45:00 PM 13.23 55.814 0.415 8.04 3.76 11.85
3/27/2021 2:00:00 PM 13.35 56.03 0.414 8.05 3.76 11.9
3/27/2021 2:15:00 PM 13.48 56.264 0.415 8.07 3.67 11.92
3/27/2021 2:30:00 PM 13.6 56.48 0.414 8.1 3.8 11.94
3/27/2021 2:45:00 PM 13.72 56.696 0.416 8.12 3.71 11.98
3/27/2021 3:00:00 PM 13.84 56.912 0.415 8.14 3.76 12.02
3/27/2021 3:15:00 PM 13.95 57.11 0.416 8.15 3.57 12.01
3/27/2021 3:30:00 PM 14.06 57.308 0.419 8.17 5.35 12.03
3/27/2021 3:45:00 PM 14.14 57.452 0.419 8.19 3.44 12
3/27/2021 4:00:00 PM 14.22 57.596 0.417 8.2 3.7 12.01
3/27/2021 4:15:00 PM 14.29 57.722 0.416 8.22 3.24 12.01
3/27/2021 4:30:00 PM 14.36 57.848 0.415 8.23 3.24 11.98
3/27/2021 4:45:00 PM 14.42 57.956 0.41 8.25 3.4 11.96
3/27/2021 5:00:00 PM 14.47 58.046 0.408 8.26 3.54 11.97
3/27/2021 5:15:00 PM 14.51 58.118 0.408 8.27 3.42 11.97
3/27/2021 5:30:00 PM 14.55 58.19 0.409 8.29 3.38 11.95
3/27/2021 5:45:00 PM 14.58 58.244 0.412 8.29 3.52 11.92
3/27/2021 6:00:00 PM 14.6 58.28 0.412 8.3 3.6 11.92
3/27/2021 6:15:00 PM 14.62 58.316 0.409 8.31 4.02 11.88
3/27/2021 6:30:00 PM 14.63 58.334 0.412 8.31 3.42 11.87
3/27/2021 6:45:00 PM 14.63 58.334 0.412 8.32 4.4 11.85
3/27/2021 7:00:00 PM 14.63 58.334 0.412 8.32 4.45 11.81
3/27/2021 7:15:00 PM 14.62 58.316 0.411 8.32 3.61 11.77
3/27/2021 7:30:00 PM 14.6 58.28 0.411 8.32 3.52 11.77
3/27/2021 7:45:00 PM 14.58 58.244 0.411 8.32 3.44 11.75
3/27/2021 8:00:00 PM 14.56 58.208 0.41 8.31 3.57 11.69
3/27/2021 8:15:00 PM 14.53 58.154 0.409 8.31 3.65 11.67
3/27/2021 8:30:00 PM 14.49 58.082 0.408 8.3 3.49 11.65
3/27/2021 8:45:00 PM 14.45 58.01 0.408 8.29 3.39 11.6
3/27/2021 9:00:00 PM 14.4 57.92 0.407 8.28 3.43 11.58
3/27/2021 9:15:00 PM 14.36 57.848 0.407 8.27 3.49 11.54
3/27/2021 9:30:00 PM 14.31 57.758 0.407 8.26 3.17 11.5
3/27/2021 9:45:00 PM 14.26 57.668 0.406 8.25 3.1 11.45
3/27/2021 10:00:00 PM 14.2 57.56 0.406 8.23 3.5 11.39
3/27/2021 10:15:00 PM 14.15 57.47 0.406 8.22 3.6 11.35
3/27/2021 10:30:00 PM 14.09 57.362 0.406 8.21 3.43 11.33
3/27/2021 10:45:00 PM 14.03 57.254 0.407 8.2 3.5 11.29
3/27/2021 11:00:00 PM 13.98 57.164 0.408 8.18 3.6 11.24
3/27/2021 11:15:00 PM 13.92 57.056 0.406 8.16 3.64 11.22
3/27/2021 11:30:00 PM 13.86 56.948 0.407 8.15 3.47 11.17
3/27/2021 11:45:00 PM 13.8 56.84 0.407 8.13 3.41 11.14
3/28/2021 12:00:00 AM 13.75 56.75 0.408 8.12 3.37 11.13
3/28/2021 12:15:00 AM 13.7 56.66 0.407 8.1 3.04 11.09
3/28/2021 12:30:00 AM 13.64 56.552 0.407 8.09 3.21 11.06
3/28/2021 12:45:00 AM 13.6 56.48 0.407 8.07 2.96 11.05
3/28/2021 1:00:00 AM 13.55 56.39 0.407 8.06 3.03 11
3/28/2021 1:15:00 AM 13.5 56.3 0.407 8.05 2.91 10.98
3/28/2021 1:30:00 AM 13.46 56.228 0.408 8.03 3.04 10.96
3/28/2021 1:45:00 AM 13.41 56.138 0.41 8.02 3.1 10.95
3/28/2021 2:00:00 AM 13.37 56.066 0.413 8.02 3.02 10.9
3/28/2021 2:15:00 AM 13.33 55.994 0.415 8 2.95 10.89
3/28/2021 2:30:00 AM 13.29 55.922 0.415 7.99 3.03 10.89
3/28/2021 2:45:00 AM 13.26 55.868 0.417 7.98 3.04 10.87
3/28/2021 3:00:00 AM 13.22 55.796 0.417 7.97 3.11 10.85
3/28/2021 3:15:00 AM 13.18 55.724 0.418 7.96 2.84 10.81
3/28/2021 3:30:00 AM 13.15 55.67 0.418 7.95 2.57 10.82
3/28/2021 3:45:00 AM 13.12 55.616 0.418 7.94 2.86 10.81
3/28/2021 4:00:00 AM 13.09 55.562 0.419 7.93 2.93 10.79
3/28/2021 4:15:00 AM 13.06 55.508 0.42 7.93 2.95 10.79
3/28/2021 4:30:00 AM 13.04 55.472 0.42 7.92 3.05 10.78
3/28/2021 4:45:00 AM 13.01 55.418 0.421 7.91 3.29 10.76
3/28/2021 5:00:00 AM 12.99 55.382 0.419 7.9 3.24 10.76
3/28/2021 5:15:00 AM 12.97 55.346 0.423 7.9 3.16 10.77
3/28/2021 5:30:00 AM 12.96 55.328 0.424 7.89 3.26 10.74
3/28/2021 5:45:00 AM 12.94 55.292 0.425 7.89 3.11 10.71
3/28/2021 6:00:00 AM 12.91 55.238 0.426 7.88 10.64 10.72
3/28/2021 6:15:00 AM 12.89 55.202 0.427 7.88 3.36 10.73
3/28/2021 6:30:00 AM 12.87 55.166 0.428 7.87 3.32 10.69
3/28/2021 6:45:00 AM 12.85 55.13 0.428 7.87 3.2 10.7
3/28/2021 7:00:00 AM 12.83 55.094 0.429 7.87 3.07 10.72
3/28/2021 7:15:00 AM 12.81 55.058 0.43 7.87 3.38 10.7
3/28/2021 7:30:00 AM 12.79 55.022 0.431 7.86 3.13 10.71
3/28/2021 7:45:00 AM 12.77 54.986 0.431 7.86 3.06 10.72
3/28/2021 8:00:00 AM 12.75 54.95 0.432 7.86 2.95 10.73
3/28/2021 8:15:00 AM 12.73 54.914 0.432 7.86 2.81 10.73
3/28/2021 8:30:00 AM 12.72 54.896 0.432 7.86 2.97 10.73
3/28/2021 8:45:00 AM 12.7 54.86 0.431 7.85 2.76 10.74
3/28/2021 9:00:00 AM 12.69 54.842 0.43 7.86 2.86 10.77
3/28/2021 9:15:00 AM 12.68 54.824 0.428 7.85 2.84 10.78
3/28/2021 9:30:00 AM 12.66 54.788 0.428 7.85 2.51 10.79
3/28/2021 9:45:00 AM 12.64 54.752 0.427 7.85 2.92 10.78
3/28/2021 10:00:00 AM 12.63 54.734 0.426 7.85 2.45 10.78
3/28/2021 10:15:00 AM 12.61 54.698 0.425 7.85 2.68 10.78
3/28/2021 10:30:00 AM 12.59 54.662 0.425 7.85 2.61 10.81
3/28/2021 10:45:00 AM 12.58 54.644 0.425 7.85 2.66 10.79
3/28/2021 11:00:00 AM 12.56 54.608 0.425 7.85 2.6 10.85
3/28/2021 11:15:00 AM 12.55 54.59 0.425 7.85 2.82 10.84
3/28/2021 11:30:00 AM 12.53 54.554 0.423 7.85 3.04 10.84
3/28/2021 11:45:00 AM 12.52 54.536 0.423 7.85 2.72 10.85
3/28/2021 12:00:00 PM 12.51 54.518 0.421 7.85 2.73 10.88
3/28/2021 12:15:00 PM 12.51 54.518 0.42 7.85 2.66 10.91
3/28/2021 12:30:00 PM 12.51 54.518 0.42 7.86 2.96 10.96
3/28/2021 12:45:00 PM 12.49 54.482 0.42 7.86 3.08 10.93
3/28/2021 1:00:00 PM 12.48 54.464 0.421 7.86 3.01 10.97
3/28/2021 1:15:00 PM 12.48 54.464 0.42 7.86 3.26 11.01
3/28/2021 1:30:00 PM 12.47 54.446 0.419 7.87 3.28 11.01
3/28/2021 1:45:00 PM 12.47 54.446 0.42 7.87 3.11 11.07
3/28/2021 2:00:00 PM 12.48 54.464 0.42 7.88 3.81 11.09
3/28/2021 2:15:00 PM 12.49 54.482 0.417 7.88 3.57 11.11
3/28/2021 2:30:00 PM 12.5 54.5 0.415 7.88 3.26 11.14
3/28/2021 2:45:00 PM 12.53 54.554 0.415 7.89 3.53 11.18
3/28/2021 3:00:00 PM 12.56 54.608 0.414 7.9 3.29 11.2
3/28/2021 3:15:00 PM 12.58 54.644 0.414 7.91 3.79 11.25
3/28/2021 3:30:00 PM 12.6 54.68 0.414 7.91 3.38 11.25
3/28/2021 3:45:00 PM 12.62 54.716 0.412 7.91 3.64 11.23
3/28/2021 4:00:00 PM 12.64 54.752 0.409 7.92 3.49 11.28
3/28/2021 4:15:00 PM 12.66 54.788 0.406 7.93 3.47 11.31
3/28/2021 4:30:00 PM 12.69 54.842 0.405 7.94 3.71 11.36
3/28/2021 4:45:00 PM 12.71 54.878 0.403 7.94 3.91 11.34
3/28/2021 5:00:00 PM 12.74 54.932 0.402 7.95 4.33 11.36
3/28/2021 5:15:00 PM 12.77 54.986 0.401 7.97 4.44 11.4
3/28/2021 5:30:00 PM 12.79 55.022 0.4 7.98 4.36 11.43
3/28/2021 5:45:00 PM 12.8 55.04 0.397 7.99 4.57 11.46
3/28/2021 6:00:00 PM 12.8 55.04 0.396 8 4.57 11.47
3/28/2021 6:15:00 PM 12.81 55.058 0.394 8 4.86 11.51
3/28/2021 6:30:00 PM 12.8 55.04 0.392 8 4.59 11.49
3/28/2021 6:45:00 PM 12.79 55.022 0.388 7.99 5.17 11.47
3/28/2021 7:00:00 PM 12.78 55.004 0.384 7.98 4.79 11.44
3/28/2021 7:15:00 PM 12.76 54.968 0.381 7.96 5.07 11.42
3/28/2021 7:30:00 PM 12.73 54.914 0.377 7.94 6.45 11.37
3/28/2021 7:45:00 PM 12.7 54.86 0.373 7.92 6.97 11.35
3/28/2021 8:00:00 PM 12.66 54.788 0.368 7.91 7.04 11.33
3/28/2021 8:15:00 PM 12.61 54.698 0.363 7.9 7.32 11.31
3/28/2021 8:30:00 PM 12.56 54.608 0.362 7.89 7.32 11.3
3/28/2021 8:45:00 PM 12.51 54.518 0.363 7.88 7.78 11.29
3/28/2021 9:00:00 PM 12.46 54.428 0.363 7.88 8.27 11.28
3/28/2021 9:15:00 PM 12.4 54.32 0.361 7.87 8.9 11.28
3/28/2021 9:30:00 PM 12.35 54.23 0.357 7.86 9.76 11.27
3/28/2021 9:45:00 PM 12.28 54.104 0.353 7.85 10.21 11.26
3/28/2021 10:00:00 PM 12.22 53.996 0.35 7.84 11.07 11.26
3/28/2021 10:15:00 PM 12.14 53.852 0.349 7.83 11.24 11.27
3/28/2021 10:30:00 PM 12.07 53.726 0.347 7.83 11.39 11.27
3/28/2021 10:45:00 PM 12 53.6 0.344 7.82 12.59 11.28
3/28/2021 11:00:00 PM 11.93 53.474 0.34 7.81 13.01 11.28
3/28/2021 11:15:00 PM 11.86 53.348 0.336 7.8 13.98 11.29
3/28/2021 11:30:00 PM 11.79 53.222 0.333 7.8 12.3 11.3
3/28/2021 11:45:00 PM 11.7 53.06 0.33 7.79 14.12 11.31
3/29/2021 12:00:00 AM 11.63 52.934 0.33 7.79 15.93 11.31
3/29/2021 12:15:00 AM 11.55 52.79 0.331 7.78 16.96 11.33
3/29/2021 12:30:00 AM 11.49 52.682 0.333 7.77 19.52 11.32
3/29/2021 12:45:00 AM 11.43 52.574 0.334 7.77 19.44 11.33
3/29/2021 1:00:00 AM 11.36 52.448 0.333 7.76 20.18 11.35
3/29/2021 1:15:00 AM 11.3 52.34 0.332 7.76 23.39 11.37
3/29/2021 1:30:00 AM 11.23 52.214 0.331 7.76 23.57 11.38
3/29/2021 1:45:00 AM 11.18 52.124 0.329 7.76 24.24 11.39
3/29/2021 2:00:00 AM 11.15 52.07 0.325 7.75 23.57 11.38
3/29/2021 2:15:00 AM 11.12 52.016 0.323 7.75 25.49 11.38
3/29/2021 2:30:00 AM 11.07 51.926 0.324 7.75 26.34 11.39
3/29/2021 2:45:00 AM 11.01 51.818 0.327 7.75 26.98 11.4
3/29/2021 3:00:00 AM 10.96 51.728 0.329 7.75 27.49 11.4
3/29/2021 3:15:00 AM 10.9 51.62 0.329 7.75 27.75 11.43
3/29/2021 3:30:00 AM 10.84 51.512 0.329 7.75 27.64 11.44
3/29/2021 3:45:00 AM 10.78 51.404 0.329 7.74 28.16 11.47
3/29/2021 4:00:00 AM 10.73 51.314 0.327 7.75 28.23 11.5
3/29/2021 4:15:00 AM 10.67 51.206 0.325 7.75 29.14 11.53
3/29/2021 4:30:00 AM 10.62 51.116 0.323 7.75 29.71 11.55
3/29/2021 4:45:00 AM 10.56 51.008 0.319 7.74 30.29 11.58
3/29/2021 5:00:00 AM 10.5 50.9 0.32 7.74 31.15 11.61
3/29/2021 5:15:00 AM 10.44 50.792 0.318 7.74 32.35 11.62
3/29/2021 5:30:00 AM 10.38 50.684 0.315 7.75 28.14 11.64
3/29/2021 5:45:00 AM 10.32 50.576 0.313 7.75 33.2 11.66
3/29/2021 6:00:00 AM 10.26 50.468 0.31 7.75 32.73 11.68
3/29/2021 6:15:00 AM 10.2 50.36 0.309 7.75 32.05 11.7
3/29/2021 6:30:00 AM 10.14 50.252 0.308 7.75 29.98 11.71
3/29/2021 6:45:00 AM 10.08 50.144 0.307 7.74 33.47 11.72
3/29/2021 7:00:00 AM 10.03 50.054 0.306 7.74 32.62 11.74
3/29/2021 7:15:00 AM 9.97 49.946 0.306 7.74 32.97 11.76
3/29/2021 7:30:00 AM 9.91 49.838 0.305 7.74 32.98 11.77
3/29/2021 7:45:00 AM 9.86 49.748 0.306 7.75 32.03 11.79
3/29/2021 8:00:00 AM 9.8 49.64 0.308 7.75 31.74 11.8
3/29/2021 8:15:00 AM 9.75 49.55 0.311 7.75 27.87 11.81
3/29/2021 8:30:00 AM 9.7 49.46 0.314 7.75 31.38 11.83
3/29/2021 8:45:00 AM 9.66 49.388 0.315 7.75 29.78 11.85
3/29/2021 9:00:00 AM 9.63 49.334 0.316 7.75 29.03 11.86
3/29/2021 9:15:00 AM 9.59 49.262 0.316 7.76 29.19 11.88
3/29/2021 9:30:00 AM 9.54 49.172 0.316 7.76 27.93 11.91
3/29/2021 9:45:00 AM 9.52 49.136 0.317 7.76 27.27 11.93
3/29/2021 10:00:00 AM 9.51 49.118 0.318 7.77 23.55 11.94
3/29/2021 10:15:00 AM 9.51 49.118 0.32 7.77 25.8 11.96
3/29/2021 10:30:00 AM 9.52 49.136 0.322 7.77 25.19 11.98
3/29/2021 10:45:00 AM 9.52 49.136 0.323 7.78 24.99 12.01
3/29/2021 11:00:00 AM 9.53 49.154 0.324 7.78 24.11 12.02
3/29/2021 11:15:00 AM 9.57 49.226 0.326 7.79 23.86 12.04
3/29/2021 11:30:00 AM 9.58 49.244 0.327 7.79 23.13 12.03
3/29/2021 11:45:00 AM 9.6 49.28 0.329 7.79 22.41 12.08
3/29/2021 12:00:00 PM 9.69 49.442 0.331 7.8 21.83 12.1
3/29/2021 12:15:00 PM 9.76 49.568 0.333 7.81 20.63 12.11
3/29/2021 12:30:00 PM 9.85 49.73 0.335 7.82 20.56 12.14
3/29/2021 12:45:00 PM 9.96 49.928 0.336 7.83 19.9 12.16
3/29/2021 1:00:00 PM 10.06 50.108 0.337 7.84 19.08 12.19
3/29/2021 1:15:00 PM 10.14 50.252 0.337 7.86 18.28 12.2
3/29/2021 1:30:00 PM 10.25 50.45 0.337 7.87 18.17 12.23
3/29/2021 1:45:00 PM 10.36 50.648 0.338 7.88 17.82 12.23
3/29/2021 2:00:00 PM 10.46 50.828 0.339 7.89 17.27 12.26
3/29/2021 2:15:00 PM 10.58 51.044 0.339 7.91 16.78 12.28
3/29/2021 2:30:00 PM 10.69 51.242 0.339 7.92 16.3 12.3
3/29/2021 2:45:00 PM 10.79 51.422 0.339 7.94 15.14 12.31
3/29/2021 3:00:00 PM 10.89 51.602 0.339 7.95 15.31 12.34
3/29/2021 3:15:00 PM 10.98 51.764 0.338 7.97 13.99 12.35
3/29/2021 3:30:00 PM 11.06 51.908 0.339 7.98 13.55 12.37
3/29/2021 3:45:00 PM 11.14 52.052 0.34 7.99 13.23 12.41
3/29/2021 4:00:00 PM 11.2 52.16 0.341 8.01 12.48 12.42
3/29/2021 4:15:00 PM 11.26 52.268 0.341 8.02 12.01 12.43
3/29/2021 4:30:00 PM 11.31 52.358 0.342 8.04 11.65 12.45
3/29/2021 4:45:00 PM 11.34 52.412 0.342 8.04 11.66 12.45
3/29/2021 5:00:00 PM 11.36 52.448 0.341 8.06 11.02 12.45
3/29/2021 5:15:00 PM 11.37 52.466 0.341 8.06 10.19 12.47
3/29/2021 5:30:00 PM 11.37 52.466 0.34 8.07 9.77 12.45
3/29/2021 5:45:00 PM 11.37 52.466 0.34 8.08 9.35 12.44
3/29/2021 6:00:00 PM 11.36 52.448 0.341 8.08 9.1 12.44
3/29/2021 6:15:00 PM 11.35 52.43 0.341 8.08 9.22 12.43
3/29/2021 6:30:00 PM 11.34 52.412 0.342 8.09 8.92 12.42
3/29/2021 6:45:00 PM 11.31 52.358 0.344 8.09 8.75 12.42
3/29/2021 7:00:00 PM 11.3 52.34 0.346 8.09 8.25 12.4
3/29/2021 7:15:00 PM 11.28 52.304 0.348 8.09 8.46 12.39
3/29/2021 7:30:00 PM 11.26 52.268 0.349 8.09 8.1 12.38
3/29/2021 7:45:00 PM 11.23 52.214 0.35 8.08 7.85 12.36
3/29/2021 8:00:00 PM 11.21 52.178 0.351 8.07 7.74 12.35
3/29/2021 8:15:00 PM 11.19 52.142 0.352 8.07 7.57 12.33
3/29/2021 8:30:00 PM 11.17 52.106 0.354 8.06 7.07 12.32
3/29/2021 8:45:00 PM 11.15 52.07 0.354 8.05 7.31 12.29
3/29/2021 9:00:00 PM 11.13 52.034 0.354 8.05 6.93 12.27
3/29/2021 9:15:00 PM 11.1 51.98 0.355 8.04 6.85 12.24
3/29/2021 9:30:00 PM 11.07 51.926 0.355 8.03 6.76 12.21
3/29/2021 9:45:00 PM 11.04 51.872 0.356 8.02 6.72 12.18
3/29/2021 10:00:00 PM 11.01 51.818 0.357 8.01 6.62 12.14
3/29/2021 10:15:00 PM 10.97 51.746 0.358 8 6.28 12.12
3/29/2021 10:30:00 PM 10.92 51.656 0.36 7.99 6.41 12.09
3/29/2021 10:45:00 PM 10.88 51.584 0.363 7.98 6.24 12.07
3/29/2021 11:00:00 PM 10.84 51.512 0.364 7.97 6.16 12.06
3/29/2021 11:15:00 PM 10.79 51.422 0.365 7.96 6.1 12.03
3/29/2021 11:30:00 PM 10.74 51.332 0.366 7.95 6.09 12.01
3/29/2021 11:45:00 PM 10.7 51.26 0.367 7.94 5.96 12
3/30/2021 12:00:00 AM 10.65 51.17 0.368 7.93 6.01 11.98
3/30/2021 12:15:00 AM 10.6 51.08 0.369 7.92 5.82 11.97
3/30/2021 12:30:00 AM 10.55 50.99 0.369 7.92 5.85 11.96
3/30/2021 12:45:00 AM 10.49 50.882 0.37 7.91 5.71 11.94
3/30/2021 1:00:00 AM 10.45 50.81 0.37 7.9 5.66 11.93
3/30/2021 1:15:00 AM 10.4 50.72 0.372 7.89 5.61 11.91
3/30/2021 1:30:00 AM 10.35 50.63 0.373 7.88 5.58 11.89
3/30/2021 1:45:00 AM 10.31 50.558 0.375 7.87 5.65 11.88
3/30/2021 2:00:00 AM 10.26 50.468 0.376 7.87 5.54 11.88
3/30/2021 2:15:00 AM 10.23 50.414 0.378 7.86 5.48 11.88
3/30/2021 2:30:00 AM 10.19 50.342 0.378 7.86 5.66 11.87
3/30/2021 2:45:00 AM 10.14 50.252 0.379 7.85 5.54 11.86
3/30/2021 3:00:00 AM 10.1 50.18 0.381 7.85 5.48 11.86
3/30/2021 3:15:00 AM 10.06 50.108 0.382 7.84 5.28 11.86
3/30/2021 3:30:00 AM 10.02 50.036 0.382 7.84 5.35 11.86
3/30/2021 3:45:00 AM 9.98 49.964 0.383 7.83 5.51 11.86
3/30/2021 4:00:00 AM 9.93 49.874 0.384 7.83 5.25 11.86
3/30/2021 4:15:00 AM 9.89 49.802 0.385 7.83 5.55 11.86
3/30/2021 4:30:00 AM 9.85 49.73 0.387 7.83 5.17 11.86
3/30/2021 4:45:00 AM 9.8 49.64 0.388 7.83 5.38 11.86
3/30/2021 5:00:00 AM 9.76 49.568 0.39 7.82 5.27 11.87
3/30/2021 5:15:00 AM 9.71 49.478 0.391 7.82 5.3 11.87
3/30/2021 5:30:00 AM 9.66 49.388 0.391 7.82 5.23 11.88
3/30/2021 5:45:00 AM 9.61 49.298 0.391 7.82 5.09 11.89
3/30/2021 6:00:00 AM 9.56 49.208 0.391 7.82 5.3 11.91
3/30/2021 6:15:00 AM 9.51 49.118 0.39 7.82 5.2 11.91
3/30/2021 6:30:00 AM 9.46 49.028 0.389 7.81 5.04 11.93
3/30/2021 6:45:00 AM 9.41 48.938 0.389 7.81 5.21 11.95
3/30/2021 7:00:00 AM 9.35 48.83 0.388 7.81 5.08 11.97
3/30/2021 7:15:00 AM 9.3 48.74 0.389 7.81 5.09 11.99
3/30/2021 7:30:00 AM 9.25 48.65 0.39 7.81 5.07 12.01
3/30/2021 7:45:00 AM 9.2 48.56 0.391 7.81 5.06 12.03
3/30/2021 8:00:00 AM 9.15 48.47 0.392 7.82 5.12 12.04
3/30/2021 8:15:00 AM 9.11 48.398 0.393 7.82 5.03 12.06
3/30/2021 8:30:00 AM 9.08 48.344 0.394 7.82 4.98 12.09
3/30/2021 8:45:00 AM 9.05 48.29 0.394 7.82 4.92 12.13
3/30/2021 9:00:00 AM 9.04 48.272 0.395 7.83 5 12.17
3/30/2021 9:15:00 AM 9.03 48.254 0.395 7.83 5.06 12.2
3/30/2021 9:30:00 AM 9.04 48.272 0.395 7.83 4.99 12.21
3/30/2021 9:45:00 AM 9.04 48.272 0.396 7.84 4.96 12.26
3/30/2021 10:00:00 AM 9.06 48.308 0.395 7.85 4.95 12.28
3/30/2021 10:15:00 AM 9.1 48.38 0.396 7.85 5.18 12.31
3/30/2021 10:30:00 AM 9.14 48.452 0.397 7.86 5.18 12.34
3/30/2021 10:45:00 AM 9.19 48.542 0.398 7.86 5.25 12.38
3/30/2021 11:00:00 AM 9.25 48.65 0.398 7.87 4.97 12.43
3/30/2021 11:15:00 AM 9.32 48.776 0.398 7.88 5.41 12.46
3/30/2021 11:30:00 AM 9.41 48.938 0.398 7.89 5.04 12.5
3/30/2021 11:45:00 AM 9.5 49.1 0.397 7.9 4.97 12.52
3/30/2021 12:00:00 PM 9.61 49.298 0.397 7.92 4.85 12.56
3/30/2021 12:15:00 PM 9.72 49.496 0.397 7.93 4.84 12.59
3/30/2021 12:30:00 PM 9.86 49.748 0.396 7.95 4.89 12.63
3/30/2021 12:45:00 PM 10.01 50.018 0.396 7.96 4.83 12.66
3/30/2021 1:00:00 PM 10.16 50.288 0.397 7.98 4.89 12.69
3/30/2021 1:15:00 PM 10.32 50.576 0.398 8 4.76 12.7
3/30/2021 1:30:00 PM 10.47 50.846 0.399 8.02 4.72 12.72
3/30/2021 1:45:00 PM 10.64 51.152 0.399 8.04 4.57 12.75
3/30/2021 2:00:00 PM 10.79 51.422 0.398 8.06 4.67 12.77
3/30/2021 2:15:00 PM 10.95 51.71 0.398 8.08 4.67 12.77
3/30/2021 2:30:00 PM 11.11 51.998 0.397 8.1 4.68 12.79
3/30/2021 2:45:00 PM 11.26 52.268 0.396 8.11 4.59 12.81
3/30/2021 3:00:00 PM 11.42 52.556 0.396 8.13 4.46 12.8
3/30/2021 3:15:00 PM 11.57 52.826 0.394 8.15 4.29 12.79
3/30/2021 3:30:00 PM 11.72 53.096 0.394 8.17 4.4 12.8
3/30/2021 3:45:00 PM 11.86 53.348 0.392 8.19 4.12 12.81
3/30/2021 4:00:00 PM 11.97 53.546 0.393 8.2 4.17 12.8
3/30/2021 4:15:00 PM 12.08 53.744 0.393 8.22 4.44 12.79
3/30/2021 4:30:00 PM 12.17 53.906 0.394 8.23 4.56 12.76
3/30/2021 4:45:00 PM 12.25 54.05 0.394 8.24 4.58 12.75
3/30/2021 5:00:00 PM 12.32 54.176 0.393 8.25 4.65 12.74
3/30/2021 5:15:00 PM 12.35 54.23 0.393 8.26 4.28 12.72
3/30/2021 5:30:00 PM 12.38 54.284 0.392 8.27 4.1 12.69
3/30/2021 5:45:00 PM 12.39 54.302 0.391 8.28 3.71 12.65
3/30/2021 6:00:00 PM 12.41 54.338 0.39 8.29 3.63 12.66
3/30/2021 6:15:00 PM 12.41 54.338 0.39 8.29 3.46 12.6
3/30/2021 6:30:00 PM 12.41 54.338 0.389 8.29 3.56 12.57
3/30/2021 6:45:00 PM 12.41 54.338 0.389 8.29 3.52 12.55
3/30/2021 7:00:00 PM 12.41 54.338 0.39 8.29 3.55 12.51
3/30/2021 7:15:00 PM 12.4 54.32 0.39 8.28 3.89 12.48
3/30/2021 7:30:00 PM 12.4 54.32 0.39 8.28 3.83 12.44
3/30/2021 7:45:00 PM 12.38 54.284 0.39 8.28 3.95 12.4
3/30/2021 8:00:00 PM 12.37 54.266 0.389 8.27 3.92 12.36
3/30/2021 8:15:00 PM 12.36 54.248 0.39 8.26 3.89 12.34
3/30/2021 8:30:00 PM 12.34 54.212 0.39 8.26 3.86 12.3
3/30/2021 8:45:00 PM 12.31 54.158 0.39 8.25 4.24 12.27
3/30/2021 9:00:00 PM 12.29 54.122 0.391 8.24 3.67 12.23
3/30/2021 9:15:00 PM 12.26 54.068 0.392 8.23 3.74 12.19
3/30/2021 9:30:00 PM 12.23 54.014 0.393 8.22 3.7 12.15
3/30/2021 9:45:00 PM 12.19 53.942 0.394 8.21 3.7 12.11
3/30/2021 10:00:00 PM 12.16 53.888 0.395 8.19 3.67 12.06
3/30/2021 10:15:00 PM 12.12 53.816 0.395 8.18 3.8 12.04
3/30/2021 10:30:00 PM 12.08 53.744 0.395 8.16 3.85 11.99
3/30/2021 10:45:00 PM 12.05 53.69 0.395 8.14 3.89 11.95
3/30/2021 11:00:00 PM 12.01 53.618 0.395 8.13 3.98 11.9
3/30/2021 11:15:00 PM 11.97 53.546 0.395 8.11 3.83 11.86
3/30/2021 11:30:00 PM 11.94 53.492 0.395 8.1 3.9 11.83
3/30/2021 11:45:00 PM 11.9 53.42 0.395 8.08 3.88 11.78
3/31/2021 12:00:00 AM 11.87 53.366 0.397 8.07 3.93 11.77
3/31/2021 12:15:00 AM 11.83 53.294 0.399 8.05 4.05 11.72
3/31/2021 12:30:00 AM 11.8 53.24 0.402 8.04 4.34 11.71
3/31/2021 12:45:00 AM 11.77 53.186 0.404 8.03 4.25 11.69
3/31/2021 1:00:00 AM 11.74 53.132 0.406 8.01 4.35 11.66
3/31/2021 1:15:00 AM 11.71 53.078 0.409 8 4 11.64
3/31/2021 1:30:00 AM 11.69 53.042 0.411 7.99 4.06 11.61
3/31/2021 1:45:00 AM 11.67 53.006 0.413 7.98 4.31 11.58
3/31/2021 2:00:00 AM 11.64 52.952 0.415 7.96 3.97 11.54
3/31/2021 2:15:00 AM 11.63 52.934 0.416 7.95 3.91 11.5
3/31/2021 2:30:00 AM 11.61 52.898 0.416 7.94 4.13 11.48
3/31/2021 2:45:00 AM 11.59 52.862 0.417 7.93 4.17 11.46
3/31/2021 3:00:00 AM 11.58 52.844 0.418 7.92 3.95 11.44
3/31/2021 3:15:00 AM 11.57 52.826 0.419 7.91 3.89 11.42
3/31/2021 3:30:00 AM 11.55 52.79 0.419 7.91 3.8 11.4
3/31/2021 3:45:00 AM 11.55 52.79 0.419 7.9 3.79 11.38
3/31/2021 4:00:00 AM 11.54 52.772 0.419 7.9 3.84 11.35
3/31/2021 4:15:00 AM 11.53 52.754 0.418 7.89 3.78 11.35
3/31/2021 4:30:00 AM 11.52 52.736 0.417 7.88 3.85 11.33
3/31/2021 4:45:00 AM 11.51 52.718 0.415 7.88 4.2 11.33
3/31/2021 5:00:00 AM 11.5 52.7 0.414 7.87 4.15 11.32
3/31/2021 5:15:00 AM 11.48 52.664 0.413 7.87 4.52 11.3
3/31/2021 5:30:00 AM 11.47 52.646 0.412 7.86 4.29 11.3
3/31/2021 5:45:00 AM 11.46 52.628 0.412 7.86 4.42 11.3
3/31/2021 6:00:00 AM 11.44 52.592 0.412 7.85 3.99 11.3
3/31/2021 6:15:00 AM 11.43 52.574 0.412 7.85 4.19 11.29
3/31/2021 6:30:00 AM 11.41 52.538 0.412 7.85 4.28 11.29
3/31/2021 6:45:00 AM 11.39 52.502 0.412 7.84 4.01 11.28
3/31/2021 7:00:00 AM 11.37 52.466 0.412 7.84 4.12 11.28
3/31/2021 7:15:00 AM 11.35 52.43 0.411 7.84 4.32 11.29
3/31/2021 7:30:00 AM 11.34 52.412 0.411 7.84 4.24 11.31
3/31/2021 7:45:00 AM 11.33 52.394 0.41 7.84 4.21 11.33
3/31/2021 8:00:00 AM 11.32 52.376 0.41 7.84 4.07 11.32
3/31/2021 8:15:00 AM 11.31 52.358 0.409 7.84 3.92 11.35
3/31/2021 8:30:00 AM 11.31 52.358 0.408 7.84 3.98 11.36
3/31/2021 8:45:00 AM 11.3 52.34 0.409 7.84 4.02 11.38
3/31/2021 9:00:00 AM 11.29 52.322 0.409 7.84 4.27 11.37
3/31/2021 9:15:00 AM 11.29 52.322 0.409 7.84 4.28 11.39
3/31/2021 9:30:00 AM 11.29 52.322 0.409 7.84 4.45 11.4
3/31/2021 9:45:00 AM 11.28 52.304 0.409 7.84 4.32 11.39
3/31/2021 10:00:00 AM 11.29 52.322 0.409 7.84 4.52 11.43
3/31/2021 10:15:00 AM 11.31 52.358 0.409 7.85 4.41 11.49
3/31/2021 10:30:00 AM 11.34 52.412 0.408 7.86 4.64 11.52
3/31/2021 10:45:00 AM 11.35 52.43 0.408 7.86 4.38 11.5
3/31/2021 11:00:00 AM 11.38 52.484 0.408 7.87 4.56 11.52
3/31/2021 11:15:00 AM 11.41 52.538 0.408 7.87 4.2 11.53
3/31/2021 11:30:00 AM 11.43 52.574 0.409 7.87 4.39 11.53
3/31/2021 11:45:00 AM 11.45 52.61 0.409 7.88 4.8 11.57
3/31/2021 12:00:00 PM 11.47 52.646 0.409 7.89 4.51 11.61
3/31/2021 12:15:00 PM 11.49 52.682 0.409 7.89 4.4 11.63
3/31/2021 12:30:00 PM 11.51 52.718 0.409 7.9 4.62 11.63
3/31/2021 12:45:00 PM 11.54 52.772 0.409 7.91 4.45 11.67
3/31/2021 1:00:00 PM 11.56 52.808 0.408 7.91 4.08 11.69
3/31/2021 1:15:00 PM 11.62 52.916 0.407 7.94 4.2 11.82
3/31/2021 1:30:00 PM 11.66 52.988 0.407 7.95 4.02 11.86
3/31/2021 1:45:00 PM 11.71 53.078 0.407 7.96 3.9 11.87
3/31/2021 2:00:00 PM 11.75 53.15 0.407 7.97 4.08 11.91
3/31/2021 2:15:00 PM 11.81 53.258 0.407 7.99 4.1 11.94
3/31/2021 2:30:00 PM 11.84 53.312 0.408 7.99 4.13 11.94
3/31/2021 2:45:00 PM 11.88 53.384 0.408 8 4.16 11.96
3/31/2021 3:00:00 PM 11.91 53.438 0.409 8.01 4.26 11.94
3/31/2021 3:15:00 PM 11.93 53.474 0.408 8.01 4.02 11.94
3/31/2021 3:30:00 PM 11.95 53.51 0.407 8.02 3.85 11.95
3/31/2021 3:45:00 PM 11.97 53.546 0.406 8.03 3.78 11.96
3/31/2021 4:00:00 PM 11.99 53.582 0.405 8.02 3.69 11.9
3/31/2021 4:15:00 PM 12.03 53.654 0.404 8.03 3.95 11.93
3/31/2021 4:30:00 PM 12.05 53.69 0.403 8.04 3.82 11.94
3/31/2021 4:45:00 PM 12.08 53.744 0.403 8.05 3.65 11.99
3/31/2021 5:00:00 PM 12.1 53.78 0.403 8.06 3.84 12
3/31/2021 5:15:00 PM 12.12 53.816 0.402 8.07 3.59 12.02
3/31/2021 5:30:00 PM 12.14 53.852 0.402 8.08 3.68 12.01
3/31/2021 5:45:00 PM 12.15 53.87 0.402 8.08 4.73 12.03
3/31/2021 6:00:00 PM 12.17 53.906 0.401 8.09 3.95 12.03
3/31/2021 6:15:00 PM 12.17 53.906 0.401 8.1 3.83 12.02
3/31/2021 6:30:00 PM 12.17 53.906 0.401 8.1 3.55 12
3/31/2021 6:45:00 PM 12.16 53.888 0.401 8.1 3.71 11.97
3/31/2021 7:00:00 PM 12.15 53.87 0.4 8.09 3.93 11.94
3/31/2021 7:15:00 PM 12.14 53.852 0.401 8.08 3.88 11.93
3/31/2021 7:30:00 PM 12.13 53.834 0.4 8.08 3.51 11.91
3/31/2021 7:45:00 PM 12.12 53.816 0.4 8.07 3.2 11.9
3/31/2021 8:00:00 PM 12.11 53.798 0.4 8.07 3.36 11.87
3/31/2021 8:15:00 PM 12.1 53.78 0.399 8.06 3.3 11.85
3/31/2021 8:30:00 PM 12.1 53.78 0.397 8.06 3.4 11.84
3/31/2021 8:45:00 PM 12.09 53.762 0.397 8.06 3.46 11.82
3/31/2021 9:00:00 PM 12.08 53.744 0.396 8.05 3.38 11.79
3/31/2021 9:15:00 PM 12.07 53.726 0.396 8.05 3.37 11.76
3/31/2021 9:30:00 PM 12.06 53.708 0.396 8.04 3.67 11.76
3/31/2021 9:45:00 PM 12.05 53.69 0.396 8.03 3.51 11.73
3/31/2021 10:00:00 PM 12.03 53.654 0.397 8.02 3.47 11.69
3/31/2021 10:15:00 PM 12.01 53.618 0.398 8.02 3.48 11.67
3/31/2021 10:30:00 PM 12 53.6 0.399 8.01 3.51 11.65
3/31/2021 10:45:00 PM 11.99 53.582 0.399 8 3.51 11.62
3/31/2021 11:00:00 PM 11.98 53.564 0.4 7.99 3.42 11.59
3/31/2021 11:15:00 PM 11.97 53.546 0.4 7.98 4.23 11.56
3/31/2021 11:30:00 PM 11.96 53.528 0.4 7.97 3.43 11.52
3/31/2021 11:45:00 PM 11.95 53.51 0.4 7.96 3.54 11.5
4/1/2021 12:00:00 AM 11.93 53.474 0.399 7.96 3.42 11.49
4/1/2021 12:15:00 AM 11.92 53.456 0.4 7.95 3.36 11.45
4/1/2021 12:30:00 AM 11.9 53.42 0.401 7.95 3.3 11.46
4/1/2021 12:45:00 AM 11.88 53.384 0.401 7.94 3.34 11.44
4/1/2021 1:00:00 AM 11.85 53.33 0.402 7.93 3.25 11.42
4/1/2021 1:15:00 AM 11.81 53.258 0.403 7.93 3.29 11.41
4/1/2021 1:30:00 AM 11.79 53.222 0.403 7.92 3.37 11.4
4/1/2021 1:45:00 AM 11.76 53.168 0.405 7.92 3.42 11.38
4/1/2021 2:00:00 AM 11.74 53.132 0.404 7.91 3.33 11.37
4/1/2021 2:15:00 AM 11.71 53.078 0.404 7.91 3.33 11.36
4/1/2021 2:30:00 AM 11.69 53.042 0.405 7.9 3.38 11.35
4/1/2021 2:45:00 AM 11.67 53.006 0.405 7.9 3.35 11.32
4/1/2021 3:00:00 AM 11.64 52.952 0.406 7.89 3.36 11.32
4/1/2021 3:15:00 AM 11.62 52.916 0.406 7.89 3.38 11.32
4/1/2021 3:30:00 AM 11.59 52.862 0.406 7.89 3.5 11.31
4/1/2021 3:45:00 AM 11.55 52.79 0.406 7.88 3.49 11.31
4/1/2021 4:00:00 AM 11.51 52.718 0.406 7.88 3.58 11.31
4/1/2021 4:15:00 AM 11.46 52.628 0.406 7.88 3.46 11.31
4/1/2021 4:30:00 AM 11.4 52.52 0.406 7.87 3.54 11.33
4/1/2021 4:45:00 AM 11.35 52.43 0.405 7.87 3.58 11.33
4/1/2021 5:00:00 AM 11.3 52.34 0.405 7.87 3.51 11.34
4/1/2021 5:15:00 AM 11.25 52.25 0.404 7.87 3.55 11.35
4/1/2021 5:30:00 AM 11.19 52.142 0.403 7.87 3.57 11.36
4/1/2021 5:45:00 AM 11.14 52.052 0.402 7.86 3.66 11.36
4/1/2021 6:00:00 AM 11.1 51.98 0.404 7.86 3.58 11.37
4/1/2021 6:15:00 AM 11.06 51.908 0.404 7.86 3.51 11.37
4/1/2021 6:30:00 AM 11 51.8 0.405 7.86 3.65 11.37
4/1/2021 6:45:00 AM 10.95 51.71 0.405 7.86 3.88 11.37
4/1/2021 7:00:00 AM 10.9 51.62 0.405 7.86 3.66 11.4
4/1/2021 7:15:00 AM 10.84 51.512 0.404 7.86 3.66 11.42
4/1/2021 7:30:00 AM 10.79 51.422 0.403 7.86 3.63 11.44
4/1/2021 7:45:00 AM 10.73 51.314 0.403 7.86 3.71 11.46
4/1/2021 8:00:00 AM 10.68 51.224 0.402 7.86 3.75 11.49
4/1/2021 8:15:00 AM 10.63 51.134 0.401 7.86 3.75 11.53
4/1/2021 8:30:00 AM 10.58 51.044 0.401 7.86 3.79 11.56
4/1/2021 8:45:00 AM 10.54 50.972 0.401 7.86 3.71 11.6
4/1/2021 9:00:00 AM 10.51 50.918 0.401 7.87 3.75 11.63
4/1/2021 9:15:00 AM 10.47 50.846 0.401 7.87 3.79 11.64
4/1/2021 9:30:00 AM 10.44 50.792 0.401 7.87 3.99 11.67
4/1/2021 9:45:00 AM 10.41 50.738 0.401 7.87 4.05 11.69
4/1/2021 10:00:00 AM 10.38 50.684 0.401 7.88 4.07 11.75
4/1/2021 10:15:00 AM 10.37 50.666 0.402 7.88 4.17 11.77
4/1/2021 10:30:00 AM 10.36 50.648 0.402 7.89 4.18 11.83
4/1/2021 10:45:00 AM 10.42 50.756 0.402 7.9 3.95 11.91
4/1/2021 11:00:00 AM 10.42 50.756 0.402 7.91 4.07 11.93
4/1/2021 11:15:00 AM 10.46 50.828 0.402 7.92 4.13 11.97
4/1/2021 11:30:00 AM 10.47 50.846 0.402 7.93 4.01 11.99
4/1/2021 11:45:00 AM 10.53 50.954 0.401 7.94 4.35 12.1
4/1/2021 12:00:00 PM 10.51 50.918 0.399 7.95 3.98 12.12
4/1/2021 12:15:00 PM 10.5 50.9 0.397 7.96 3.9 12.17
4/1/2021 12:30:00 PM 10.51 50.918 0.395 7.98 4.11 12.26
4/1/2021 12:45:00 PM 10.57 51.026 0.394 8 4.22 12.34
4/1/2021 1:00:00 PM 10.58 51.044 0.393 8.02 3.92 12.37
4/1/2021 1:15:00 PM 10.61 51.098 0.393 8.04 3.98 12.43
4/1/2021 1:30:00 PM 10.66 51.188 0.393 8.06 3.99 12.5
4/1/2021 1:45:00 PM 10.71 51.278 0.394 8.09 3.98 12.58
4/1/2021 2:00:00 PM -99999.99 -179968 -99999.99 -99999.99 -99999.99 -99999.99
4/1/2021 2:15:00 PM 10.7 51.26 0.311 8.13 4.49 11.92
4/1/2021 2:30:00 PM 10.8 51.44 0.312 8.18 -2.86 12.04
4/1/2021 2:45:00 PM 10.83 51.494 0.299 8.2 -2.82 12.02
4/1/2021 3:00:00 PM 10.84 51.512 0.305 8.22 -2.66 11.98
4/1/2021 3:15:00 PM 10.86 51.548 0.315 8.24 -2.94 11.98
4/1/2021 3:30:00 PM 10.89 51.602 0.315 8.27 -2.77 12.03
4/1/2021 3:45:00 PM 10.87 51.566 0.315 8.28 -3.15 12.01
4/1/2021 4:00:00 PM 10.86 51.548 0.312 8.3 -3.2 12.03
4/1/2021 4:15:00 PM 10.86 51.548 0.296 8.32 -3.35 12.04
4/1/2021 4:30:00 PM 10.85 51.53 0.341 8.33 -3.17 12.05
4/1/2021 4:45:00 PM 10.83 51.494 0.286 8.36 -3.14 12.09
4/1/2021 5:00:00 PM 10.81 51.458 0.296 8.37 -3.34 12.1
4/1/2021 5:15:00 PM 10.8 51.44 0.291 8.39 -3.45 12.12
4/1/2021 5:30:00 PM 10.76 51.368 0.285 8.38 -3.46 12.07
4/1/2021 5:45:00 PM 10.73 51.314 0.291 8.39 -3.44 12.1
4/1/2021 6:00:00 PM 10.69 51.242 0.288 8.4 -3.56 12.09
4/1/2021 6:15:00 PM 10.64 51.152 0.279 8.4 -3.48 12.05
4/1/2021 6:30:00 PM 10.6 51.08 0.254 8.4 -3.42 12.07
4/1/2021 6:45:00 PM 10.54 50.972 0.279 8.4 -3.59 12.04
4/1/2021 7:00:00 PM 10.49 50.882 0.281 8.4 -3.56 12.02
4/1/2021 7:15:00 PM 10.41 50.738 0.259 8.4 -3.5 12.01
4/1/2021 7:30:00 PM 10.34 50.612 0.283 8.4 -3.52 12
4/1/2021 7:45:00 PM 10.26 50.468 0.266 8.39 -3.34 12
4/1/2021 8:00:00 PM 10.19 50.342 0.295 8.39 -3.25 11.98
4/1/2021 8:15:00 PM 10.11 50.198 0.287 8.38 -3.25 11.98
4/1/2021 8:30:00 PM 10.04 50.072 0.3 8.37 -3.31 11.97
4/1/2021 8:45:00 PM 9.96 49.928 0.299 8.37 -3.29 11.96
4/1/2021 9:00:00 PM 9.88 49.784 0.289 8.36 -3.17 11.94
4/1/2021 9:15:00 PM 9.82 49.676 0.296 8.34 -3.25 11.92
4/1/2021 9:30:00 PM 9.75 49.55 0.285 8.32 -3.23 11.9
4/1/2021 9:45:00 PM 9.68 49.424 0.285 8.3 -3.17 11.87
4/1/2021 10:00:00 PM 9.6 49.28 0.278 8.29 -3.13 11.85
4/1/2021 10:15:00 PM 9.53 49.154 0.295 8.27 -3.21 11.83
4/1/2021 10:30:00 PM 9.46 49.028 0.294 8.25 -3.12 11.8
4/1/2021 10:45:00 PM 9.38 48.884 0.271 8.23 -2.97 11.78
4/1/2021 11:00:00 PM 9.31 48.758 0.289 8.21 -3.09 11.77
4/1/2021 11:15:00 PM 9.23 48.614 0.29 8.18 -3.08 11.75
4/1/2021 11:30:00 PM 9.15 48.47 0.28 8.17 -2.91 11.73
4/1/2021 11:45:00 PM 9.07 48.326 0.291 8.15 -2.56 11.72
4/2/2021 12:00:00 AM 8.99 48.182 0.287 8.13 -2.65 11.7
4/2/2021 12:15:00 AM 8.93 48.074 0.335 8.11 -2.91 11.69
4/2/2021 12:30:00 AM 8.86 47.948 0.282 8.1 -2.89 11.68
4/2/2021 12:45:00 AM 8.8 47.84 0.293 8.09 -2.75 11.67
4/2/2021 1:00:00 AM 8.74 47.732 0.296 8.07 -2.73 11.66
4/2/2021 1:15:00 AM 8.68 47.624 0.29 8.06 -2.54 11.65
4/2/2021 1:30:00 AM 8.63 47.534 0.268 8.05 -2.68 11.64
4/2/2021 1:45:00 AM 8.58 47.444 0.292 8.03 -2.57 11.63
4/2/2021 2:00:00 AM 8.52 47.336 0.27 8.03 -2.54 11.63
4/2/2021 2:15:00 AM 8.47 47.246 0.292 8.01 -2.56 11.62
4/2/2021 2:30:00 AM 8.41 47.138 0.268 8 -2.38 11.62
4/2/2021 2:45:00 AM 8.35 47.03 0.258 8 -2.28 11.62
4/2/2021 3:00:00 AM 8.28 46.904 0.286 7.99 -2.31 11.62
4/2/2021 3:15:00 AM 8.21 46.778 0.293 7.98 -2.4 11.63
4/2/2021 3:30:00 AM 8.15 46.67 0.304 7.97 -2.19 11.63
4/2/2021 3:45:00 AM 8.09 46.562 0.303 7.97 -2.21 11.64
4/2/2021 4:00:00 AM 8.03 46.454 0.347 7.96 -2.3 11.64
4/2/2021 4:15:00 AM 7.98 46.364 0.347 7.96 -2.31 11.65
4/2/2021 4:30:00 AM 7.93 46.274 0.289 7.95 -2.28 11.65
4/2/2021 4:45:00 AM 7.87 46.166 0.307 7.95 -2.27 11.66
4/2/2021 5:00:00 AM 7.82 46.076 0.348 7.95 -2.37 11.67
4/2/2021 5:15:00 AM 7.76 45.968 0.309 7.94 -2.28 11.68
4/2/2021 5:30:00 AM 7.7 45.86 0.305 7.94 -2.24 11.69
4/2/2021 5:45:00 AM 7.64 45.752 0.302 7.94 -2.25 11.71
4/2/2021 6:00:00 AM 7.59 45.662 0.3 7.93 -2.16 11.71
4/2/2021 6:15:00 AM 7.53 45.554 0.299 7.93 -2.07 11.72
4/2/2021 6:30:00 AM 7.47 45.446 0.308 7.93 -2.07 11.74
4/2/2021 6:45:00 AM 7.41 45.338 0.302 7.92 -1.98 11.75
4/2/2021 7:00:00 AM 7.34 45.212 0.302 7.92 -2.14 11.78
4/2/2021 7:15:00 AM 7.27 45.086 0.305 7.92 -2 11.8
4/2/2021 7:30:00 AM 7.21 44.978 0.305 7.92 -1.9 11.83
4/2/2021 7:45:00 AM 7.15 44.87 0.357 7.92 -1.99 11.86
4/2/2021 8:00:00 AM 7.08 44.744 0.302 7.92 -2 11.89
4/2/2021 8:15:00 AM 7 44.6 0.357 7.92 -2.13 11.91
4/2/2021 8:30:00 AM 6.95 44.51 0.358 7.92 -2.23 11.95
4/2/2021 8:45:00 AM 6.91 44.438 0.296 7.92 -2.06 12
4/2/2021 9:00:00 AM 6.87 44.366 0.305 7.93 -2.21 12.04
4/2/2021 9:15:00 AM 6.82 44.276 0.361 7.93 -2.36 12.04
4/2/2021 9:30:00 AM 6.8 44.24 0.278 7.94 -2.36 12.1
4/2/2021 9:45:00 AM 6.77 44.186 0.305 7.94 -2.52 12.12
4/2/2021 10:00:00 AM 6.77 44.186 0.296 7.94 -2.62 12.16
4/2/2021 10:15:00 AM 6.78 44.204 0.309 7.95 -2.61 12.2
4/2/2021 10:30:00 AM 6.8 44.24 0.27 7.95 -2.72 12.24
4/2/2021 10:45:00 AM 6.82 44.276 0.261 7.96 -2.81 12.27
4/2/2021 11:00:00 AM 6.86 44.348 0.305 7.97 -2.77 12.3
4/2/2021 11:15:00 AM 6.9 44.42 0.31 7.98 -2.59 12.35
4/2/2021 11:30:00 AM 6.94 44.492 0.298 7.99 -2.65 12.38
4/2/2021 11:45:00 AM 6.99 44.582 0.259 8.01 -3 12.44
4/2/2021 12:00:00 PM 7.04 44.672 0.311 8.03 -2.69 12.48
4/2/2021 12:15:00 PM 7.11 44.798 0.274 8.04 -2.81 12.52
4/2/2021 12:30:00 PM 7.15 44.87 0.27 8.05 -2.82 12.55
4/2/2021 12:45:00 PM 7.24 45.032 0.295 8.07 -2.87 12.61
4/2/2021 1:00:00 PM 7.34 45.212 0.31 8.09 -3.11 12.65
4/2/2021 1:15:00 PM 7.43 45.374 0.301 8.1 -3.1 12.66
4/2/2021 1:30:00 PM 7.54 45.572 0.36 8.12 -3.23 12.7
4/2/2021 1:45:00 PM 7.68 45.824 0.307 8.14 -3.09 12.74
4/2/2021 2:00:00 PM 7.8 46.04 0.307 8.16 -3.33 12.75
4/2/2021 2:15:00 PM 7.95 46.31 0.306 8.18 -3.22 12.78
4/2/2021 2:30:00 PM 8.08 46.544 0.305 8.2 -3.21 12.8
4/2/2021 2:45:00 PM 8.21 46.778 0.303 8.22 -3.29 12.81
4/2/2021 3:00:00 PM 8.34 47.012 0.302 8.25 -3.36 12.82
4/2/2021 3:15:00 PM 8.46 47.228 0.305 8.27 -3.45 12.84
4/2/2021 3:30:00 PM 8.57 47.426 0.307 8.28 -3.39 12.81
4/2/2021 3:45:00 PM 8.67 47.606 0.306 8.31 -3.27 12.85
4/2/2021 4:00:00 PM 8.79 47.822 0.306 8.33 -3.18 12.87
4/2/2021 4:15:00 PM 8.87 47.966 0.301 8.35 -3.05 12.86
4/2/2021 4:30:00 PM 8.94 48.092 0.299 8.37 -3.19 12.88
4/2/2021 4:45:00 PM 9 48.2 0.259 8.38 -3.14 12.88
4/2/2021 5:00:00 PM 9.06 48.308 0.272 8.4 -3.47 12.88
4/2/2021 5:15:00 PM 9.09 48.362 0.305 8.42 -3.47 12.87
4/2/2021 5:30:00 PM 9.12 48.416 0.254 8.43 -3.65 12.85
4/2/2021 5:45:00 PM 9.12 48.416 0.293 8.45 -3.82 12.84
4/2/2021 6:00:00 PM 9.11 48.398 0.352 8.46 -3.82 12.82
4/2/2021 6:15:00 PM 9.1 48.38 0.276 8.46 -3.75 12.81
4/2/2021 6:30:00 PM 9.08 48.344 0.257 8.47 -3.99 12.79
4/2/2021 6:45:00 PM 9.05 48.29 0.236 8.48 -4.04 12.77
4/2/2021 7:00:00 PM 9.02 48.236 0.26 8.48 -4 12.75
4/2/2021 7:15:00 PM 8.98 48.164 0.302 8.49 -4.07 12.73
4/2/2021 7:30:00 PM 8.96 48.128 0.25 8.48 -4.01 12.71
4/2/2021 7:45:00 PM 8.93 48.074 0.289 8.49 -4.05 12.7
4/2/2021 8:00:00 PM 8.9 48.02 0.295 8.49 -3.85 12.68
4/2/2021 8:15:00 PM 8.87 47.966 0.296 8.49 -3.82 12.66
4/2/2021 8:30:00 PM 8.82 47.876 0.276 8.49 -3.79 12.64
4/2/2021 8:45:00 PM 8.78 47.804 0.303 8.48 -3.9 12.62
4/2/2021 9:00:00 PM 8.74 47.732 0.256 8.48 -3.95 12.6
4/2/2021 9:15:00 PM 8.7 47.66 0.299 8.48 -3.69 12.59
4/2/2021 9:30:00 PM 8.65 47.57 0.352 8.47 -3.58 12.55
4/2/2021 9:45:00 PM 8.6 47.48 0.251 8.46 -3.55 12.53
4/2/2021 10:00:00 PM 8.55 47.39 0.282 8.45 -3.67 12.51
4/2/2021 10:15:00 PM 8.49 47.282 0.298 8.43 -3.63 12.48
4/2/2021 10:30:00 PM 8.44 47.192 0.244 8.41 -3.68 12.45
4/2/2021 10:45:00 PM 8.38 47.084 0.24 8.4 -3.72 12.41
4/2/2021 11:00:00 PM 8.32 46.976 0.279 8.38 -3.69 12.39
4/2/2021 11:15:00 PM 8.27 46.886 0.278 8.36 -3.68 12.35
4/2/2021 11:30:00 PM 8.21 46.778 0.288 8.34 -3.7 12.32
4/2/2021 11:45:00 PM 8.15 46.67 0.288 8.33 -3.55 12.29
4/3/2021 12:00:00 AM 8.1 46.58 0.295 8.31 -3.64 12.26
4/3/2021 12:15:00 AM 8.05 46.49 0.273 8.29 -3.64 12.23
4/3/2021 12:30:00 AM 7.99 46.382 0.282 8.27 -3.52 12.2
4/3/2021 12:45:00 AM 7.94 46.292 0.298 8.25 -3.5 12.18
4/3/2021 1:00:00 AM 7.88 46.184 0.296 8.23 -3.28 12.15
4/3/2021 1:15:00 AM 7.83 46.094 0.289 8.21 -3.54 12.13
4/3/2021 1:30:00 AM 7.77 45.986 0.286 8.2 -3.51 12.11
4/3/2021 1:45:00 AM 7.72 45.896 0.249 8.18 -3.54 12.1
4/3/2021 2:00:00 AM 7.66 45.788 0.242 8.17 -3.56 12.08
4/3/2021 2:15:00 AM 7.61 45.698 0.268 8.16 -3.59 12.06
4/3/2021 2:30:00 AM 7.55 45.59 0.296 8.14 -3.58 12.05
4/3/2021 2:45:00 AM 7.5 45.5 0.295 8.13 -3.52 12.04
4/3/2021 3:00:00 AM 7.45 45.41 0.294 8.11 -3.53 12.02
4/3/2021 3:15:00 AM 7.4 45.32 0.301 8.1 -3.51 12.01
4/3/2021 3:30:00 AM 7.35 45.23 0.297 8.09 -3.53 12
4/3/2021 3:45:00 AM 7.3 45.14 0.3 8.08 -3.5 11.99
4/3/2021 4:00:00 AM 7.25 45.05 0.301 8.07 -3.42 11.99
4/3/2021 4:15:00 AM 7.21 44.978 0.302 8.06 -3.5 11.99
4/3/2021 4:30:00 AM 7.16 44.888 0.367 8.05 -3.61 11.98
4/3/2021 4:45:00 AM 7.12 44.816 0.291 8.03 -3.58 11.98
4/3/2021 5:00:00 AM 7.08 44.744 0.286 8.03 -3.58 11.97
4/3/2021 5:15:00 AM 7.04 44.672 0.274 8.02 -3.62 11.97
4/3/2021 5:30:00 AM 7.01 44.618 0.265 8.01 -3.48 11.97
4/3/2021 5:45:00 AM 6.97 44.546 0.291 8.01 -3.56 11.97
4/3/2021 6:00:00 AM 6.93 44.474 0.303 8.01 -3.42 11.97
4/3/2021 6:15:00 AM 6.89 44.402 0.297 8 -3.5 11.97
4/3/2021 6:30:00 AM 6.86 44.348 0.298 7.99 -3.39 11.97
4/3/2021 6:45:00 AM 6.82 44.276 0.265 7.99 -3.46 11.98
4/3/2021 7:00:00 AM 6.78 44.204 0.288 7.98 -3.16 11.99
4/3/2021 7:15:00 AM 6.75 44.15 0.255 7.99 -3.08 12.01
4/3/2021 7:30:00 AM 6.72 44.096 0.369 7.99 -2.7 12.03
4/3/2021 7:45:00 AM 6.69 44.042 0.306 7.98 -3.1 12.05
4/3/2021 8:00:00 AM 6.65 43.97 0.308 7.98 -3.41 12.07
4/3/2021 8:15:00 AM 6.63 43.934 0.281 7.99 -3.56 12.1
4/3/2021 8:30:00 AM 6.61 43.898 0.283 7.98 -3.56 12.14
4/3/2021 8:45:00 AM 6.59 43.862 0.37 7.99 -3.41 12.16
4/3/2021 9:00:00 AM 6.58 43.844 0.275 7.99 -3.46 12.21
4/3/2021 9:15:00 AM 6.58 43.844 0.258 8 -3.28 12.23
4/3/2021 9:30:00 AM 6.59 43.862 0.258 8 -3.43 12.26
4/3/2021 9:45:00 AM 6.59 43.862 0.294 8 -3.51 12.28
4/3/2021 10:00:00 AM 6.61 43.898 0.269 8 -3.68 12.31
4/3/2021 10:15:00 AM 6.64 43.952 0.306 8.01 -3.7 12.33
4/3/2021 10:30:00 AM 6.67 44.006 0.246 8.01 -3.77 12.36
4/3/2021 10:45:00 AM 6.71 44.078 0.301 8.02 -3.88 12.38
4/3/2021 11:00:00 AM 6.76 44.168 0.271 8.02 -3.84 12.41
4/3/2021 11:15:00 AM 6.83 44.294 0.267 8.03 -3.78 12.43
4/3/2021 11:30:00 AM 6.89 44.402 0.237 8.03 -3.94 12.46
4/3/2021 11:45:00 AM 6.97 44.546 0.3 8.05 -3.89 12.49
4/3/2021 12:00:00 PM 7.06 44.708 0.369 8.06 -3.89 12.53
4/3/2021 12:15:00 PM 7.13 44.834 0.245 8.07 -3.92 12.57
4/3/2021 12:30:00 PM 7.23 45.014 0.274 8.08 -3.89 12.61
4/3/2021 12:45:00 PM 7.34 45.212 0.29 8.1 -3.65 12.65
4/3/2021 1:00:00 PM 7.46 45.428 0.28 8.11 -3.6 12.68
4/3/2021 1:15:00 PM 7.6 45.68 0.298 8.13 -3.56 12.72
4/3/2021 1:30:00 PM 7.75 45.95 0.297 8.15 -3.76 12.75
4/3/2021 1:45:00 PM 7.89 46.202 0.294 8.17 -3.97 12.77
4/3/2021 2:00:00 PM 8.02 46.436 0.292 8.18 -3.77 12.78
4/3/2021 2:15:00 PM 8.16 46.688 0.278 8.2 -3.76 12.82
4/3/2021 2:30:00 PM 8.34 47.012 0.281 8.23 -3.9 12.85
4/3/2021 2:45:00 PM 8.48 47.264 0.261 8.24 -3.56 12.85
4/3/2021 3:00:00 PM 8.63 47.534 0.299 8.27 -3.56 12.87
4/3/2021 3:15:00 PM 8.78 47.804 0.301 8.29 -3.75 12.89
4/3/2021 3:30:00 PM 8.94 48.092 0.304 8.31 -3.68 12.89
4/3/2021 3:45:00 PM 9.04 48.272 0.367 8.33 -3.87 12.85
4/3/2021 4:00:00 PM 9.17 48.506 0.295 8.35 -3.77 12.9
4/3/2021 4:15:00 PM 9.26 48.668 0.247 8.36 -3.77 12.88
4/3/2021 4:30:00 PM 9.39 48.902 0.297 8.39 -3.76 12.92
4/3/2021 4:45:00 PM 9.47 49.046 0.365 8.41 -3.85 12.89
4/3/2021 5:00:00 PM 9.58 49.244 0.291 8.43 -3.79 12.91
4/3/2021 5:15:00 PM 9.65 49.37 0.247 8.45 -3.79 12.88
4/3/2021 5:30:00 PM 9.71 49.478 0.362 8.47 -3.92 12.88
4/3/2021 5:45:00 PM 9.76 49.568 0.242 8.48 -3.9 12.85
4/3/2021 6:00:00 PM 9.8 49.64 0.272 8.49 -3.71 12.81
4/3/2021 6:15:00 PM 9.84 49.712 0.272 8.5 -3.48 12.8
4/3/2021 6:30:00 PM 9.87 49.766 0.274 8.51 -3.84 12.78
4/3/2021 6:45:00 PM 9.88 49.784 0.283 8.52 -3.8 12.74
4/3/2021 7:00:00 PM 9.88 49.784 0.273 8.52 -4 12.71
4/3/2021 7:15:00 PM 9.88 49.784 0.258 8.53 -4.06 12.68
4/3/2021 7:30:00 PM 9.88 49.784 0.279 8.54 -4.03 12.65
4/3/2021 7:45:00 PM 9.88 49.784 0.287 8.54 -3.94 12.63
4/3/2021 8:00:00 PM 9.87 49.766 0.236 8.54 -4 12.61
4/3/2021 8:15:00 PM 9.87 49.766 0.29 8.55 -4.06 12.58
4/3/2021 8:30:00 PM 9.86 49.748 0.217 8.55 -4.13 12.56
4/3/2021 8:45:00 PM 9.85 49.73 0.269 8.56 -4.08 12.53
4/3/2021 9:00:00 PM 9.84 49.712 0.273 8.56 -3.93 12.5
4/3/2021 9:15:00 PM 9.83 49.694 0.258 8.56 -3.86 12.46
4/3/2021 9:30:00 PM 9.82 49.676 0.217 8.55 -3.78 12.43
4/3/2021 9:45:00 PM 9.79 49.622 0.253 8.55 -3.75 12.4
4/3/2021 10:00:00 PM 9.77 49.586 0.245 8.54 -3.73 12.36
4/3/2021 10:15:00 PM 9.74 49.532 0.271 8.52 -3.54 12.32
4/3/2021 10:30:00 PM 9.71 49.478 0.222 8.51 -3.55 12.27
4/3/2021 10:45:00 PM 9.69 49.442 0.215 8.48 -3.61 12.21
4/3/2021 11:00:00 PM 9.65 49.37 0.206 8.47 -3.49 12.17
4/3/2021 11:15:00 PM 9.61 49.298 0.289 8.45 -3.68 12.12
4/3/2021 11:30:00 PM 9.57 49.226 0.221 8.42 -3.54 12.07
4/3/2021 11:45:00 PM 9.52 49.136 0.29 8.4 -3.43 12.02
4/4/2021 12:00:00 AM 9.48 49.064 0.229 8.37 -3.31 11.97
4/4/2021 12:15:00 AM 9.44 48.992 0.263 8.35 -3.63 11.93
4/4/2021 12:30:00 AM 9.39 48.902 0.267 8.33 -3.55 11.88
4/4/2021 12:45:00 AM 9.35 48.83 0.272 8.3 -3.57 11.84
4/4/2021 1:00:00 AM 9.31 48.758 0.278 8.28 -3.6 11.8
4/4/2021 1:15:00 AM 9.28 48.704 0.255 8.25 -3.66 11.77
4/4/2021 1:30:00 AM 9.24 48.632 0.297 8.23 -3.71 11.73
4/4/2021 1:45:00 AM 9.21 48.578 0.357 8.21 -3.66 11.69
4/4/2021 2:00:00 AM 9.18 48.524 0.296 8.19 -3.46 11.65
4/4/2021 2:15:00 AM 9.16 48.488 0.262 8.18 -3.49 11.62
4/4/2021 2:30:00 AM 9.13 48.434 0.29 8.15 -3.52 11.59
4/4/2021 2:45:00 AM 9.1 48.38 0.3 8.14 -3.61 11.56
4/4/2021 3:00:00 AM 9.07 48.326 0.288 8.12 -3.63 11.53
4/4/2021 3:15:00 AM 9.05 48.29 0.365 8.1 -3.58 11.5
4/4/2021 3:30:00 AM 9.03 48.254 0.272 8.09 -3.56 11.47
4/4/2021 3:45:00 AM 9 48.2 0.306 8.07 -3.6 11.45
4/4/2021 4:00:00 AM 8.98 48.164 0.301 8.06 -3.59 11.43
4/4/2021 4:15:00 AM 8.96 48.128 0.28 8.05 -3.51 11.4
4/4/2021 4:30:00 AM 8.95 48.11 0.261 8.03 -3.56 11.39
4/4/2021 4:45:00 AM 8.94 48.092 0.247 8.02 -3.52 11.37
4/4/2021 5:00:00 AM 8.92 48.056 0.25 8.01 -3.56 11.35
4/4/2021 5:15:00 AM 8.91 48.038 0.216 8 -3.55 11.33
4/4/2021 5:30:00 AM 8.9 48.02 0.282 7.99 -3.61 11.31
4/4/2021 5:45:00 AM 8.9 48.02 0.369 7.98 -3.51 11.29
4/4/2021 6:00:00 AM 8.89 48.002 0.298 7.97 -3.64 11.28
4/4/2021 6:15:00 AM 8.88 47.984 0.251 7.96 -3.38 11.27
4/4/2021 6:30:00 AM 8.87 47.966 0.278 7.96 -3.54 11.26
4/4/2021 6:45:00 AM 8.87 47.966 0.307 7.95 -3.48 11.24
4/4/2021 7:00:00 AM 8.86 47.948 0.298 7.95 -3.57 11.24
4/4/2021 7:15:00 AM 8.85 47.93 0.374 7.94 -3.7 11.24
4/4/2021 7:30:00 AM 8.85 47.93 0.284 7.94 -3.46 11.25
4/4/2021 7:45:00 AM 8.84 47.912 0.298 7.94 -3.74 11.27
4/4/2021 8:00:00 AM 8.85 47.93 0.301 7.93 -3.73 11.26
4/4/2021 8:15:00 AM 8.84 47.912 0.272 7.93 -3.61 11.26
4/4/2021 8:30:00 AM 8.85 47.93 0.275 7.94 -3.64 11.29
4/4/2021 8:45:00 AM 8.85 47.93 0.26 7.93 -3.65 11.32
4/4/2021 9:00:00 AM 8.85 47.93 0.283 7.94 -3.85 11.34
4/4/2021 9:15:00 AM 8.88 47.984 0.301 7.94 -3.65 11.4
4/4/2021 9:30:00 AM 8.91 48.038 0.291 7.94 -3.65 11.42
4/4/2021 9:45:00 AM 8.94 48.092 0.221 7.95 -3.85 11.43
4/4/2021 10:00:00 AM 8.98 48.164 0.307 7.95 -3.68 11.46
4/4/2021 10:15:00 AM 9.03 48.254 0.235 7.95 -3.67 11.49
4/4/2021 10:30:00 AM 9.07 48.326 0.264 7.96 -3.79 11.51
4/4/2021 10:45:00 AM 9.13 48.434 0.251 7.96 -3.72 11.53
4/4/2021 11:00:00 AM 9.19 48.542 0.287 7.97 -3.53 11.56
4/4/2021 11:15:00 AM 9.25 48.65 0.274 7.97 -3.64 11.56
4/4/2021 11:30:00 AM 9.32 48.776 0.312 7.98 -3.73 11.59
4/4/2021 11:45:00 AM 9.4 48.92 0.293 7.99 -3.78 11.61
4/4/2021 12:00:00 PM 9.48 49.064 0.313 8 -3.76 11.65
4/4/2021 12:15:00 PM 9.57 49.226 0.294 8.01 -3.77 11.68
4/4/2021 12:30:00 PM 9.67 49.406 0.212 8.02 -3.79 11.72
4/4/2021 12:45:00 PM 9.77 49.586 0.373 8.04 -3.94 11.76
4/4/2021 1:00:00 PM 9.9 49.82 0.367 8.05 -3.95 11.8
4/4/2021 1:15:00 PM 10.03 50.054 0.274 8.07 -3.78 11.86
4/4/2021 1:30:00 PM 10.17 50.306 0.233 8.1 -3.84 11.91
4/4/2021 1:45:00 PM 10.31 50.558 0.202 8.12 -4.09 11.96
4/4/2021 2:00:00 PM 10.46 50.828 0.219 8.15 -4.07 12.01
4/4/2021 2:15:00 PM 10.63 51.134 0.206 8.17 -4.03 12.04
4/4/2021 2:30:00 PM 10.8 51.44 0.23 8.21 -4.04 12.11
4/4/2021 2:45:00 PM 10.97 51.746 0.364 8.23 -4.06 12.12
4/4/2021 3:00:00 PM 11.12 52.016 0.218 8.25 -4.09 12.16
4/4/2021 3:15:00 PM 11.27 52.286 0.36 8.28 -4.1 12.19
4/4/2021 3:30:00 PM 11.41 52.538 0.174 8.31 -4 12.2
4/4/2021 3:45:00 PM 11.57 52.826 0.215 8.33 -3.71 12.24
4/4/2021 4:00:00 PM 11.68 53.024 0.36 8.35 -3.94 12.19
4/4/2021 4:15:00 PM 11.84 53.312 0.358 8.38 -3.99 12.25
4/4/2021 4:30:00 PM 11.98 53.564 0.154 8.41 -4.05 12.26
4/4/2021 4:45:00 PM 12.09 53.762 0.128 8.44 -4.51 12.25
4/4/2021 5:00:00 PM 12.18 53.924 0.212 8.45 -4.63 12.21
4/4/2021 5:15:00 PM 12.28 54.104 0.221 8.48 -4.59 12.24
4/4/2021 5:30:00 PM 12.35 54.23 0.227 8.5 -4.53 12.22
4/4/2021 5:45:00 PM 12.42 54.356 0.178 8.52 -4.63 12.19
4/4/2021 6:00:00 PM 12.47 54.446 0.225 8.54 -4.57 12.16
4/4/2021 6:15:00 PM 12.5 54.5 0.216 8.55 -4.72 12.14
4/4/2021 6:30:00 PM 12.54 54.572 0.124 8.56 -4.71 12.1
4/4/2021 6:45:00 PM 12.56 54.608 0.167 8.58 -4.62 12.07
4/4/2021 7:00:00 PM 12.58 54.644 0.216 8.59 -4.77 12.04
4/4/2021 7:15:00 PM 12.59 54.662 0.185 8.6 -4.61 12.01
4/4/2021 7:30:00 PM 12.61 54.698 0.159 8.61 -4.48 11.97
4/4/2021 7:45:00 PM 12.62 54.716 0.118 8.61 -4.46 11.93
4/4/2021 8:00:00 PM 12.63 54.734 0.165 8.62 -4.31 11.91
4/4/2021 8:15:00 PM 12.64 54.752 0.188 8.62 -4.15 11.88
4/4/2021 8:30:00 PM 12.64 54.752 0.35 8.63 -4.1 11.84
4/4/2021 8:45:00 PM 12.64 54.752 0.157 8.63 -4.05 11.81
4/4/2021 9:00:00 PM 12.63 54.734 0.118 8.63 -3.82 11.77
4/4/2021 9:15:00 PM 12.61 54.698 0.35 8.63 -3.92 11.73
4/4/2021 9:30:00 PM 12.58 54.644 0.109 8.62 -3.62 11.68
4/4/2021 9:45:00 PM 12.55 54.59 0.186 8.62 -3.71 11.64
4/4/2021 10:00:00 PM 12.51 54.518 0.152 8.61 -3.59 11.59
4/4/2021 10:15:00 PM 12.47 54.446 0.117 8.6 -3.67 11.55
4/4/2021 10:30:00 PM 12.43 54.374 0.355 8.6 -3.62 11.5
4/4/2021 10:45:00 PM 12.38 54.284 0.172 8.58 -3.21 11.45
4/4/2021 11:00:00 PM 12.33 54.194 0.222 8.57 -3.42 11.39
4/4/2021 11:15:00 PM 12.27 54.086 0.167 8.54 -3.46 11.35
4/4/2021 11:30:00 PM 12.21 53.978 0.356 8.52 -3.44 11.28
4/4/2021 11:45:00 PM 12.15 53.87 0.16 8.5 -3.59 11.23
4/5/2021 12:00:00 AM 12.08 53.744 0.209 8.47 -3.47 11.17
4/5/2021 12:15:00 AM 12.02 53.636 0.169 8.44 -3.62 11.13
4/5/2021 12:30:00 AM 11.95 53.51 0.212 8.41 -3.42 11.08
4/5/2021 12:45:00 AM 11.88 53.384 0.355 8.38 -3.67 11.03
4/5/2021 1:00:00 AM 11.82 53.276 0.21 8.36 -3.67 11
4/5/2021 1:15:00 AM 11.75 53.15 0.159 8.33 -3.63 10.96
4/5/2021 1:30:00 AM 11.67 53.006 0.202 8.3 -3.45 10.92
4/5/2021 1:45:00 AM 11.59 52.862 0.167 8.27 -3.66 10.89
4/5/2021 2:00:00 AM 11.52 52.736 0.159 8.24 -3.73 10.87
4/5/2021 2:15:00 AM 11.46 52.628 0.147 8.23 -3.5 10.85
4/5/2021 2:30:00 AM 11.39 52.502 0.192 8.21 -3.53 10.83
4/5/2021 2:45:00 AM 11.32 52.376 0.148 8.19 -3.56 10.8
4/5/2021 3:00:00 AM 11.26 52.268 0.133 8.16 -3.7 10.78
4/5/2021 3:15:00 AM 11.2 52.16 0.114 8.14 -3.65 10.76
4/5/2021 3:30:00 AM 11.15 52.07 0.204 8.12 -3.72 10.73
4/5/2021 3:45:00 AM 11.08 51.944 0.172 8.1 -3.51 10.72
4/5/2021 4:00:00 AM 11.03 51.854 0.176 8.09 -3.31 10.71
4/5/2021 4:15:00 AM 10.97 51.746 0.174 8.07 -3.4 10.69
4/5/2021 4:30:00 AM 10.91 51.638 0.181 8.05 -3.55 10.67
4/5/2021 4:45:00 AM 10.86 51.548 0.169 8.03 -3.47 10.66
4/5/2021 5:00:00 AM 10.8 51.44 0.161 8.03 -3.56 10.65
4/5/2021 5:15:00 AM 10.75 51.35 0.177 8.01 -3.58 10.65
4/5/2021 5:30:00 AM 10.7 51.26 0.167 8.01 -3.53 10.65
4/5/2021 5:45:00 AM 10.64 51.152 0.175 7.99 -3.69 10.64
4/5/2021 6:00:00 AM 10.59 51.062 0.172 7.98 -3.47 10.64
4/5/2021 6:15:00 AM 10.54 50.972 0.178 7.96 -3.54 10.64
4/5/2021 6:30:00 AM 10.49 50.882 0.163 7.96 -3.39 10.63
4/5/2021 6:45:00 AM 10.44 50.792 0.116 7.95 -3.66 10.64
4/5/2021 7:00:00 AM 10.4 50.72 0.367 7.94 -3.8 10.66
4/5/2021 7:15:00 AM 10.36 50.648 0.114 7.94 -3.57 10.67
4/5/2021 7:30:00 AM 10.32 50.576 0.116 7.94 -3.74 10.69
4/5/2021 7:45:00 AM 10.29 50.522 0.17 7.93 -3.8 10.71
4/5/2021 8:00:00 AM 10.26 50.468 0.166 7.93 -3.59 10.73
4/5/2021 8:15:00 AM 10.24 50.432 0.159 7.93 -3.65 10.76
4/5/2021 8:30:00 AM 10.22 50.396 0.116 7.94 -3.67 10.81
4/5/2021 8:45:00 AM 10.21 50.378 0.171 7.93 -3.37 10.84
4/5/2021 9:00:00 AM 10.21 50.378 0.167 7.94 -3.62 10.88
4/5/2021 9:15:00 AM 10.21 50.378 0.138 7.94 -3.36 10.91
4/5/2021 9:30:00 AM 10.23 50.414 0.15 7.95 -3.53 10.96
4/5/2021 9:45:00 AM 10.25 50.45 0.108 7.95 -4.13 10.99
4/5/2021 10:00:00 AM 10.27 50.486 0.175 7.94 -4.16 11.02
4/5/2021 10:15:00 AM 10.3 50.54 0.18 7.96 -4.13 11.06
4/5/2021 10:30:00 AM 10.32 50.576 0.394 7.96 -4.08 11.08
4/5/2021 10:45:00 AM 10.37 50.666 0.137 7.97 -3.93 11.14
4/5/2021 11:00:00 AM 10.41 50.738 0.394 7.97 -4.09 11.16
4/5/2021 11:15:00 AM 10.46 50.828 0.393 7.97 -3.93 11.18
4/5/2021 11:30:00 AM 10.51 50.918 0.165 7.98 -3.93 11.22
4/5/2021 11:45:00 AM 10.58 51.044 0.166 7.99 -4.19 11.27
4/5/2021 12:00:00 PM 10.66 51.188 0.118 8 -3.95 11.31
4/5/2021 12:15:00 PM 10.74 51.332 0.18 8 -3.83 11.36
4/5/2021 12:30:00 PM 10.81 51.458 0.16 8.03 -3.47 11.41
4/5/2021 12:45:00 PM 10.91 51.638 0.217 8.05 -3.55 11.46
4/5/2021 1:00:00 PM 11.02 51.836 0.135 8.07 -3.66 11.52
4/5/2021 1:15:00 PM 11.13 52.034 0.197 8.09 -3.64 11.59
4/5/2021 1:30:00 PM 11.27 52.286 0.169 8.11 -3.74 11.65
4/5/2021 1:45:00 PM 11.41 52.538 0.202 8.14 -3.87 11.69
4/5/2021 2:00:00 PM 11.56 52.808 0.19 8.16 -3.87 11.74
4/5/2021 2:15:00 PM 11.71 53.078 0.181 8.18 -3.82 11.8
4/5/2021 2:30:00 PM 11.87 53.366 0.283 8.22 -3.76 11.84
4/5/2021 2:45:00 PM 12.02 53.636 0.388 8.24 -3.74 11.88
4/5/2021 3:00:00 PM 12.15 53.87 0.166 8.27 -3.71 11.92
4/5/2021 3:15:00 PM 12.3 54.14 0.173 8.29 -3.81 11.97
4/5/2021 3:30:00 PM 12.41 54.338 0.233 8.33 -3.76 11.97
4/5/2021 3:45:00 PM 12.53 54.554 0.176 8.35 -3.55 12.01
4/5/2021 4:00:00 PM 12.65 54.77 0.165 8.39 -3.47 12.05
4/5/2021 4:15:00 PM 12.77 54.986 0.209 8.43 -3.53 12.1
4/5/2021 4:30:00 PM 12.89 55.202 0.206 8.46 -3.57 12.11
4/5/2021 4:45:00 PM 13 55.4 0.163 8.49 -3.49 12.12
4/5/2021 5:00:00 PM 13.09 55.562 0.2 8.52 -3.44 12.11
4/5/2021 5:15:00 PM 13.17 55.706 0.348 8.54 -3.54 12.11
4/5/2021 5:30:00 PM 13.22 55.796 0.112 8.57 -3.36 12.09
4/5/2021 5:45:00 PM 13.31 55.958 0.167 8.59 -3.41 12.12
4/5/2021 6:00:00 PM 13.37 56.066 0.165 8.61 -3.5 12.08
4/5/2021 6:15:00 PM 13.42 56.156 0.227 8.63 -3.11 12.04
4/5/2021 6:30:00 PM 13.45 56.21 0.117 8.65 -3.19 12.03
4/5/2021 6:45:00 PM 13.48 56.264 0.225 8.67 -3.27 12.01
4/5/2021 7:00:00 PM 13.51 56.318 0.341 8.68 -2.95 11.97
4/5/2021 7:15:00 PM 13.53 56.354 0.118 8.7 -2.78 11.93
4/5/2021 7:30:00 PM 13.54 56.372 0.173 8.71 -2.99 11.88
4/5/2021 7:45:00 PM 13.56 56.408 0.342 8.72 -2.82 11.86
4/5/2021 8:00:00 PM 13.57 56.426 0.223 8.72 -2.5 11.83
4/5/2021 8:15:00 PM 13.58 56.444 0.205 8.73 -2.22 11.81
4/5/2021 8:30:00 PM 13.58 56.444 0.345 8.74 -1.92 11.78
4/5/2021 8:45:00 PM 13.58 56.444 0.123 8.75 -2.09 11.74
4/5/2021 9:00:00 PM 13.58 56.444 0.135 8.75 -2.23 11.71
4/5/2021 9:15:00 PM 13.58 56.444 0.199 8.75 -2.53 11.68
4/5/2021 9:30:00 PM 13.57 56.426 0.13 8.75 -2.07 11.63
4/5/2021 9:45:00 PM 13.56 56.408 0.338 8.75 -2.49 11.59
4/5/2021 10:00:00 PM 13.54 56.372 0.142 8.75 -2.21 11.54
4/5/2021 10:15:00 PM 13.51 56.318 0.219 8.76 -2.38 11.49
4/5/2021 10:30:00 PM 13.49 56.282 0.166 8.73 -2.66 11.42
4/5/2021 10:45:00 PM 13.45 56.21 0.221 8.73 -2.62 11.36
4/5/2021 11:00:00 PM 13.41 56.138 0.125 8.72 -2.72 11.3
4/5/2021 11:15:00 PM 13.37 56.066 0.216 8.7 -2.63 11.25
4/5/2021 11:30:00 PM 13.32 55.976 0.123 8.69 -2.56 11.18
4/5/2021 11:45:00 PM 13.27 55.886 0.214 8.66 -2.63 11.11
4/6/2021 12:00:00 AM 13.23 55.814 0.203 8.64 -2.93 11.05
4/6/2021 12:15:00 AM 13.18 55.724 0.132 8.6 -2.97 10.98
4/6/2021 12:30:00 AM 13.14 55.652 0.16 8.57 -3.07 10.91
4/6/2021 12:45:00 AM 13.08 55.544 0.184 8.53 -3.2 10.85
4/6/2021 1:00:00 AM 13.04 55.472 0.184 8.5 -2.8 10.8
4/6/2021 1:15:00 AM 12.99 55.382 0.175 8.47 -3.27 10.74
4/6/2021 1:30:00 AM 12.94 55.292 0.162 8.44 -3.22 10.69
4/6/2021 1:45:00 AM 12.9 55.22 0.162 8.41 -3.02 10.65
4/6/2021 2:00:00 AM 12.85 55.13 0.345 8.38 -3.23 10.61
4/6/2021 2:15:00 AM 12.81 55.058 0.118 8.34 -2.95 10.56
4/6/2021 2:30:00 AM 12.76 54.968 0.217 8.31 -2.84 10.52
4/6/2021 2:45:00 AM 12.72 54.896 0.171 8.27 -3.19 10.49
4/6/2021 3:00:00 AM 12.68 54.824 0.194 8.25 -3.24 10.45
4/6/2021 3:15:00 AM 12.63 54.734 0.131 8.22 -3.32 10.42
4/6/2021 3:30:00 AM 12.59 54.662 0.112 8.19 -3.1 10.39
4/6/2021 3:45:00 AM 12.55 54.59 0.125 8.16 -3.28 10.36
4/6/2021 4:00:00 AM 12.5 54.5 0.11 8.14 -3.36 10.33
4/6/2021 4:15:00 AM 12.46 54.428 0.176 8.12 -3.43 10.3
4/6/2021 4:30:00 AM 12.41 54.338 0.125 8.09 -3.3 10.29
4/6/2021 4:45:00 AM 12.37 54.266 0.198 8.07 -3.52 10.27
4/6/2021 5:00:00 AM 12.33 54.194 0.19 8.06 -3.1 10.25
4/6/2021 5:15:00 AM 12.28 54.104 0.178 8.03 -3.16 10.23
4/6/2021 5:30:00 AM 12.24 54.032 0.188 8.01 -3.3 10.22
4/6/2021 5:45:00 AM 12.2 53.96 0.193 8 -3.23 10.21
4/6/2021 6:00:00 AM 12.16 53.888 0.188 7.99 -3.07 10.19
4/6/2021 6:15:00 AM 12.13 53.834 0.182 7.97 -3.03 10.18
4/6/2021 6:30:00 AM 12.09 53.762 0.168 7.96 -2.95 10.17
4/6/2021 6:45:00 AM 12.06 53.708 0.179 7.95 -2.89 10.17
4/6/2021 7:00:00 AM 12.02 53.636 0.151 7.95 -2.73 10.18
4/6/2021 7:15:00 AM 11.99 53.582 0.357 7.93 -1.96 10.18
4/6/2021 7:30:00 AM 11.96 53.528 0.125 7.92 -1.81 10.19
4/6/2021 7:45:00 AM 11.93 53.474 0.175 7.92 -2.09 10.22
4/6/2021 8:00:00 AM 11.9 53.42 0.123 7.92 -2.06 10.24
4/6/2021 8:15:00 AM 11.88 53.384 0.2 7.92 -2.14 10.27
4/6/2021 8:30:00 AM 11.87 53.366 0.171 7.92 -2.29 10.32
4/6/2021 8:45:00 AM 11.86 53.348 0.17 7.92 -2.57 10.36
4/6/2021 9:00:00 AM 11.86 53.348 0.111 7.93 -2.73 10.41
4/6/2021 9:15:00 AM 11.88 53.384 0.118 7.93 -2.78 10.47
4/6/2021 9:30:00 AM 11.88 53.384 0.353 7.94 -2.83 10.48
4/6/2021 9:45:00 AM 11.86 53.348 0.189 7.93 -2.59 10.47
4/6/2021 10:00:00 AM 11.86 53.348 0.206 7.93 -2.9 10.51
4/6/2021 10:15:00 AM 11.89 53.402 0.198 7.94 -2.84 10.59
4/6/2021 10:30:00 AM 11.92 53.456 0.126 7.95 -2.55 10.63
4/6/2021 10:45:00 AM 11.96 53.528 0.184 7.94 -2.77 10.68
4/6/2021 11:00:00 AM 12.02 53.636 0.114 7.95 -2.36 10.72
4/6/2021 11:15:00 AM 12.08 53.744 0.151 7.96 -2.77 10.77
4/6/2021 11:30:00 AM 12.14 53.852 0.176 7.96 -2.85 10.79
4/6/2021 11:45:00 AM 12.19 53.942 0.177 7.97 -2.66 10.8
4/6/2021 12:00:00 PM 12.24 54.032 0.116 7.98 -2.77 10.85
4/6/2021 12:15:00 PM 12.31 54.158 0.149 8 -2.9 10.9
4/6/2021 12:30:00 PM 12.38 54.284 0.201 8 -2.85 10.96
4/6/2021 12:45:00 PM 12.48 54.464 0.202 8.03 -2.97 11.03
4/6/2021 1:00:00 PM 12.56 54.608 0.195 8.03 -2.9 11.07
4/6/2021 1:15:00 PM 12.65 54.77 0.148 8.06 -2.73 11.16
4/6/2021 1:30:00 PM 12.75 54.95 0.174 8.09 -2.75 11.21
4/6/2021 1:45:00 PM 12.87 55.166 0.194 8.11 -3.03 11.27
4/6/2021 2:00:00 PM 13.01 55.418 0.19 8.13 -3.17 11.35
4/6/2021 2:15:00 PM 13.14 55.652 0.121 8.16 -3.2 11.41
4/6/2021 2:30:00 PM 13.29 55.922 0.272 8.2 -3.12 11.49
4/6/2021 2:45:00 PM 13.43 56.174 0.34 8.23 -3.36 11.53
4/6/2021 3:00:00 PM 13.57 56.426 0.191 8.25 -3.19 11.58
4/6/2021 3:15:00 PM 13.72 56.696 0.333 8.29 -3.15 11.65
4/6/2021 3:30:00 PM 13.87 56.966 0.192 8.33 -3.21 11.7
4/6/2021 3:45:00 PM 14 57.2 0.194 8.36 -3.27 11.74
4/6/2021 4:00:00 PM 14.12 57.416 0.192 8.4 -3.4 11.77
4/6/2021 4:15:00 PM 14.24 57.632 0.188 8.44 -3.44 11.82
4/6/2021 4:30:00 PM 14.37 57.866 0.147 8.47 -3.64 11.83
4/6/2021 4:45:00 PM 14.48 58.064 0.207 8.51 -3.67 11.86
4/6/2021 5:00:00 PM 14.57 58.226 0.193 8.54 -3.69 11.87
4/6/2021 5:15:00 PM 14.67 58.406 0.143 8.58 -3.41 11.88
4/6/2021 5:30:00 PM 14.74 58.532 0.23 8.6 -3.51 11.87
4/6/2021 5:45:00 PM 14.81 58.658 0.184 8.62 -3.44 11.85
4/6/2021 6:00:00 PM 14.86 58.748 0.238 8.65 -3.12 11.83
4/6/2021 6:15:00 PM 14.9 58.82 0.207 8.68 -2.92 11.82
4/6/2021 6:30:00 PM 14.93 58.874 0.239 8.7 -2.71 11.8
4/6/2021 6:45:00 PM 14.95 58.91 0.203 8.72 -2.9 11.77
4/6/2021 7:00:00 PM 14.97 58.946 0.188 8.74 -2.97 11.75
4/6/2021 7:15:00 PM 14.99 58.982 0.211 8.75 -2.86 11.71
4/6/2021 7:30:00 PM 15 59 0.334 8.75 -2.48 11.67
4/6/2021 7:45:00 PM 15.01 59.018 0.126 8.76 -2.4 11.64
4/6/2021 8:00:00 PM 15.01 59.018 0.233 8.77 -2.43 11.61
4/6/2021 8:15:00 PM 15.01 59.018 0.227 8.78 -2.03 11.57
4/6/2021 8:30:00 PM 15.01 59.018 0.173 8.79 -2.28 11.54
4/6/2021 8:45:00 PM 15.01 59.018 0.246 8.79 -2.05 11.5
4/6/2021 9:00:00 PM 14.99 58.982 0.202 8.79 -2.02 11.46
4/6/2021 9:15:00 PM 14.98 58.964 0.23 8.8 -1.94 11.41
4/6/2021 9:30:00 PM 14.96 58.928 0.199 8.8 -2.13 11.37
4/6/2021 9:45:00 PM 14.94 58.892 0.143 8.8 -1.92 11.32
4/6/2021 10:00:00 PM 14.92 58.856 0.236 8.8 -1.8 11.26
4/6/2021 10:15:00 PM 14.9 58.82 0.185 8.79 -2.09 11.21
4/6/2021 10:30:00 PM 14.87 58.766 0.228 8.79 -2.15 11.16
4/6/2021 10:45:00 PM 14.83 58.694 0.226 8.77 -1.82 11.08
4/6/2021 11:00:00 PM 14.79 58.622 0.145 8.76 -1.62 11.03
4/6/2021 11:15:00 PM 14.73 58.514 0.182 8.74 -1.08 10.94
4/6/2021 11:30:00 PM 14.68 58.424 0.334 8.72 -1.61 10.88
4/6/2021 11:45:00 PM 14.62 58.316 0.324 8.69 -2.13 10.81
4/7/2021 12:00:00 AM 14.56 58.208 0.192 8.67 -2.31 10.74
4/7/2021 12:15:00 AM 14.5 58.1 0.12 8.63 -2.22 10.68
4/7/2021 12:30:00 AM 14.43 57.974 0.203 8.61 -2.13 10.61
4/7/2021 12:45:00 AM 14.36 57.848 0.145 8.57 -1.89 10.55
4/7/2021 1:00:00 AM 14.29 57.722 0.171 8.53 -2.29 10.49
4/7/2021 1:15:00 AM 14.22 57.596 0.195 8.5 -2.18 10.44
4/7/2021 1:30:00 AM 14.15 57.47 0.171 8.47 -2.42 10.39
4/7/2021 1:45:00 AM 14.08 57.344 0.16 8.44 -2.21 10.34
4/7/2021 2:00:00 AM 14.02 57.236 0.219 8.4 -2.45 10.29
4/7/2021 2:15:00 AM 13.95 57.11 0.162 8.36 -2.46 10.25
4/7/2021 2:30:00 AM 13.89 57.002 0.337 8.33 -2.68 10.22
4/7/2021 2:45:00 AM 13.82 56.876 0.177 8.29 -2.41 10.18
4/7/2021 3:00:00 AM 13.75 56.75 0.228 8.27 -2.7 10.14
4/7/2021 3:15:00 AM 13.68 56.624 0.174 8.22 -2.59 10.11
4/7/2021 3:30:00 AM 13.62 56.516 0.224 8.21 -2.94 10.08
4/7/2021 3:45:00 AM 13.57 56.426 0.206 8.18 -2.82 10.05
4/7/2021 4:00:00 AM 13.51 56.318 0.131 8.16 -2.85 10.03
4/7/2021 4:15:00 AM 13.46 56.228 0.344 8.12 -2.99 10.01
4/7/2021 4:30:00 AM 13.41 56.138 0.209 8.1 -2.71 9.98
4/7/2021 4:45:00 AM 13.36 56.048 0.204 8.08 -2.83 9.96
4/7/2021 5:00:00 AM 13.31 55.958 0.177 8.06 -2.95 9.93
4/7/2021 5:15:00 AM 13.26 55.868 0.196 8.05 -2.73 9.92
4/7/2021 5:30:00 AM 13.21 55.778 0.182 8.02 -2.93 9.9
4/7/2021 5:45:00 AM 13.17 55.706 0.182 8.01 -2.57 9.9
4/7/2021 6:00:00 AM 13.12 55.616 0.173 8 -2.73 9.89
4/7/2021 6:15:00 AM 13.08 55.544 0.204 7.98 -2.7 9.87
4/7/2021 6:30:00 AM 13.03 55.454 0.202 7.96 -2.88 9.87
4/7/2021 6:45:00 AM 13 55.4 0.172 7.95 -2.7 9.86
4/7/2021 7:00:00 AM 12.97 55.346 0.189 7.93 -2.51 9.86
4/7/2021 7:15:00 AM 12.94 55.292 0.19 7.92 -2.01 9.89
4/7/2021 7:30:00 AM 12.91 55.238 0.136 7.94 -2.01 9.91
4/7/2021 7:45:00 AM 12.9 55.22 0.182 7.94 -2.14 9.96
4/7/2021 8:00:00 AM 12.89 55.202 0.166 7.93 -1.95 10
4/7/2021 8:15:00 AM 12.87 55.166 0.187 7.93 -2.48 10.02
4/7/2021 8:30:00 AM 12.85 55.13 0.189 7.93 -2.5 10.03
4/7/2021 8:45:00 AM 12.86 55.148 0.177 7.93 -2.4 10.1
4/7/2021 9:00:00 AM 12.86 55.148 0.194 7.93 -2.15 10.09
4/7/2021 9:15:00 AM 12.86 55.148 0.196 7.93 -2.63 10.09
4/7/2021 9:30:00 AM 12.85 55.13 0.132 7.92 -2.7 10.1
4/7/2021 9:45:00 AM 12.84 55.112 0.146 7.93 -2.69 10.14
4/7/2021 10:00:00 AM 12.83 55.094 0.274 7.93 -2.76 10.18
4/7/2021 10:15:00 AM 12.84 55.112 0.135 7.94 -2.61 10.24
4/7/2021 10:30:00 AM 12.87 55.166 0.206 7.94 -2.59 10.32
4/7/2021 10:45:00 AM 12.96 55.328 0.126 7.95 -2.69 10.42
4/7/2021 11:00:00 AM 12.92 55.256 0.222 7.94 -2.89 10.33
4/7/2021 11:15:00 AM 12.92 55.256 0.119 7.94 -2.84 10.32
4/7/2021 11:30:00 AM 12.93 55.274 0.164 7.94 -3.02 10.33
4/7/2021 11:45:00 AM 12.92 55.256 0.12 7.94 -2.97 10.31
4/7/2021 12:00:00 PM 12.92 55.256 0.218 7.94 -3.07 10.31
4/7/2021 12:15:00 PM 12.91 55.238 0.289 7.94 -3.07 10.27
4/7/2021 12:30:00 PM 12.94 55.292 0.35 7.97 -2.98 10.48
4/7/2021 12:45:00 PM 13.02 55.436 0.187 7.99 -3 10.68
4/7/2021 1:00:00 PM 13.06 55.508 0.203 8.01 -3.17 10.71
4/7/2021 1:15:00 PM 13.18 55.724 0.163 8.04 -3.1 10.91
4/7/2021 1:30:00 PM 13.28 55.904 0.208 8.08 -3.1 10.98
4/7/2021 1:45:00 PM 13.36 56.048 0.195 8.07 -2.67 11.02
4/7/2021 2:00:00 PM 13.44 56.192 0.286 8.11 -3.05 11.09
4/7/2021 2:15:00 PM 13.55 56.39 0.21 8.13 -2.96 11.14
4/7/2021 2:30:00 PM 13.66 56.588 0.154 8.16 -2.85 11.22
4/7/2021 2:45:00 PM 13.76 56.768 0.207 8.2 -3.27 11.29
4/7/2021 3:00:00 PM 13.86 56.948 0.137 8.22 -3.24 11.34
4/7/2021 3:15:00 PM 13.96 57.128 0.33 8.25 -3.27 11.41
4/7/2021 3:30:00 PM 14.06 57.308 0.187 8.28 -3.29 11.44
4/7/2021 3:45:00 PM 14.14 57.452 0.198 8.32 -3.38 11.49
4/7/2021 4:00:00 PM 14.21 57.578 0.206 8.34 -3.26 11.54
4/7/2021 4:15:00 PM 14.31 57.758 0.218 8.37 -3.32 11.56
4/7/2021 4:30:00 PM 14.38 57.884 0.221 8.39 -3.23 11.58
4/7/2021 4:45:00 PM 14.46 58.028 0.191 8.4 -3.22 11.59
4/7/2021 5:00:00 PM 14.51 58.118 0.186 8.44 -3.47 11.59
4/7/2021 5:15:00 PM 14.56 58.208 0.267 8.46 -3.48 11.6
4/7/2021 5:30:00 PM 14.6 58.28 0.166 8.48 -3.37 11.6
4/7/2021 5:45:00 PM 14.63 58.334 0.188 8.49 -3.45 11.59
4/7/2021 6:00:00 PM 14.67 58.406 0.218 8.53 -3.54 11.6
4/7/2021 6:15:00 PM 14.69 58.442 0.148 8.55 -3.5 11.6
4/7/2021 6:30:00 PM 14.72 58.496 0.164 8.58 -2.86 11.6
4/7/2021 6:45:00 PM 14.75 58.55 0.204 8.6 -2.84 11.62
4/7/2021 7:00:00 PM 14.78 58.604 0.219 8.62 -2.9 11.62
4/7/2021 7:15:00 PM 14.82 58.676 0.191 8.63 -2.75 11.62
4/7/2021 7:30:00 PM 14.85 58.73 0.144 8.67 -2.77 11.62
4/7/2021 7:45:00 PM 14.88 58.784 0.223 8.69 -2.61 11.62
4/7/2021 8:00:00 PM 14.9 58.82 0.186 8.68 -2.62 11.6
4/7/2021 8:15:00 PM 14.93 58.874 0.239 8.71 -1.39 11.59
4/7/2021 8:30:00 PM 14.95 58.91 0.217 8.72 -1.66 11.58
4/7/2021 8:45:00 PM 14.96 58.928 0.195 8.72 -1.71 11.55
4/7/2021 9:00:00 PM 14.96 58.928 0.121 8.73 -1.59 11.52
4/7/2021 9:15:00 PM 14.96 58.928 0.331 8.73 -1.38 11.48
4/7/2021 9:30:00 PM 14.97 58.946 0.327 8.73 -1.59 11.45
4/7/2021 9:45:00 PM 14.96 58.928 0.148 8.74 -1.45 11.4
4/7/2021 10:00:00 PM 14.95 58.91 0.159 8.73 -1.47 11.36
4/7/2021 10:15:00 PM 14.94 58.892 0.199 8.73 -1.52 11.31
4/7/2021 10:30:00 PM 14.92 58.856 0.191 8.71 -1.61 11.25
4/7/2021 10:45:00 PM 14.9 58.82 0.189 8.71 -1.55 11.2
4/7/2021 11:00:00 PM 14.87 58.766 0.203 8.7 -1.56 11.13
4/7/2021 11:15:00 PM 14.84 58.712 0.21 8.69 -1.3 11.07
4/7/2021 11:30:00 PM 14.81 58.658 0.196 8.67 -1.56 10.99
4/7/2021 11:45:00 PM 14.77 58.586 0.206 8.65 -1.75 10.91
4/8/2021 12:00:00 AM 14.74 58.532 0.191 8.62 -1.83 10.84
4/8/2021 12:15:00 AM 14.69 58.442 0.181 8.59 -1.67 10.76
4/8/2021 12:30:00 AM 14.64 58.352 0.148 8.57 -1.11 10.68
4/8/2021 12:45:00 AM 14.59 58.262 0.139 8.55 -1.44 10.61
4/8/2021 1:00:00 AM 14.54 58.172 0.119 8.51 -1.6 10.54
4/8/2021 1:15:00 AM 14.49 58.082 0.167 8.47 -1.88 10.46
4/8/2021 1:30:00 AM 14.43 57.974 0.122 8.42 -2.08 10.4
4/8/2021 1:45:00 AM 14.38 57.884 0.333 8.39 -2.04 10.34
4/8/2021 2:00:00 AM 14.32 57.776 0.178 8.36 -1.97 10.28
4/8/2021 2:15:00 AM 14.26 57.668 0.152 8.33 -1.71 10.23
4/8/2021 2:30:00 AM 14.2 57.56 0.202 8.3 -1.83 10.18
4/8/2021 2:45:00 AM 14.14 57.452 0.172 8.26 -1.75 10.15
4/8/2021 3:00:00 AM 14.07 57.326 0.141 8.24 -1.81 10.11
4/8/2021 3:15:00 AM 14.01 57.218 0.184 8.22 -2.32 10.07
4/8/2021 3:30:00 AM 13.94 57.092 0.133 8.19 -2.37 10.05
4/8/2021 3:45:00 AM 13.87 56.966 0.15 8.16 -2.48 10.02
4/8/2021 4:00:00 AM 13.81 56.858 0.212 8.14 -2.43 10
4/8/2021 4:15:00 AM 13.74 56.732 0.147 8.12 -2.4 9.97
4/8/2021 4:30:00 AM 13.67 56.606 0.214 8.09 -2.6 9.95
4/8/2021 4:45:00 AM 13.59 56.462 0.154 8.06 -2.72 9.93
4/8/2021 5:00:00 AM 13.53 56.354 0.235 8.05 -2.97 9.91
4/8/2021 5:15:00 AM 13.47 56.246 0.347 8.03 -3.01 9.9
4/8/2021 5:30:00 AM 13.4 56.12 0.199 8.03 -2.76 9.88
4/8/2021 5:45:00 AM 13.34 56.012 0.209 8.01 -2.7 9.88
4/8/2021 6:00:00 AM 13.28 55.904 0.123 7.98 -2.77 9.86
4/8/2021 6:15:00 AM 13.22 55.796 0.203 7.99 -2.65 9.87
4/8/2021 6:30:00 AM 13.15 55.67 0.146 7.97 -2.86 9.86
4/8/2021 6:45:00 AM 13.09 55.562 0.19 7.96 -2.69 9.87
4/8/2021 7:00:00 AM 13.04 55.472 0.147 7.97 -2.6 9.88
4/8/2021 7:15:00 AM 12.99 55.382 0.216 7.95 -2.52 9.91
4/8/2021 7:30:00 AM 12.94 55.292 0.182 7.94 -2.52 9.92
4/8/2021 7:45:00 AM 12.89 55.202 0.235 7.95 -2.58 9.93
4/8/2021 8:00:00 AM 12.85 55.13 0.276 7.95 -2.64 9.96
4/8/2021 8:15:00 AM 12.81 55.058 0.151 7.95 -2.98 10
4/8/2021 8:30:00 AM 12.79 55.022 0.286 7.95 -2.85 10.05
4/8/2021 8:45:00 AM 12.78 55.004 0.165 7.95 -3.07 10.09
4/8/2021 9:00:00 AM 12.78 55.004 0.336 7.95 -3.27 10.14
4/8/2021 9:15:00 AM 12.78 55.004 0.213 7.95 -3.24 10.19
4/8/2021 9:30:00 AM 12.79 55.022 0.13 7.95 -2.93 10.23
4/8/2021 9:45:00 AM 12.81 55.058 0.342 7.95 -3.35 10.27
4/8/2021 10:00:00 AM 12.83 55.094 0.165 7.96 -3.34 10.31
4/8/2021 10:15:00 AM 12.86 55.148 0.169 7.97 -3.33 10.36
4/8/2021 10:30:00 AM 12.89 55.202 0.134 7.96 -3.4 10.4
4/8/2021 10:45:00 AM 12.93 55.274 0.219 7.97 -3.2 10.44
4/8/2021 11:00:00 AM 12.98 55.364 0.19 7.97 -3.24 10.46
4/8/2021 11:15:00 AM 13.03 55.454 0.21 7.98 -3.4 10.51
4/8/2021 11:30:00 AM 13.08 55.544 0.228 7.99 -3.33 10.54
4/8/2021 11:45:00 AM 13.14 55.652 0.147 8 -3.11 10.57
4/8/2021 12:00:00 PM 13.22 55.796 0.122 8.01 -3.18 10.62
4/8/2021 12:15:00 PM 13.3 55.94 0.208 8.02 -3.37 10.66
4/8/2021 12:30:00 PM 13.37 56.066 0.215 8.03 -3.48 10.72
4/8/2021 12:45:00 PM 13.42 56.156 0.193 8.03 -3.22 10.75
4/8/2021 1:00:00 PM 13.51 56.318 0.223 8.05 -3.22 10.8
4/8/2021 1:15:00 PM 13.61 56.498 0.273 8.07 -3.22 10.86
4/8/2021 1:30:00 PM 13.7 56.66 0.231 8.09 -3.25 10.92
4/8/2021 1:45:00 PM 13.82 56.876 0.21 8.11 -3.28 10.97
4/8/2021 2:00:00 PM 13.96 57.128 0.16 8.14 -3.61 11.06
4/8/2021 2:15:00 PM 14.08 57.344 0.217 8.16 -3.65 11.11
4/8/2021 2:30:00 PM 14.22 57.596 0.27 8.19 -3.83 11.18
4/8/2021 2:45:00 PM 14.36 57.848 0.153 8.23 -3.81 11.25
4/8/2021 3:00:00 PM 14.51 58.118 0.271 8.25 -3.85 11.32
4/8/2021 3:15:00 PM 14.64 58.352 0.329 8.29 -4.18 11.36
4/8/2021 3:30:00 PM 14.79 58.622 0.201 8.32 -4.11 11.43
4/8/2021 3:45:00 PM 14.92 58.856 0.214 8.36 -3.81 11.49
4/8/2021 4:00:00 PM 15.06 59.108 0.203 8.4 -3.84 11.55
4/8/2021 4:15:00 PM 15.18 59.324 0.144 8.43 -4.07 11.58
4/8/2021 4:30:00 PM 15.28 59.504 0.133 8.46 -3.67 11.61
4/8/2021 4:45:00 PM 15.39 59.702 0.199 8.5 -3.73 11.65
4/8/2021 5:00:00 PM 15.49 59.882 0.194 8.52 -3.86 11.67
4/8/2021 5:15:00 PM 15.6 60.08 0.188 8.55 -4.09 11.69
4/8/2021 5:30:00 PM 15.68 60.224 0.267 8.6 -4.03 11.68
4/8/2021 5:45:00 PM 15.74 60.332 0.127 8.62 -3.96 11.68
4/8/2021 6:00:00 PM 15.81 60.458 0.226 8.65 -3.17 11.67
4/8/2021 6:15:00 PM 15.87 60.566 0.452 8.68 -3.92 11.66
4/8/2021 6:30:00 PM 15.91 60.638 0.222 8.7 -4 11.64
4/8/2021 6:45:00 PM 15.94 60.692 0.196 8.71 -4.28 11.62
4/8/2021 7:00:00 PM 15.97 60.746 0.219 8.74 -4.2 11.6
4/8/2021 7:15:00 PM 15.99 60.782 0.219 8.76 -4.03 11.59
4/8/2021 7:30:00 PM 16.01 60.818 0.216 8.77 -3.84 11.57
4/8/2021 7:45:00 PM 16.02 60.836 0.199 8.77 -3.45 11.53
4/8/2021 8:00:00 PM 16.03 60.854 0.192 8.78 -2.77 11.51
4/8/2021 8:15:00 PM 16.04 60.872 0.189 8.79 -2.9 11.5
4/8/2021 8:30:00 PM 16.03 60.854 0.221 8.81 -2.34 11.47
4/8/2021 8:45:00 PM 16.03 60.854 0.21 8.82 -2.35 11.43
4/8/2021 9:00:00 PM 16.02 60.836 0.197 8.82 -2.59 11.4
4/8/2021 9:15:00 PM 16.01 60.818 0.197 8.82 -2.76 11.36
4/8/2021 9:30:00 PM 15.99 60.782 0.167 8.83 -2.25 11.31
4/8/2021 9:45:00 PM 15.97 60.746 0.325 8.83 -2.2 11.27
4/8/2021 10:00:00 PM 15.95 60.71 0.317 8.81 -2.81 11.22
4/8/2021 10:15:00 PM 15.91 60.638 0.324 8.82 -2.39 11.17
4/8/2021 10:30:00 PM 15.88 60.584 0.15 8.82 -2.64 11.12
4/8/2021 10:45:00 PM 15.83 60.494 0.324 8.81 -2.85 11.05
4/8/2021 11:00:00 PM 15.79 60.422 0.163 8.8 -2.41 10.99
4/8/2021 11:15:00 PM 15.74 60.332 0.194 8.77 -2.52 10.9
4/8/2021 11:30:00 PM 15.69 60.242 0.202 8.77 -2.76 10.83
4/8/2021 11:45:00 PM 15.63 60.134 0.198 8.74 -2.63 10.77
4/9/2021 12:00:00 AM 15.57 60.026 0.202 8.71 -2.54 10.7
4/9/2021 12:15:00 AM 15.5 59.9 0.192 8.68 -2.57 10.62
4/9/2021 12:30:00 AM 15.43 59.774 0.189 8.65 -2.41 10.53
4/9/2021 12:45:00 AM 15.36 59.648 0.176 8.61 -2.03 10.46
4/9/2021 1:00:00 AM 15.29 59.522 0.161 8.58 -2.36 10.38
4/9/2021 1:15:00 AM 15.22 59.396 0.325 8.53 -2.6 10.31
4/9/2021 1:30:00 AM 15.14 59.252 0.189 8.5 -2.6 10.24
4/9/2021 1:45:00 AM 15.07 59.126 0.128 8.45 -2.6 10.19
4/9/2021 2:00:00 AM 15 59 0.177 8.42 -2.69 10.12
4/9/2021 2:15:00 AM 14.93 58.874 0.157 8.39 -2.7 10.07
4/9/2021 2:30:00 AM 14.86 58.748 0.322 8.36 -2.1 10.02
4/9/2021 2:45:00 AM 14.78 58.604 0.185 8.31 -3.02 9.97
4/9/2021 3:00:00 AM 14.72 58.496 0.14 8.28 -3.3 9.93
4/9/2021 3:15:00 AM 14.65 58.37 0.192 8.26 -3.16 9.89
4/9/2021 3:30:00 AM 14.59 58.262 0.173 8.22 -2.01 9.87
4/9/2021 3:45:00 AM 14.52 58.136 0.149 8.21 -3.17 9.83
4/9/2021 4:00:00 AM 14.46 58.028 0.138 8.17 -2.83 9.79
4/9/2021 4:15:00 AM 14.4 57.92 0.121 8.15 -3 9.78
4/9/2021 4:30:00 AM 14.34 57.812 0.154 8.13 -3.26 9.76
4/9/2021 4:45:00 AM 14.28 57.704 0.201 8.11 -3.25 9.73
4/9/2021 5:00:00 AM 14.21 57.578 0.143 8.09 -3.24 9.71
4/9/2021 5:15:00 AM 14.15 57.47 0.212 8.07 -3.49 9.69
4/9/2021 5:30:00 AM 14.1 57.38 0.14 8.06 -3.46 9.67
4/9/2021 5:45:00 AM 14.04 57.272 0.341 8.04 -3.37 9.66
4/9/2021 6:00:00 AM 13.99 57.182 0.179 8.02 -3.31 9.64
4/9/2021 6:15:00 AM 13.93 57.074 0.16 8.01 -3.2 9.63
4/9/2021 6:30:00 AM 13.88 56.984 0.119 8 -2.57 9.62
4/9/2021 6:45:00 AM 13.83 56.894 0.149 8 -3.27 9.62
4/9/2021 7:00:00 AM 13.78 56.804 0.18 7.97 -3.28 9.62
4/9/2021 7:15:00 AM 13.74 56.732 0.131 7.98 -3.37 9.63
4/9/2021 7:30:00 AM 13.7 56.66 0.184 7.97 -3.15 9.67
4/9/2021 7:45:00 AM 13.67 56.606 0.179 7.96 -3.06 9.7
4/9/2021 8:00:00 AM 13.64 56.552 0.198 7.95 -3.16 9.7
4/9/2021 8:15:00 AM 13.61 56.498 0.181 7.94 -2.9 9.68
4/9/2021 8:30:00 AM 13.59 56.462 0.18 7.95 -3.42 9.77
4/9/2021 8:45:00 AM 13.57 56.426 0.14 7.95 -3.07 9.75
4/9/2021 9:00:00 AM 13.55 56.39 0.137 7.95 -2.94 9.75
4/9/2021 9:15:00 AM 13.53 56.354 0.285 7.94 -3.22 9.76
4/9/2021 9:30:00 AM 13.52 56.336 0.207 7.93 -3.19 9.76
4/9/2021 9:45:00 AM 13.52 56.336 0.333 7.94 -2.9 9.82
4/9/2021 10:00:00 AM 13.5 56.3 0.336 7.93 -3.2 9.8
4/9/2021 10:15:00 AM 13.49 56.282 0.338 7.93 -3.37 9.81
4/9/2021 10:30:00 AM 13.48 56.264 0.217 7.92 -3.51 9.79
4/9/2021 10:45:00 AM 13.46 56.228 0.189 7.93 -3.21 9.79
4/9/2021 11:00:00 AM 13.46 56.228 0.21 7.93 -3.21 9.9
4/9/2021 11:15:00 AM 13.45 56.21 0.189 7.92 -3.19 9.91
4/9/2021 11:30:00 AM 13.45 56.21 0.207 7.93 -3.46 9.95
4/9/2021 11:45:00 AM 13.45 56.21 0.207 7.93 -3.38 9.99
4/9/2021 12:00:00 PM 13.46 56.228 0.196 7.94 -3.52 10.06
4/9/2021 12:15:00 PM 13.46 56.228 0.22 7.94 -3.42 10.04
4/9/2021 12:30:00 PM 13.46 56.228 0.199 7.94 -3.01 10.09
4/9/2021 12:45:00 PM 13.49 56.282 0.2 7.96 -3.49 10.16
4/9/2021 1:00:00 PM 13.49 56.282 0.197 7.95 -3.42 10.12
4/9/2021 1:15:00 PM 13.5 56.3 0.206 7.96 -3.52 10.19
4/9/2021 1:30:00 PM 13.53 56.354 0.197 7.98 -3.45 10.29
4/9/2021 1:45:00 PM 13.54 56.372 0.137 7.99 -3.46 10.27
4/9/2021 2:00:00 PM 13.56 56.408 0.163 7.99 -3.41 10.32
4/9/2021 2:15:00 PM 13.57 56.426 0.194 8 -3.24 10.34
4/9/2021 2:30:00 PM 13.58 56.444 0.145 8.01 -3.23 10.4
4/9/2021 2:45:00 PM 13.59 56.462 0.206 8.03 -3.11 10.41
4/9/2021 3:00:00 PM 13.6 56.48 0.213 8.03 -3.05 10.44
4/9/2021 3:15:00 PM 13.6 56.48 0.187 8.03 -3.17 10.47
4/9/2021 3:30:00 PM 13.62 56.516 0.199 8.06 -3.12 10.56
4/9/2021 3:45:00 PM 13.63 56.534 0.183 8.05 -3.29 10.6
4/9/2021 4:00:00 PM 13.63 56.534 0.179 8.08 -3.05 10.61
4/9/2021 4:15:00 PM 13.63 56.534 0.131 8.09 -3.06 10.64
4/9/2021 4:30:00 PM 13.63 56.534 0.154 8.1 -2.96 10.69
4/9/2021 4:45:00 PM 13.63 56.534 0.16 8.1 -2.37 10.69
4/9/2021 5:00:00 PM 13.64 56.552 0.206 8.13 -2.54 10.77
4/9/2021 5:15:00 PM 13.65 56.57 0.125 8.15 -2.28 10.82
4/9/2021 5:30:00 PM 13.65 56.57 0.144 8.16 -2.41 10.82
4/9/2021 5:45:00 PM 13.65 56.57 0.196 8.15 -2.36 10.86
4/9/2021 6:00:00 PM 13.65 56.57 0.205 8.19 -2.41 10.9
4/9/2021 6:15:00 PM 13.66 56.588 0.166 8.22 -2.42 10.98
4/9/2021 6:30:00 PM 13.66 56.588 0.21 8.23 -2.5 11.01
4/9/2021 6:45:00 PM 13.66 56.588 0.203 8.24 -2.18 11
4/9/2021 7:00:00 PM 13.66 56.588 0.188 8.24 -2.04 11.04
4/9/2021 7:15:00 PM 13.65 56.57 0.197 8.27 -1.87 11.06
4/9/2021 7:30:00 PM 13.65 56.57 0.147 8.28 -1.6 11.05
4/9/2021 7:45:00 PM 13.64 56.552 0.218 8.28 -1.85 11.05
4/9/2021 8:00:00 PM 13.63 56.534 0.211 8.29 -1.18 11.05
4/9/2021 8:15:00 PM 13.62 56.516 0.135 8.27 -0.73 11.05
4/9/2021 8:30:00 PM 13.61 56.498 0.281 8.29 -1.29 11.04
4/9/2021 8:45:00 PM 13.59 56.462 0.205 8.28 -1.51 11.03
4/9/2021 9:00:00 PM 13.58 56.444 0.123 8.28 -1.29 11.01
4/9/2021 9:15:00 PM 13.56 56.408 0.159 8.29 -0.49 11
4/9/2021 9:30:00 PM 13.55 56.39 0.125 8.28 0.36 10.97
4/9/2021 9:45:00 PM 13.53 56.354 0.228 8.28 -1.2 10.96
4/9/2021 10:00:00 PM 13.52 56.336 0.335 8.27 -1.27 10.92
4/9/2021 10:15:00 PM 13.5 56.3 0.209 8.26 -1.35 10.89
4/9/2021 10:30:00 PM 13.48 56.264 0.159 8.24 -1.19 10.86
4/9/2021 10:45:00 PM 13.46 56.228 0.197 8.23 -1.62 10.81
4/9/2021 11:00:00 PM 13.44 56.192 0.163 8.22 -1.6 10.77
4/9/2021 11:15:00 PM 13.42 56.156 0.142 8.21 -0.88 10.73
4/9/2021 11:30:00 PM 13.39 56.102 0.182 8.17 -1.51 10.69
4/9/2021 11:45:00 PM 13.37 56.066 0.203 8.17 -1.8 10.64
4/10/2021 12:00:00 AM 13.35 56.03 0.213 8.15 -1.98 10.59
4/10/2021 12:15:00 AM 13.32 55.976 0.178 8.13 -1.99 10.55
4/10/2021 12:30:00 AM 13.3 55.94 0.331 8.12 -1.64 10.51
4/10/2021 12:45:00 AM 13.27 55.886 0.12 8.1 -1.85 10.46
4/10/2021 1:00:00 AM 13.25 55.85 0.121 8.08 -1.62 10.41
4/10/2021 1:15:00 AM 13.22 55.796 0.392 8.07 -1.41 10.37
4/10/2021 1:30:00 AM 13.2 55.76 0.132 8.06 -1.82 10.32
4/10/2021 1:45:00 AM 13.17 55.706 0.179 8.02 -2.24 10.28
4/10/2021 2:00:00 AM 13.15 55.67 0.181 8.02 -2.21 10.25
4/10/2021 2:15:00 AM 13.12 55.616 0.181 8.01 -1.97 10.21
4/10/2021 2:30:00 AM 13.1 55.58 0.289 8.01 -2.09 10.19
4/10/2021 2:45:00 AM 13.07 55.526 0.184 7.98 -2.11 10.14
4/10/2021 3:00:00 AM 13.05 55.49 0.195 7.98 -2.23 10.13
4/10/2021 3:15:00 AM 13.03 55.454 0.201 7.97 -2.33 10.11
4/10/2021 3:30:00 AM 13 55.4 0.207 7.96 -2.21 10.08
4/10/2021 3:45:00 AM 12.98 55.364 0.206 7.96 -2.17 10.06
4/10/2021 4:00:00 AM 12.96 55.328 0.181 7.95 -2.19 10.05
4/10/2021 4:15:00 AM 12.94 55.292 0.202 7.95 -2.13 10.03
4/10/2021 4:30:00 AM 12.91 55.238 0.208 7.94 -2.13 10.01
4/10/2021 4:45:00 AM 12.89 55.202 0.348 7.93 -2.34 9.99
4/10/2021 5:00:00 AM 12.87 55.166 0.183 7.92 -2.34 9.98
4/10/2021 5:15:00 AM 12.85 55.13 0.155 7.93 -2.41 9.98
4/10/2021 5:30:00 AM 12.83 55.094 0.218 7.92 -2.2 9.97
4/10/2021 5:45:00 AM 12.81 55.058 0.178 7.9 -2.68 9.95
4/10/2021 6:00:00 AM 12.79 55.022 0.223 7.91 -2.36 9.95
4/10/2021 6:15:00 AM 12.77 54.986 0.213 7.91 -2.54 9.95
4/10/2021 6:30:00 AM 12.75 54.95 0.201 7.9 -2.15 9.93
4/10/2021 6:45:00 AM 12.73 54.914 0.145 7.9 -2.14 9.93
4/10/2021 7:00:00 AM 12.71 54.878 0.184 7.9 -2.11 9.93
4/10/2021 7:15:00 AM 12.7 54.86 0.118 7.89 -2.18 9.94
4/10/2021 7:30:00 AM 12.68 54.824 0.192 7.9 -2.17 9.94
4/10/2021 7:45:00 AM 12.67 54.806 0.135 7.88 -2.29 9.96
4/10/2021 8:00:00 AM 12.66 54.788 0.339 7.88 -2.25 9.98
4/10/2021 8:15:00 AM 12.65 54.77 0.142 7.9 -2.23 9.99
4/10/2021 8:30:00 AM 12.64 54.752 0.156 7.89 -2.3 10.01
4/10/2021 8:45:00 AM 12.63 54.734 0.345 7.9 -2.53 10.02
4/10/2021 9:00:00 AM 12.63 54.734 0.123 7.9 -2.55 10.07
4/10/2021 9:15:00 AM 12.63 54.734 0.399 7.9 -2.39 10.1
4/10/2021 9:30:00 AM 12.64 54.752 0.181 7.9 -2.42 10.13
4/10/2021 9:45:00 AM 12.66 54.788 0.135 7.91 -2.47 10.17
4/10/2021 10:00:00 AM 12.68 54.824 0.351 7.92 -2.92 10.24
4/10/2021 10:15:00 AM 12.69 54.842 0.146 7.91 -2.65 10.21
4/10/2021 10:30:00 AM 12.7 54.86 0.139 7.92 -2.6 10.24
4/10/2021 10:45:00 AM 12.72 54.896 0.185 7.92 -2.69 10.28
4/10/2021 11:00:00 AM 12.75 54.95 0.191 7.92 -2.54 10.32
4/10/2021 11:15:00 AM 12.77 54.986 0.19 7.93 -2.82 10.34
4/10/2021 11:30:00 AM 12.81 55.058 0.21 7.94 -2.79 10.38
4/10/2021 11:45:00 AM 12.83 55.094 0.196 7.94 -2.63 10.4
4/10/2021 12:00:00 PM 12.86 55.148 0.331 7.95 -2.67 10.4
4/10/2021 12:15:00 PM 12.87 55.166 0.193 7.93 -2.75 10.39
4/10/2021 12:30:00 PM 12.89 55.202 0.2 7.95 -2.78 10.4
4/10/2021 12:45:00 PM 12.9 55.22 0.211 7.96 -2.61 10.4
4/10/2021 1:00:00 PM 12.92 55.256 0.2 7.97 -2.7 10.41
4/10/2021 1:15:00 PM 12.93 55.274 0.276 7.97 -2.84 10.4
4/10/2021 1:30:00 PM 12.95 55.31 0.155 7.99 -2.72 10.5
4/10/2021 1:45:00 PM 12.99 55.382 0.213 8 -2.68 10.61
4/10/2021 2:00:00 PM 13.06 55.508 0.341 8.03 -2.9 10.74
4/10/2021 2:15:00 PM 13.11 55.598 0.201 8.04 -3.04 10.76
4/10/2021 2:30:00 PM 13.16 55.688 0.229 8.07 -3.11 10.84
4/10/2021 2:45:00 PM 13.19 55.742 0.218 8.08 -3.25 10.87
4/10/2021 3:00:00 PM 13.2 55.76 0.204 8.07 -2.92 10.86
4/10/2021 3:15:00 PM 13.28 55.904 0.169 8.11 -3 11.05
4/10/2021 3:30:00 PM 13.36 56.048 0.19 8.14 -3.25 11.09
4/10/2021 3:45:00 PM 13.43 56.174 0.222 8.17 -3.24 11.15
4/10/2021 4:00:00 PM 13.5 56.3 0.272 8.2 -3.26 11.27
4/10/2021 4:15:00 PM 13.56 56.408 0.155 8.24 -3.15 11.32
4/10/2021 4:30:00 PM 13.65 56.57 0.205 8.27 -3.42 11.42
4/10/2021 4:45:00 PM 13.71 56.678 0.155 8.3 -3.42 11.44
4/10/2021 5:00:00 PM 13.76 56.768 0.159 8.32 -3.48 11.48
4/10/2021 5:15:00 PM 13.8 56.84 0.205 8.34 -3.54 11.49
4/10/2021 5:30:00 PM 13.84 56.912 0.236 8.36 -3.25 11.48
4/10/2021 5:45:00 PM 13.87 56.966 0.272 8.38 -3.1 11.48
4/10/2021 6:00:00 PM 13.91 57.038 0.22 8.4 -3.26 11.48
4/10/2021 6:15:00 PM 13.94 57.092 0.196 8.41 -3.23 11.46
4/10/2021 6:30:00 PM 13.96 57.128 0.137 8.43 -3.33 11.45
4/10/2021 6:45:00 PM 13.98 57.164 0.157 8.43 -2.51 11.43
4/10/2021 7:00:00 PM 14 57.2 0.155 8.44 -2.28 11.42
4/10/2021 7:15:00 PM 14.01 57.218 0.268 8.45 -2.63 11.41
4/10/2021 7:30:00 PM 14.02 57.236 0.161 8.47 -2.41 11.39
4/10/2021 7:45:00 PM 14.03 57.254 0.341 8.48 -2.77 11.4
4/10/2021 8:00:00 PM 14.04 57.272 0.206 8.5 -2.48 11.39
4/10/2021 8:15:00 PM 14.06 57.308 0.177 8.49 -2.27 11.39
4/10/2021 8:30:00 PM 14.08 57.344 0.323 8.51 -1.96 11.4
4/10/2021 8:45:00 PM 14.09 57.362 0.187 8.52 -2.29 11.4
4/10/2021 9:00:00 PM 14.11 57.398 0.176 8.53 -2.67 11.41
4/10/2021 9:15:00 PM 14.13 57.434 0.159 8.55 -2.38 11.41
4/10/2021 9:30:00 PM 14.15 57.47 0.179 8.54 -2.62 11.4
4/10/2021 9:45:00 PM 14.17 57.506 0.125 8.56 -2.25 11.39
4/10/2021 10:00:00 PM 14.18 57.524 0.334 8.57 -2.32 11.36
4/10/2021 10:15:00 PM 14.18 57.524 0.335 8.58 -1.95 11.35
4/10/2021 10:30:00 PM 14.19 57.542 0.268 8.59 -1.51 11.32
4/10/2021 10:45:00 PM 14.2 57.56 0.334 8.58 -2.57 11.28
4/10/2021 11:00:00 PM 14.2 57.56 0.148 8.57 -2.56 11.23
4/10/2021 11:15:00 PM 14.2 57.56 0.192 8.55 -2.49 11.17
4/10/2021 11:30:00 PM 14.19 57.542 0.338 8.54 -2.56 11.11
4/10/2021 11:45:00 PM 14.18 57.524 0.122 8.52 -2.7 11.04
4/11/2021 12:00:00 AM 14.16 57.488 0.118 8.5 -2.49 10.97
4/11/2021 12:15:00 AM 14.14 57.452 0.204 8.48 -2.73 10.88
4/11/2021 12:30:00 AM 14.12 57.416 0.167 8.43 -2.81 10.8
4/11/2021 12:45:00 AM 14.09 57.362 0.216 8.4 -2.7 10.72
4/11/2021 1:00:00 AM 14.06 57.308 0.148 8.37 -2.75 10.64
4/11/2021 1:15:00 AM 14.03 57.254 0.218 8.34 -2.75 10.56
4/11/2021 1:30:00 AM 14 57.2 0.117 8.29 -2.53 10.47
4/11/2021 1:45:00 AM 13.97 57.146 0.233 8.26 -2.69 10.4
4/11/2021 2:00:00 AM 13.93 57.074 0.331 8.23 -2.8 10.33
4/11/2021 2:15:00 AM 13.9 57.02 0.226 8.2 -2.57 10.26
4/11/2021 2:30:00 AM 13.86 56.948 0.123 8.16 -2.53 10.2
4/11/2021 2:45:00 AM 13.83 56.894 0.229 8.15 -2.83 10.15
4/11/2021 3:00:00 AM 13.8 56.84 0.18 8.12 -2.76 10.1
4/11/2021 3:15:00 AM 13.76 56.768 0.211 8.1 -3.04 10.06
4/11/2021 3:30:00 AM 13.72 56.696 0.16 8.09 -2.69 10.01
4/11/2021 3:45:00 AM 13.69 56.642 0.14 8.07 -3.2 9.97
4/11/2021 4:00:00 AM 13.65 56.57 0.128 8.03 -3.1 9.93
4/11/2021 4:15:00 AM 13.61 56.498 0.218 8.03 -3.28 9.91
4/11/2021 4:30:00 AM 13.58 56.444 0.12 8 -2.89 9.87
4/11/2021 4:45:00 AM 13.55 56.39 0.166 8 -2.96 9.84
4/11/2021 5:00:00 AM 13.52 56.336 0.196 7.98 -3.35 9.81
4/11/2021 5:15:00 AM 13.49 56.282 0.209 7.98 -3.32 9.79
4/11/2021 5:30:00 AM 13.46 56.228 0.159 7.96 -3.23 9.77
4/11/2021 5:45:00 AM 13.44 56.192 0.149 7.97 -3.18 9.76
4/11/2021 6:00:00 AM 13.41 56.138 0.341 7.95 -3.12 9.74
4/11/2021 6:15:00 AM 13.39 56.102 0.198 7.94 -3.08 9.72
4/11/2021 6:30:00 AM 13.38 56.084 0.161 7.93 -2.88 9.72
4/11/2021 6:45:00 AM 13.36 56.048 0.21 7.94 -3.37 9.7
4/11/2021 7:00:00 AM 13.35 56.03 0.188 7.92 -3.18 9.7
4/11/2021 7:15:00 AM 13.34 56.012 0.151 7.93 -3.23 9.69
4/11/2021 7:30:00 AM 13.32 55.976 0.222 7.91 -3.1 9.68
4/11/2021 7:45:00 AM 13.32 55.976 0.177 7.89 -3.07 9.67
4/11/2021 8:00:00 AM 13.31 55.958 0.143 7.9 -2.72 9.68
4/11/2021 8:15:00 AM 13.3 55.94 0.204 7.89 -2.87 9.68
4/11/2021 8:30:00 AM 13.3 55.94 0.149 7.89 -3.08 9.7
4/11/2021 8:45:00 AM 13.3 55.94 0.132 7.89 -3.02 9.71
4/11/2021 9:00:00 AM 13.29 55.922 0.126 7.88 -2.7 9.68
4/11/2021 9:15:00 AM 13.3 55.94 0.131 7.88 -3.16 9.68
4/11/2021 9:30:00 AM 13.3 55.94 0.118 7.87 -2.97 9.7
4/11/2021 9:45:00 AM 13.31 55.958 0.143 7.88 -3.16 9.71
4/11/2021 10:00:00 AM 13.32 55.976 0.346 7.87 -3.09 9.74
4/11/2021 10:15:00 AM 13.34 56.012 0.178 7.85 -2.86 9.72
4/11/2021 10:30:00 AM 13.35 56.03 0.239 7.86 -2.5 9.73
4/11/2021 10:45:00 AM 13.38 56.084 0.179 7.86 -1.97 9.77
4/11/2021 11:00:00 AM 13.39 56.102 0.334 7.85 -1.71 9.76
4/11/2021 11:15:00 AM 13.41 56.138 0.164 7.86 -1.06 9.77
4/11/2021 11:30:00 AM 13.43 56.174 0.233 7.85 -0.61 9.79
4/11/2021 11:45:00 AM 13.48 56.264 0.18 7.85 0.18 9.83
4/11/2021 12:00:00 PM 13.55 56.39 0.138 7.85 0.18 9.86
4/11/2021 12:15:00 PM 13.61 56.498 0.37 7.86 0.5 9.88
4/11/2021 12:30:00 PM 13.65 56.57 0.206 7.86 -0.23 9.9
4/11/2021 12:45:00 PM 13.69 56.642 0.154 7.87 -0.28 9.93
4/11/2021 1:00:00 PM 13.73 56.714 0.215 7.9 -0.35 10.02
4/11/2021 1:15:00 PM 13.77 56.786 0.153 7.91 0.23 10.07
4/11/2021 1:30:00 PM 13.77 56.786 0.182 7.91 0.4 10.03
4/11/2021 1:45:00 PM 13.82 56.876 0.144 7.92 0.74 10.1
4/11/2021 2:00:00 PM 13.89 57.002 0.178 7.94 0.84 10.16
4/11/2021 2:15:00 PM 14.02 57.236 0.107 7.94 1.37 10.23
4/11/2021 2:30:00 PM 14.08 57.344 0.154 7.97 1.08 10.23
4/11/2021 2:45:00 PM 14.18 57.524 0.161 7.97 1.01 10.25
4/11/2021 3:00:00 PM 14.22 57.596 0.194 7.99 1.44 10.29
4/11/2021 3:15:00 PM 14.22 57.596 0.171 7.96 1.96 10.23
4/11/2021 3:30:00 PM 14.32 57.776 0.202 7.98 2.16 10.27
4/11/2021 3:45:00 PM 14.39 57.902 0.163 7.96 2.74 10.25
4/11/2021 4:00:00 PM 14.49 58.082 0.224 7.96 3.4 10.21
4/11/2021 4:15:00 PM 14.58 58.244 0.185 7.96 3.47 10.16
4/11/2021 4:30:00 PM 14.67 58.406 0.214 7.94 4.38 10.12
4/11/2021 4:45:00 PM 14.74 58.532 0.204 7.93 4.33 10.07
4/11/2021 5:00:00 PM 14.76 58.568 0.193 7.91 4.52 9.99
4/11/2021 5:15:00 PM 14.8 58.64 0.183 7.89 4.97 9.98
4/11/2021 5:30:00 PM 14.78 58.604 0.171 7.86 5.27 9.94
4/11/2021 5:45:00 PM 14.78 58.604 0.182 7.86 5.63 9.92
4/11/2021 6:00:00 PM 14.77 58.586 0.176 7.84 6.5 9.91
4/11/2021 6:15:00 PM 14.75 58.55 0.172 7.85 7.16 9.9
4/11/2021 6:30:00 PM 14.74 58.532 0.171 7.85 7.95 9.88
4/11/2021 6:45:00 PM 14.73 58.514 0.178 7.85 8.05 9.86
4/11/2021 7:00:00 PM 14.73 58.514 0.161 7.83 17.8 9.84
4/11/2021 7:15:00 PM 14.73 58.514 0.162 7.83 10.77 9.81
4/11/2021 7:30:00 PM 14.72 58.496 0.172 7.8 10.78 9.79
4/11/2021 7:45:00 PM 14.7 58.46 0.168 7.79 11.6 9.77
4/11/2021 8:00:00 PM 14.68 58.424 0.162 7.79 12.37 9.75
4/11/2021 8:15:00 PM 14.66 58.388 0.264 7.79 14.06 9.73
4/11/2021 8:30:00 PM 14.63 58.334 0.164 7.78 14.16 9.71
4/11/2021 8:45:00 PM 14.6 58.28 0.146 7.75 15.69 9.69
4/11/2021 9:00:00 PM 14.57 58.226 0.145 7.75 15.39 9.67
4/11/2021 9:15:00 PM 14.53 58.154 0.179 7.74 15.59 9.65
4/11/2021 9:30:00 PM 14.51 58.118 0.153 7.74 15.49 9.63
4/11/2021 9:45:00 PM 14.48 58.064 0.156 7.73 17.79 9.6
4/11/2021 10:00:00 PM 14.47 58.046 0.165 7.74 16.74 9.59
4/11/2021 10:15:00 PM 14.46 58.028 0.146 7.74 16.93 9.57
4/11/2021 10:30:00 PM 14.43 57.974 0.143 7.74 17.55 9.57
4/11/2021 10:45:00 PM 14.41 57.938 0.16 7.73 18.37 9.56
4/11/2021 11:00:00 PM 14.4 57.92 0.271 7.73 18.15 9.56
4/11/2021 11:15:00 PM 14.37 57.866 0.272 7.72 17.48 9.56
4/11/2021 11:30:00 PM 14.35 57.83 0.17 7.73 18.2 9.55
4/11/2021 11:45:00 PM 14.32 57.776 0.146 7.72 16.77 9.56
4/12/2021 12:00:00 AM 14.29 57.722 0.144 7.71 16.59 9.55
4/12/2021 12:15:00 AM 14.23 57.614 0.149 7.68 16.66 9.55
4/12/2021 12:30:00 AM 14.18 57.524 0.181 7.69 16.83 9.55
4/12/2021 12:45:00 AM 14.14 57.452 0.183 7.68 17.86 9.54
4/12/2021 1:00:00 AM 14.08 57.344 0.183 7.69 17.42 9.56
4/12/2021 1:15:00 AM 14.02 57.236 0.187 7.69 19.63 9.58
4/12/2021 1:30:00 AM 13.99 57.182 0.173 7.72 22.91 9.6
4/12/2021 1:45:00 AM 13.98 57.164 0.172 7.72 24.58 9.62
4/12/2021 2:00:00 AM 13.95 57.11 0.162 7.72 23.86 9.64
4/12/2021 2:15:00 AM 13.92 57.056 0.155 7.71 23.31 9.66
4/12/2021 2:30:00 AM 13.89 57.002 0.173 7.69 22.78 9.68
4/12/2021 2:45:00 AM 13.85 56.93 0.159 7.69 23.69 9.69
4/12/2021 3:00:00 AM 13.82 56.876 0.185 7.66 23.74 9.7
4/12/2021 3:15:00 AM 13.79 56.822 0.18 7.68 23.85 9.73
4/12/2021 3:30:00 AM 13.76 56.768 0.175 7.69 24.56 9.75
4/12/2021 3:45:00 AM 13.73 56.714 0.276 7.68 26.21 9.77
4/12/2021 4:00:00 AM 13.7 56.66 0.184 7.67 24.64 9.78
4/12/2021 4:15:00 AM 13.69 56.642 0.181 7.68 24.88 9.78
4/12/2021 4:30:00 AM 13.68 56.624 0.272 7.69 22.79 9.79
4/12/2021 4:45:00 AM 13.67 56.606 0.18 7.69 22.3 9.79
4/12/2021 5:00:00 AM 13.66 56.588 0.174 7.67 21.53 9.79
4/12/2021 5:15:00 AM 13.65 56.57 0.269 7.69 25.45 9.78
4/12/2021 5:30:00 AM 13.62 56.516 0.183 7.69 31.26 9.77
4/12/2021 5:45:00 AM 13.59 56.462 0.267 7.7 36.15 9.77
4/12/2021 6:00:00 AM 13.55 56.39 0.267 7.7 37.89 9.77
4/12/2021 6:15:00 AM 13.51 56.318 0.163 7.67 37.05 9.79
4/12/2021 6:30:00 AM 13.46 56.228 0.16 7.69 37.35 9.82
4/12/2021 6:45:00 AM 13.4 56.12 0.156 7.67 37 9.83
4/12/2021 7:00:00 AM 13.36 56.048 0.134 7.67 36.11 9.86
4/12/2021 7:15:00 AM 13.31 55.958 0.152 7.67 33.84 9.86
4/12/2021 7:30:00 AM 13.28 55.904 0.131 7.67 31.93 9.88
4/12/2021 7:45:00 AM 13.25 55.85 0.158 7.64 29.48 9.89
4/12/2021 8:00:00 AM 13.22 55.796 0.155 7.65 26.98 9.91
4/12/2021 8:15:00 AM 13.2 55.76 0.127 7.66 24.98 9.92
4/12/2021 8:30:00 AM 13.18 55.724 0.239 7.69 23.45 9.94
4/12/2021 8:45:00 AM 13.15 55.67 0.152 7.68 22.32 9.97
4/12/2021 9:00:00 AM 13.12 55.616 0.149 7.68 19.58 9.99
4/12/2021 9:15:00 AM 13.09 55.562 0.159 7.68 18.75 10.01
4/12/2021 9:30:00 AM 13.06 55.508 0.166 7.68 17.9 10.03
4/12/2021 9:45:00 AM 13.02 55.436 0.155 7.7 17.44 10.06
4/12/2021 10:00:00 AM 12.99 55.382 0.175 7.7 16.01 10.06
4/12/2021 10:15:00 AM 12.96 55.328 0.162 7.71 15.74 10.09
4/12/2021 10:30:00 AM 12.93 55.274 0.14 7.73 15.23 10.09
4/12/2021 10:45:00 AM 12.91 55.238 0.262 7.73 14.56 10.12
4/12/2021 11:00:00 AM 12.89 55.202 0.168 7.7 14.76 10.13
4/12/2021 11:15:00 AM 12.88 55.184 0.187 7.74 14.13 10.14
4/12/2021 11:30:00 AM 12.86 55.148 0.262 7.73 14.12 10.15
4/12/2021 11:45:00 AM 12.85 55.13 0.172 7.71 13.88 10.17
4/12/2021 12:00:00 PM 12.84 55.112 0.159 7.73 11.88 10.18
4/12/2021 12:15:00 PM 12.83 55.094 0.258 7.73 14.49 10.19
4/12/2021 12:30:00 PM 12.81 55.058 0.18 7.73 14.72 10.19
4/12/2021 12:45:00 PM 12.79 55.022 0.178 7.73 15.6 10.2
4/12/2021 1:00:00 PM 12.78 55.004 0.194 7.73 15.92 10.21
4/12/2021 1:15:00 PM 12.77 54.986 0.175 7.73 16.76 10.2
4/12/2021 1:30:00 PM 12.77 54.986 0.177 7.69 17.73 10.21
4/12/2021 1:45:00 PM 12.76 54.968 0.176 7.74 18.36 10.2
4/12/2021 2:00:00 PM 12.76 54.968 0.262 7.73 19.41 10.21
4/12/2021 2:15:00 PM 12.76 54.968 0.161 7.73 19.71 10.21
4/12/2021 2:30:00 PM 12.76 54.968 0.139 7.72 20.48 10.2
4/12/2021 2:45:00 PM 12.76 54.968 0.175 7.74 20.81 10.2
4/12/2021 3:00:00 PM 12.75 54.95 0.169 7.73 18.71 10.2
4/12/2021 3:15:00 PM 12.75 54.95 0.176 7.74 19.61 10.2
4/12/2021 3:30:00 PM 12.74 54.932 0.151 7.74 19.18 10.22
4/12/2021 3:45:00 PM 12.74 54.932 0.18 7.75 17.6 10.22
4/12/2021 4:00:00 PM 12.73 54.914 0.194 7.76 17.73 10.24
4/12/2021 4:15:00 PM 12.73 54.914 0.272 7.77 17.07 10.25
4/12/2021 4:30:00 PM 12.73 54.914 0.191 7.77 16.45 10.25
4/12/2021 4:45:00 PM 12.72 54.896 0.193 7.78 14.68 10.26
4/12/2021 5:00:00 PM 12.71 54.878 0.157 7.77 14.05 10.28
4/12/2021 5:15:00 PM 12.7 54.86 0.28 7.78 14.32 10.27
4/12/2021 5:30:00 PM 12.68 54.824 0.167 7.79 13.9 10.27
4/12/2021 5:45:00 PM 12.67 54.806 0.167 7.79 14.02 10.29
4/12/2021 6:00:00 PM 12.64 54.752 0.186 7.78 14.54 10.28
4/12/2021 6:15:00 PM 12.62 54.716 0.17 7.79 13.68 10.28
4/12/2021 6:30:00 PM 12.6 54.68 0.16 7.78 13.5 10.29
4/12/2021 6:45:00 PM 12.58 54.644 0.202 7.8 14.1 10.29
4/12/2021 7:00:00 PM 12.55 54.59 0.203 7.8 12.64 10.29
4/12/2021 7:15:00 PM 12.53 54.554 0.165 7.79 12.62 10.3
4/12/2021 7:30:00 PM 12.5 54.5 0.182 7.79 12.15 10.3
4/12/2021 7:45:00 PM 12.47 54.446 0.171 7.8 11.68 10.31
4/12/2021 8:00:00 PM 12.44 54.392 0.197 7.74 11.8 10.31
4/12/2021 8:15:00 PM 12.42 54.356 0.194 7.8 11.08 10.31
4/12/2021 8:30:00 PM 12.38 54.284 0.162 7.8 10.35 10.31
4/12/2021 8:45:00 PM 12.35 54.23 0.199 7.78 9.95 10.32
4/12/2021 9:00:00 PM 12.32 54.176 0.211 7.8 9.69 10.32
4/12/2021 9:15:00 PM 12.29 54.122 0.188 7.8 9.34 10.33
4/12/2021 9:30:00 PM 12.26 54.068 0.164 7.81 9.29 10.32
4/12/2021 9:45:00 PM 12.23 54.014 0.164 7.8 8.29 10.33
4/12/2021 10:00:00 PM 12.21 53.978 0.31 7.8 7.64 10.33
4/12/2021 10:15:00 PM 12.18 53.924 0.166 7.79 7.26 10.34
4/12/2021 10:30:00 PM 12.15 53.87 0.196 7.8 6.63 10.34
4/12/2021 10:45:00 PM 12.12 53.816 0.21 7.79 6.54 10.34
4/12/2021 11:00:00 PM 12.09 53.762 0.196 7.8 7.03 10.34
4/12/2021 11:15:00 PM 12.06 53.708 0.198 7.8 5.92 10.34
4/12/2021 11:30:00 PM 12.04 53.672 0.196 7.8 5.49 10.35
4/12/2021 11:45:00 PM 12.01 53.618 0.163 7.8 5.22 10.35
4/13/2021 12:00:00 AM 11.99 53.582 0.193 7.81 5.3 10.35
4/13/2021 12:15:00 AM 11.97 53.546 0.178 7.79 4.41 10.35
4/13/2021 12:30:00 AM 11.94 53.492 0.177 7.77 4.17 10.36
4/13/2021 12:45:00 AM 11.92 53.456 0.209 7.77 3.99 10.36
4/13/2021 1:00:00 AM 11.9 53.42 0.17 7.8 3.76 10.37
4/13/2021 1:15:00 AM 11.88 53.384 0.314 7.8 3.36 10.37
4/13/2021 1:30:00 AM 11.86 53.348 0.207 7.79 2.98 10.37
4/13/2021 1:45:00 AM 11.84 53.312 0.205 7.8 2.76 10.37
4/13/2021 2:00:00 AM 11.82 53.276 0.223 7.8 2.83 10.38
4/13/2021 2:15:00 AM 11.8 53.24 0.222 7.8 2.33 10.38
4/13/2021 2:30:00 AM 11.78 53.204 0.177 7.79 2.45 10.38
4/13/2021 2:45:00 AM 11.76 53.168 0.186 7.8 2.24 10.37
4/13/2021 3:00:00 AM 11.74 53.132 0.183 7.78 2.09 10.38
4/13/2021 3:15:00 AM 11.72 53.096 0.205 7.79 1.94 10.38
4/13/2021 3:30:00 AM 11.7 53.06 0.188 7.79 1.55 10.38
4/13/2021 3:45:00 AM 11.69 53.042 0.217 7.78 1.68 10.39
4/13/2021 4:00:00 AM 11.67 53.006 0.21 7.78 1.39 10.39
4/13/2021 4:15:00 AM 11.65 52.97 0.199 7.8 1.32 10.39
4/13/2021 4:30:00 AM 11.63 52.934 0.173 7.8 1.08 10.39
4/13/2021 4:45:00 AM 11.62 52.916 0.319 7.8 1.06 10.4
4/13/2021 5:00:00 AM 11.6 52.88 0.192 7.79 0.94 10.4
4/13/2021 5:15:00 AM 11.59 52.862 0.188 7.79 0.87 10.4
4/13/2021 5:30:00 AM 11.57 52.826 0.203 7.8 2.48 10.4
4/13/2021 5:45:00 AM 11.56 52.808 0.208 7.8 0.79 10.4
4/13/2021 6:00:00 AM 11.54 52.772 0.179 7.8 0.67 10.41
4/13/2021 6:15:00 AM 11.53 52.754 0.211 7.79 0.6 10.41
4/13/2021 6:30:00 AM 11.52 52.736 0.216 7.8 0.54 10.41
4/13/2021 6:45:00 AM 11.5 52.7 0.226 7.79 1.02 10.42
4/13/2021 7:00:00 AM 11.49 52.682 0.225 7.78 0.81 10.43
4/13/2021 7:15:00 AM 11.48 52.664 0.212 7.8 0.44 10.44
4/13/2021 7:30:00 AM 11.47 52.646 0.208 7.81 0.79 10.44
4/13/2021 7:45:00 AM 11.46 52.628 0.237 7.8 0.74 10.44
4/13/2021 8:00:00 AM 11.45 52.61 0.227 7.8 1.06 10.46
4/13/2021 8:15:00 AM 11.44 52.592 0.199 7.82 0.87 10.46
4/13/2021 8:30:00 AM 11.44 52.592 0.249 7.81 1.16 10.48
4/13/2021 8:45:00 AM 11.43 52.574 0.191 7.79 87.71 10.47
4/13/2021 9:00:00 AM 11.43 52.574 0.336 7.8 -0.19 10.5
4/13/2021 9:15:00 AM 11.43 52.574 0.229 7.81 0.16 10.52
4/13/2021 9:30:00 AM 11.43 52.574 0.243 7.81 -0.57 10.54
4/13/2021 9:45:00 AM 11.42 52.556 0.245 7.82 0.2 10.52
4/13/2021 10:00:00 AM 11.43 52.574 0.226 7.79 0.12 10.55
4/13/2021 10:15:00 AM 11.44 52.592 0.238 7.82 -0.23 10.58
4/13/2021 10:30:00 AM 11.47 52.646 0.25 7.84 -0.55 10.65
4/13/2021 10:45:00 AM 11.53 52.754 0.249 7.85 -0.52 10.7
4/13/2021 11:00:00 AM 11.6 52.88 0.247 7.85 -0.88 10.72
4/13/2021 11:15:00 AM 11.68 53.024 0.245 7.86 -0.86 10.72
4/13/2021 11:30:00 AM 11.75 53.15 0.248 7.87 -0.97 10.72
4/13/2021 11:45:00 AM 11.82 53.276 0.212 7.88 -1.21 10.75
4/13/2021 12:00:00 PM 11.88 53.384 0.19 7.88 -1.21 10.78
4/13/2021 12:15:00 PM 11.9 53.42 0.237 7.89 -1.35 10.77
4/13/2021 12:30:00 PM 11.97 53.546 0.234 7.91 -1.58 10.84
4/13/2021 12:45:00 PM 12.12 53.816 0.337 7.92 -1.7 10.9
4/13/2021 1:00:00 PM 12.22 53.996 0.241 7.95 -1.57 10.91
4/13/2021 1:15:00 PM 12.29 54.122 0.239 7.96 -1.67 10.93
4/13/2021 1:30:00 PM 12.41 54.338 0.23 7.96 -1.62 10.99
4/13/2021 1:45:00 PM 12.52 54.536 0.225 7.98 -1.81 11.02
4/13/2021 2:00:00 PM 12.6 54.68 0.233 8.01 -1.65 11.03
4/13/2021 2:15:00 PM 12.68 54.824 0.336 8.01 -1.81 11.03
4/13/2021 2:30:00 PM 12.78 55.004 0.213 8.06 -1.8 11.1
4/13/2021 2:45:00 PM 12.9 55.22 0.22 8.07 -2.05 11.18
4/13/2021 3:00:00 PM 12.96 55.328 0.219 8.07 -1.92 11.17
4/13/2021 3:15:00 PM 13.02 55.436 0.34 8.1 -1.72 11.19
4/13/2021 3:30:00 PM 13.12 55.616 0.236 8.14 -1.58 11.29
4/13/2021 3:45:00 PM 13.2 55.76 0.337 8.16 -2.18 11.28
4/13/2021 4:00:00 PM 13.26 55.868 0.198 8.18 -2.04 11.27
4/13/2021 4:15:00 PM 13.3 55.94 0.118 8.18 -2.01 11.24
4/13/2021 4:30:00 PM 13.35 56.03 0.201 8.2 -2.23 11.26
4/13/2021 4:45:00 PM 13.4 56.12 0.165 8.21 -2.1 11.27
4/13/2021 5:00:00 PM 13.45 56.21 0.16 8.26 -2.41 11.35
4/13/2021 5:15:00 PM 13.47 56.246 0.138 8.27 -2.18 11.3
4/13/2021 5:30:00 PM 13.53 56.354 0.154 8.28 -2.23 11.32
4/13/2021 5:45:00 PM 13.57 56.426 0.171 8.28 -2.46 11.3
4/13/2021 6:00:00 PM 13.6 56.48 0.114 8.3 -2.46 11.28
4/13/2021 6:15:00 PM 13.63 56.534 0.155 8.3 -2.38 11.26
4/13/2021 6:30:00 PM 13.64 56.552 0.205 8.31 -2.54 11.23
4/13/2021 6:45:00 PM 13.65 56.57 0.198 8.31 -2.62 11.21
4/13/2021 7:00:00 PM 13.66 56.588 0.171 8.29 -2.36 11.18
4/13/2021 7:15:00 PM 13.66 56.588 0.145 8.3 -2.61 11.15
4/13/2021 7:30:00 PM 13.66 56.588 0.165 8.28 -2.54 11.12
4/13/2021 7:45:00 PM 13.65 56.57 0.206 8.3 -2.24 11.08
4/13/2021 8:00:00 PM 13.63 56.534 0.201 8.28 -2.42 11.04
4/13/2021 8:15:00 PM 13.6 56.48 0.174 8.26 -2.35 11
4/13/2021 8:30:00 PM 13.58 56.444 0.156 8.22 -2.14 10.97
4/13/2021 8:45:00 PM 13.55 56.39 0.161 8.21 -2.31 10.93
4/13/2021 9:00:00 PM 13.53 56.354 0.172 8.22 -2.24 10.9
4/13/2021 9:15:00 PM 13.51 56.318 0.177 8.19 -2.41 10.88
4/13/2021 9:30:00 PM 13.49 56.282 0.197 8.19 -2.17 10.84
4/13/2021 9:45:00 PM 13.47 56.246 0.16 8.18 -1.7 10.81
4/13/2021 10:00:00 PM 13.44 56.192 0.196 8.16 -2.11 10.78
4/13/2021 10:15:00 PM 13.4 56.12 0.194 8.15 -2.2 10.74
4/13/2021 10:30:00 PM 13.36 56.048 0.194 8.12 -1.96 10.7
4/13/2021 10:45:00 PM 13.32 55.976 0.158 8.1 -2.2 10.66
4/13/2021 11:00:00 PM 13.28 55.904 0.102 8.09 -2.18 10.62
4/13/2021 11:15:00 PM 13.23 55.814 0.156 8.07 -2.06 10.57
4/13/2021 11:30:00 PM 13.19 55.742 0.169 8.04 -1.85 10.52
4/13/2021 11:45:00 PM 13.14 55.652 0.15 8.02 -2.02 10.48
4/14/2021 12:00:00 AM 13.09 55.562 0.161 8 -2.1 10.44
4/14/2021 12:15:00 AM 13.04 55.472 0.339 7.98 -2.01 10.42
4/14/2021 12:30:00 AM 12.99 55.382 0.167 7.95 -2.15 10.38
4/14/2021 12:45:00 AM 12.95 55.31 0.111 7.94 -2.02 10.34
4/14/2021 1:00:00 AM 12.9 55.22 0.158 7.93 -2.31 10.31
4/14/2021 1:15:00 AM 12.86 55.148 0.17 7.91 -2.16 10.29
4/14/2021 1:30:00 AM 12.82 55.076 0.112 7.89 -2.13 10.27
4/14/2021 1:45:00 AM 12.77 54.986 0.173 7.89 -2.16 10.24
4/14/2021 2:00:00 AM 12.73 54.914 0.166 7.88 -2.43 10.22
4/14/2021 2:15:00 AM 12.68 54.824 0.132 7.88 -2.32 10.21
4/14/2021 2:30:00 AM 12.63 54.734 0.122 7.87 -2.46 10.18
4/14/2021 2:45:00 AM 12.58 54.644 0.125 7.84 -2.33 10.17
4/14/2021 3:00:00 AM 12.54 54.572 0.171 7.85 -2.2 10.16
4/14/2021 3:15:00 AM 12.49 54.482 0.168 7.85 -2.47 10.15
4/14/2021 3:30:00 AM 12.44 54.392 0.22 7.83 -2.3 10.14
4/14/2021 3:45:00 AM 12.4 54.32 0.192 7.81 -0.31 10.13
4/14/2021 4:00:00 AM 12.35 54.23 0.228 7.82 -2.5 10.13
4/14/2021 4:15:00 AM 12.31 54.158 0.194 7.8 -2.4 10.12
4/14/2021 4:30:00 AM 12.27 54.086 0.222 7.81 -2.37 10.12
4/14/2021 4:45:00 AM 12.23 54.014 0.215 7.81 -2.44 10.11
4/14/2021 5:00:00 AM 12.19 53.942 0.183 7.78 -2.48 10.12
4/14/2021 5:15:00 AM 12.16 53.888 0.193 7.78 -2.36 10.12
4/14/2021 5:30:00 AM 12.12 53.816 0.202 7.8 -2.4 10.11
4/14/2021 5:45:00 AM 12.09 53.762 0.199 7.78 -2.35 10.11
4/14/2021 6:00:00 AM 12.06 53.708 0.127 7.79 -2.31 10.11
4/14/2021 6:15:00 AM 12.03 53.654 0.213 7.79 -2.35 10.12
4/14/2021 6:30:00 AM 12 53.6 0.132 7.79 -2.2 10.12
4/14/2021 6:45:00 AM 11.97 53.546 0.185 7.77 -2.13 10.12
4/14/2021 7:00:00 AM 11.94 53.492 0.131 7.79 -2.1 10.13
4/14/2021 7:15:00 AM 11.91 53.438 0.358 7.77 -2.12 10.15
4/14/2021 7:30:00 AM 11.88 53.384 0.164 7.79 -2.16 10.17
4/14/2021 7:45:00 AM 11.86 53.348 0.132 7.79 -2.1 10.2
4/14/2021 8:00:00 AM 11.85 53.33 0.223 7.78 -2.08 10.21
4/14/2021 8:15:00 AM 11.83 53.294 0.22 7.79 -1.99 10.22
4/14/2021 8:30:00 AM 11.83 53.294 0.175 7.8 -2.1 10.26
4/14/2021 8:45:00 AM 11.83 53.294 0.167 7.81 -2.11 10.29
4/14/2021 9:00:00 AM 11.83 53.294 0.117 7.79 -1.84 10.3
4/14/2021 9:15:00 AM 11.86 53.348 0.128 7.79 -2.1 10.35
4/14/2021 9:30:00 AM 11.87 53.366 0.157 7.81 -2.31 10.35
4/14/2021 9:45:00 AM 11.89 53.402 0.172 7.82 -2.36 10.36
4/14/2021 10:00:00 AM 11.9 53.42 0.218 7.82 -2.46 10.35
4/14/2021 10:15:00 AM 11.94 53.492 0.124 7.8 -2.3 10.43
4/14/2021 10:30:00 AM 11.99 53.582 0.36 7.83 -2.63 10.45
4/14/2021 10:45:00 AM 11.99 53.582 0.113 7.84 -2.54 10.42
4/14/2021 11:00:00 AM 12.02 53.636 0.158 7.84 -2.53 10.45
4/14/2021 11:15:00 AM 12.03 53.654 0.12 7.85 -2.55 10.42
4/14/2021 11:30:00 AM 12.05 53.69 0.163 7.85 -2.71 10.47
4/14/2021 11:45:00 AM 12.09 53.762 0.358 7.84 -2.95 10.53
4/14/2021 12:00:00 PM 12.13 53.834 0.21 7.87 -2.74 10.62
4/14/2021 12:15:00 PM 12.18 53.924 0.176 7.88 -2.48 10.64
4/14/2021 12:30:00 PM 12.23 54.014 0.355 7.9 -2.96 10.72
4/14/2021 12:45:00 PM 12.3 54.14 0.189 7.92 -3.01 10.76
4/14/2021 1:00:00 PM 12.36 54.248 0.353 7.93 -2.95 10.8
4/14/2021 1:15:00 PM 12.42 54.356 0.176 7.96 -3.3 10.85
4/14/2021 1:30:00 PM 12.47 54.446 0.351 7.97 -3.2 10.85
4/14/2021 1:45:00 PM 12.51 54.518 0.155 7.98 -3.24 10.89
4/14/2021 2:00:00 PM 12.58 54.644 0.117 8.02 -3.36 11
4/14/2021 2:15:00 PM 12.63 54.734 0.21 8.04 -3.38 11.07
4/14/2021 2:30:00 PM 12.67 54.806 0.208 8.05 -3.36 11.07
4/14/2021 2:45:00 PM 12.71 54.878 0.353 8.06 -3.36 11.1
4/14/2021 3:00:00 PM 12.75 54.95 0.158 8.07 -3.44 11.11
4/14/2021 3:15:00 PM 12.8 55.04 0.192 8.1 -3.29 11.14
4/14/2021 3:30:00 PM 12.83 55.094 0.222 8.1 -3.05 11.11
4/14/2021 3:45:00 PM 12.86 55.148 0.217 8.12 -3.1 11.13
4/14/2021 4:00:00 PM 12.89 55.202 0.215 8.13 -3.21 11.13
4/14/2021 4:15:00 PM 12.92 55.256 0.128 8.14 -3.25 11.17
4/14/2021 4:30:00 PM 12.95 55.31 0.12 8.15 -3.3 11.24
4/14/2021 4:45:00 PM 12.98 55.364 0.181 8.19 -3.1 11.25
4/14/2021 5:00:00 PM 13.01 55.418 0.152 8.2 -3.43 11.26
4/14/2021 5:15:00 PM 13.03 55.454 0.162 8.21 -3.19 11.25
4/14/2021 5:30:00 PM 13.06 55.508 0.174 8.21 -3.15 11.23
4/14/2021 5:45:00 PM 13.08 55.544 0.18 8.22 -3.1 11.22
4/14/2021 6:00:00 PM 13.1 55.58 0.174 8.23 -2.79 11.23
4/14/2021 6:15:00 PM 13.1 55.58 0.179 8.21 -2.97 11.21
4/14/2021 6:30:00 PM 13.1 55.58 0.175 8.22 -3.09 11.2
4/14/2021 6:45:00 PM 13.1 55.58 0.165 8.23 -2.57 11.18
4/14/2021 7:00:00 PM 13.09 55.562 0.162 8.24 -2.33 11.15
4/14/2021 7:15:00 PM 13.09 55.562 0.134 8.24 -2.69 11.12
4/14/2021 7:30:00 PM 13.08 55.544 0.191 8.24 -2.69 11.09
4/14/2021 7:45:00 PM 13.07 55.526 0.185 8.24 -2.91 11.07
4/14/2021 8:00:00 PM 13.06 55.508 0.184 8.23 -3.01 11.05
4/14/2021 8:15:00 PM 13.05 55.49 0.168 8.22 -2.76 11.03
4/14/2021 8:30:00 PM 13.03 55.454 0.11 8.21 -2.62 11
4/14/2021 8:45:00 PM 13 55.4 0.345 8.21 -2.88 10.98
4/14/2021 9:00:00 PM 12.98 55.364 0.202 8.19 -2.53 10.95
4/14/2021 9:15:00 PM 12.96 55.328 0.19 8.18 -2.54 10.94
4/14/2021 9:30:00 PM 12.93 55.274 0.11 8.15 -2.6 10.91
4/14/2021 9:45:00 PM 12.9 55.22 0.348 8.16 -2.69 10.87
4/14/2021 10:00:00 PM 12.87 55.166 0.11 8.14 -2.65 10.84
4/14/2021 10:15:00 PM 12.84 55.112 0.203 8.15 -2.75 10.81
4/14/2021 10:30:00 PM 12.81 55.058 0.208 8.12 -2.75 10.77
4/14/2021 10:45:00 PM 12.77 54.986 0.164 8.1 -3.03 10.72
4/14/2021 11:00:00 PM 12.74 54.932 0.166 8.09 -2.89 10.68
4/14/2021 11:15:00 PM 12.7 54.86 0.163 8.05 -2.94 10.64
4/14/2021 11:30:00 PM 12.67 54.806 0.114 8.04 -2.82 10.6
4/14/2021 11:45:00 PM 12.63 54.734 0.127 8.03 -3 10.57
4/15/2021 12:00:00 AM 12.6 54.68 0.166 8.02 -2.79 10.53
4/15/2021 12:15:00 AM 12.56 54.608 0.154 8.02 -2.99 10.49
4/15/2021 12:30:00 AM 12.52 54.536 0.183 7.99 -2.75 10.46
4/15/2021 12:45:00 AM 12.49 54.482 0.148 8 -2.81 10.43
4/15/2021 1:00:00 AM 12.45 54.41 0.213 7.97 -2.96 10.41
4/15/2021 1:15:00 AM 12.42 54.356 0.115 7.97 -2.87 10.38
4/15/2021 1:30:00 AM 12.38 54.284 0.209 7.94 -3.06 10.36
4/15/2021 1:45:00 AM 12.35 54.23 0.17 7.92 -3.1 10.33
4/15/2021 2:00:00 AM 12.31 54.158 0.171 7.93 -2.91 10.32
4/15/2021 2:15:00 AM 12.27 54.086 0.125 7.9 -2.93 10.3
4/15/2021 2:30:00 AM 12.24 54.032 0.21 7.91 -2.92 10.28
4/15/2021 2:45:00 AM 12.19 53.942 0.201 7.9 -3.03 10.26
4/15/2021 3:00:00 AM 12.16 53.888 0.156 7.91 -3.07 10.25
4/15/2021 3:15:00 AM 12.12 53.816 0.224 7.89 -3.3 10.24
4/15/2021 3:30:00 AM 12.08 53.744 0.123 7.89 -3.14 10.23
4/15/2021 3:45:00 AM 12.05 53.69 0.223 7.87 -3 10.22
4/15/2021 4:00:00 AM 12.02 53.636 0.354 7.88 -2.95 10.22
4/15/2021 4:15:00 AM 11.99 53.582 0.217 7.86 -3.18 10.2
4/15/2021 4:30:00 AM 11.96 53.528 0.183 7.84 -2.85 10.2
4/15/2021 4:45:00 AM 11.93 53.474 0.163 7.86 -2.9 10.2
4/15/2021 5:00:00 AM 11.91 53.438 0.222 7.86 -3.05 10.19
4/15/2021 5:15:00 AM 11.88 53.384 0.165 7.84 -2.9 10.19
4/15/2021 5:30:00 AM 11.86 53.348 0.168 7.84 -3.01 10.18
4/15/2021 5:45:00 AM 11.84 53.312 0.223 7.84 -3.11 10.18
4/15/2021 6:00:00 AM 11.81 53.258 0.189 7.82 -2.95 10.19
4/15/2021 6:15:00 AM 11.8 53.24 0.171 7.84 -3.08 10.18
4/15/2021 6:30:00 AM 11.78 53.204 0.232 7.84 -2.93 10.18
4/15/2021 6:45:00 AM 11.76 53.168 0.187 7.83 -2.79 10.18
4/15/2021 7:00:00 AM 11.75 53.15 0.244 7.84 -3.01 10.18
4/15/2021 7:15:00 AM 11.73 53.114 0.192 7.82 -2.95 10.19
4/15/2021 7:30:00 AM 11.72 53.096 0.235 7.83 -2.8 10.19
4/15/2021 7:45:00 AM 11.71 53.078 0.165 7.83 -2.77 10.2
4/15/2021 8:00:00 AM 11.7 53.06 0.203 7.83 -2.76 10.22
4/15/2021 8:15:00 AM 11.7 53.06 0.191 7.83 -2.86 10.25
4/15/2021 8:30:00 AM 11.7 53.06 0.239 7.84 -2.74 10.25
4/15/2021 8:45:00 AM 11.71 53.078 0.201 7.84 -2.84 10.27
4/15/2021 9:00:00 AM 11.72 53.096 0.186 7.84 -3.1 10.3
4/15/2021 9:15:00 AM 11.72 53.096 0.192 7.82 -2.96 10.28
4/15/2021 9:30:00 AM 11.73 53.114 0.232 7.84 -3.03 10.3
4/15/2021 9:45:00 AM 11.75 53.15 0.198 7.86 -3.06 10.36
4/15/2021 10:00:00 AM 11.76 53.168 0.165 7.86 -3.03 10.34
4/15/2021 10:15:00 AM 11.76 53.168 0.222 7.86 -3.17 10.33
4/15/2021 10:30:00 AM 11.78 53.204 0.181 7.86 -3.07 10.39
4/15/2021 10:45:00 AM 11.81 53.258 0.238 7.86 -3.01 10.42
4/15/2021 11:00:00 AM 11.81 53.258 0.359 7.86 -3.17 10.38
4/15/2021 11:15:00 AM 11.85 53.33 0.229 7.88 -2.91 10.47
4/15/2021 11:30:00 AM 11.89 53.402 0.355 7.88 -2.99 10.52
4/15/2021 11:45:00 AM 11.99 53.582 0.359 7.9 -2.97 10.59
4/15/2021 12:00:00 PM 12.05 53.69 0.121 7.91 -3.07 10.6
4/15/2021 12:15:00 PM 12.08 53.744 0.146 7.9 -3.17 10.62
4/15/2021 12:30:00 PM 12.11 53.798 0.194 7.91 -3.09 10.63
4/15/2021 12:45:00 PM 12.2 53.96 0.349 7.93 -3.28 10.72
4/15/2021 1:00:00 PM 12.27 54.086 0.199 7.95 -3.41 10.76
4/15/2021 1:15:00 PM 12.32 54.176 0.192 7.98 -3.21 10.8
4/15/2021 1:30:00 PM 12.36 54.248 0.189 7.98 -3.03 10.84
4/15/2021 1:45:00 PM 12.36 54.248 0.197 7.97 -3.12 10.72
4/15/2021 2:00:00 PM 12.41 54.338 0.199 8 -3.24 10.87
4/15/2021 2:15:00 PM 12.44 54.392 0.189 8.02 -2.89 10.87
4/15/2021 2:30:00 PM 12.47 54.446 0.195 8.05 -3.04 10.9
4/15/2021 2:45:00 PM 12.54 54.572 0.158 8.07 -2.92 11.03
4/15/2021 3:00:00 PM 12.65 54.77 0.134 8.1 -3.01 11.11
4/15/2021 3:15:00 PM 12.73 54.914 0.137 8.11 -3.03 11.15
4/15/2021 3:30:00 PM 12.82 55.076 0.129 8.14 -3.24 11.17
4/15/2021 3:45:00 PM 12.83 55.094 0.12 8.16 -3.41 11.15
4/15/2021 4:00:00 PM 12.94 55.292 0.35 8.2 -3.37 11.26
4/15/2021 4:15:00 PM 13 55.4 0.217 8.21 2.78 11.22
4/15/2021 4:30:00 PM 13.08 55.544 0.22 8.24 -3.34 11.29
4/15/2021 4:45:00 PM 13.14 55.652 0.178 8.27 -3.13 11.34
4/15/2021 5:00:00 PM 13.15 55.67 0.232 8.3 -3.25 11.32
4/15/2021 5:15:00 PM 13.19 55.742 0.173 8.33 -3.03 11.41
4/15/2021 5:30:00 PM 13.22 55.796 0.206 8.35 1.76 11.4
4/15/2021 5:45:00 PM 13.21 55.778 0.116 8.35 -3.42 11.36
4/15/2021 6:00:00 PM 13.22 55.796 0.205 8.35 -3.53 11.36
4/15/2021 6:15:00 PM 13.21 55.778 0.191 8.36 -3.51 11.32
4/15/2021 6:30:00 PM 13.19 55.742 0.119 8.35 -3.41 11.3
4/15/2021 6:45:00 PM 13.18 55.724 0.126 8.34 -3.3 11.27
4/15/2021 7:00:00 PM 13.16 55.688 0.169 8.37 -3.63 11.27
4/15/2021 7:15:00 PM 13.14 55.652 0.165 8.38 -3.61 11.25
4/15/2021 7:30:00 PM 13.11 55.598 0.144 8.38 -3.49 11.26
4/15/2021 7:45:00 PM 13.09 55.562 0.175 8.37 -3.24 11.23
4/15/2021 8:00:00 PM 13.08 55.544 0.184 8.36 -3.21 11.2
4/15/2021 8:15:00 PM 13.07 55.526 0.188 8.4 -3.18 11.19
4/15/2021 8:30:00 PM 13.06 55.508 0.185 8.4 -2.85 11.18
4/15/2021 8:45:00 PM 13.02 55.436 0.155 8.39 -2.57 11.15
4/15/2021 9:00:00 PM 12.98 55.364 0.191 8.38 -2.84 11.12
4/15/2021 9:15:00 PM 12.93 55.274 0.195 8.38 -2.85 11.09
4/15/2021 9:30:00 PM 12.87 55.166 0.116 8.36 -2.57 11.06
4/15/2021 9:45:00 PM 12.82 55.076 0.222 8.35 -2.96 11.03
4/15/2021 10:00:00 PM 12.75 54.95 0.185 8.34 -2.88 11
4/15/2021 10:15:00 PM 12.68 54.824 0.162 8.32 -3.04 10.97
4/15/2021 10:30:00 PM 12.62 54.716 0.119 8.28 -2.97 10.94
4/15/2021 10:45:00 PM 12.55 54.59 0.349 8.3 -3.06 10.92
4/15/2021 11:00:00 PM 12.48 54.464 0.19 8.26 -3.21 10.89
4/15/2021 11:15:00 PM 12.41 54.338 0.163 8.26 -3.24 10.85
4/15/2021 11:30:00 PM 12.34 54.212 0.222 8.24 -3.22 10.81
4/15/2021 11:45:00 PM 12.25 54.05 0.169 8.21 -3.09 10.78
4/16/2021 12:00:00 AM 12.18 53.924 0.217 8.2 -3.23 10.74
4/16/2021 12:15:00 AM 12.1 53.78 0.173 8.17 -3.17 10.7
4/16/2021 12:30:00 AM 12.02 53.636 0.224 8.16 -3.15 10.67
4/16/2021 12:45:00 AM 11.95 53.51 0.178 8.14 -3.14 10.65
4/16/2021 1:00:00 AM 11.87 53.366 0.173 8.12 -3.17 10.61
4/16/2021 1:15:00 AM 11.81 53.258 0.183 8.1 -3.19 10.59
4/16/2021 1:30:00 AM 11.74 53.132 0.226 8.08 -3.16 10.57
4/16/2021 1:45:00 AM 11.67 53.006 0.207 8.07 -3.45 10.55
4/16/2021 2:00:00 AM 11.61 52.898 0.169 8.06 -3.25 10.53
4/16/2021 2:15:00 AM 11.55 52.79 0.214 8.04 -3.42 10.51
4/16/2021 2:30:00 AM 11.49 52.682 0.166 8.03 -3.34 10.5
4/16/2021 2:45:00 AM 11.43 52.574 0.136 8.01 -3.11 10.48
4/16/2021 3:00:00 AM 11.37 52.466 0.36 7.99 -3.26 10.47
4/16/2021 3:15:00 AM 11.32 52.376 0.234 8 -3.23 10.46
4/16/2021 3:30:00 AM 11.27 52.286 0.128 7.98 -3.09 10.45
4/16/2021 3:45:00 AM 11.22 52.196 0.183 7.98 -3.25 10.44
4/16/2021 4:00:00 AM 11.17 52.106 0.196 7.97 -3.06 10.43
4/16/2021 4:15:00 AM 11.13 52.034 0.241 7.95 -3.17 10.42
4/16/2021 4:30:00 AM 11.09 51.962 0.229 7.96 -3.29 10.41
4/16/2021 4:45:00 AM 11.05 51.89 0.366 7.95 -3.32 10.41
4/16/2021 5:00:00 AM 11 51.8 0.239 7.95 -3.26 10.41
4/16/2021 5:15:00 AM 10.96 51.728 0.126 7.94 -3.12 10.4
4/16/2021 5:30:00 AM 10.91 51.638 0.203 7.94 -3.37 10.4
4/16/2021 5:45:00 AM 10.87 51.566 0.192 7.93 -2.96 10.4
4/16/2021 6:00:00 AM 10.84 51.512 0.249 7.92 -3.31 10.39
4/16/2021 6:15:00 AM 10.8 51.44 0.219 7.91 -3.26 10.4
4/16/2021 6:30:00 AM 10.76 51.368 0.199 7.91 -3.38 10.4
4/16/2021 6:45:00 AM 10.71 51.278 0.19 7.92 -3.32 10.42
4/16/2021 7:00:00 AM 10.68 51.224 0.24 7.91 -3.12 10.42
4/16/2021 7:15:00 AM 10.64 51.152 0.126 7.91 -3.23 10.44
4/16/2021 7:30:00 AM 10.62 51.116 0.258 7.92 -3.2 10.48
4/16/2021 7:45:00 AM 10.6 51.08 0.159 7.89 -3.12 10.49
4/16/2021 8:00:00 AM 10.59 51.062 0.254 7.91 -3.14 10.51
4/16/2021 8:15:00 AM 10.57 51.026 0.225 7.91 -3.05 10.55
4/16/2021 8:30:00 AM 10.57 51.026 0.369 7.92 -3.08 10.58
4/16/2021 8:45:00 AM 10.54 50.972 0.233 7.91 -3.11 10.56
4/16/2021 9:00:00 AM 10.54 50.972 0.236